<?xml version="1.0" encoding="UTF-8" standalone="no" ?>
<gpx xmlns="http://www.topografix.com/GPX/1/1" xmlns:xsi="http://www.w3.org/2001/XMLSchema-instance" xsi:schemaLocation="http://www.topografix.com/GPX/1/1 http://www.topografix.com/GPX/1/1/gpx.xsd" version="1.1" creator="VisuGPX - https://www.visugpx.com">
  <metadata>
    <name>VIGNOBLE-CAMPAGNE -FORET</name>
    <desc><![CDATA[Un bon circuit pour la semaine, entrainement ...]]></desc>
  </metadata>
  <trk>
    <name><![CDATA[BF35km]]></name>
    <trkseg>
      <trkpt lat="47.09395" lon="-1.43948">
        <ele>49.799999237061</ele>
        <time>2016-10-22T12:08:07Z</time>
      </trkpt>
      <trkpt lat="47.09398" lon="-1.43963">
        <ele>50</ele>
        <time>2016-10-22T12:08:12Z</time>
      </trkpt>
      <trkpt lat="47.09408" lon="-1.43969">
        <ele>50.200000762939</ele>
        <time>2016-10-22T12:08:16Z</time>
      </trkpt>
      <trkpt lat="47.09411" lon="-1.43967">
        <ele>50.200000762939</ele>
        <time>2016-10-22T12:08:17Z</time>
      </trkpt>
      <trkpt lat="47.09439" lon="-1.43943">
        <ele>51.200000762939</ele>
        <time>2016-10-22T12:08:29Z</time>
      </trkpt>
      <trkpt lat="47.09462" lon="-1.43924">
        <ele>51.200000762939</ele>
        <time>2016-10-22T12:08:37Z</time>
      </trkpt>
      <trkpt lat="47.09492" lon="-1.43896">
        <ele>51.400001525879</ele>
        <time>2016-10-22T12:08:46Z</time>
      </trkpt>
      <trkpt lat="47.09503" lon="-1.43887">
        <ele>51.400001525879</ele>
        <time>2016-10-22T12:08:49Z</time>
      </trkpt>
      <trkpt lat="47.09517" lon="-1.43876">
        <ele>50.799999237061</ele>
        <time>2016-10-22T12:08:53Z</time>
      </trkpt>
      <trkpt lat="47.09525" lon="-1.43891">
        <ele>50</ele>
        <time>2016-10-22T12:08:57Z</time>
      </trkpt>
      <trkpt lat="47.09536" lon="-1.4394">
        <ele>50.400001525879</ele>
        <time>2016-10-22T12:09:06Z</time>
      </trkpt>
      <trkpt lat="47.0955" lon="-1.43997">
        <ele>50.599998474121</ele>
        <time>2016-10-22T12:09:16Z</time>
      </trkpt>
      <trkpt lat="47.09565" lon="-1.44065">
        <ele>49.799999237061</ele>
        <time>2016-10-22T12:09:27Z</time>
      </trkpt>
      <trkpt lat="47.09576" lon="-1.44126">
        <ele>49.400001525879</ele>
        <time>2016-10-22T12:09:37Z</time>
      </trkpt>
      <trkpt lat="47.09588" lon="-1.44186">
        <ele>49.400001525879</ele>
        <time>2016-10-22T12:09:48Z</time>
      </trkpt>
      <trkpt lat="47.09599" lon="-1.44194">
        <ele>49.400001525879</ele>
        <time>2016-10-22T12:09:52Z</time>
      </trkpt>
      <trkpt lat="47.0962" lon="-1.44185">
        <ele>48.799999237061</ele>
        <time>2016-10-22T12:09:57Z</time>
      </trkpt>
      <trkpt lat="47.0966" lon="-1.44168">
        <ele>47.599998474121</ele>
        <time>2016-10-22T12:10:06Z</time>
      </trkpt>
      <trkpt lat="47.09691" lon="-1.44155">
        <ele>46.599998474121</ele>
        <time>2016-10-22T12:10:13Z</time>
      </trkpt>
      <trkpt lat="47.09732" lon="-1.44139">
        <ele>45.599998474121</ele>
        <time>2016-10-22T12:10:22Z</time>
      </trkpt>
      <trkpt lat="47.09755" lon="-1.4413">
        <ele>44.400001525879</ele>
        <time>2016-10-22T12:10:27Z</time>
      </trkpt>
      <trkpt lat="47.098" lon="-1.44112">
        <ele>42.400001525879</ele>
        <time>2016-10-22T12:10:36Z</time>
      </trkpt>
      <trkpt lat="47.09837" lon="-1.44097">
        <ele>41.200000762939</ele>
        <time>2016-10-22T12:10:43Z</time>
      </trkpt>
      <trkpt lat="47.09878" lon="-1.4408">
        <ele>39.200000762939</ele>
        <time>2016-10-22T12:10:51Z</time>
      </trkpt>
      <trkpt lat="47.09884" lon="-1.44078">
        <ele>38.799999237061</ele>
        <time>2016-10-22T12:10:52Z</time>
      </trkpt>
      <trkpt lat="47.09921" lon="-1.44064">
        <ele>36.599998474121</ele>
        <time>2016-10-22T12:10:59Z</time>
      </trkpt>
      <trkpt lat="47.09956" lon="-1.44048">
        <ele>34.599998474121</ele>
        <time>2016-10-22T12:11:05Z</time>
      </trkpt>
      <trkpt lat="47.09993" lon="-1.44035">
        <ele>33.400001525879</ele>
        <time>2016-10-22T12:11:11Z</time>
      </trkpt>
      <trkpt lat="47.10029" lon="-1.4402">
        <ele>32</ele>
        <time>2016-10-22T12:11:18Z</time>
      </trkpt>
      <trkpt lat="47.10031" lon="-1.44019">
        <ele>32</ele>
        <time>2016-10-22T12:11:19Z</time>
      </trkpt>
      <trkpt lat="47.10038" lon="-1.44029">
        <ele>31.60000038147</ele>
        <time>2016-10-22T12:11:23Z</time>
      </trkpt>
      <trkpt lat="47.10047" lon="-1.44062">
        <ele>31.200000762939</ele>
        <time>2016-10-22T12:11:29Z</time>
      </trkpt>
      <trkpt lat="47.10064" lon="-1.44128">
        <ele>31.799999237061</ele>
        <time>2016-10-22T12:11:40Z</time>
      </trkpt>
      <trkpt lat="47.10077" lon="-1.44181">
        <ele>31.799999237061</ele>
        <time>2016-10-22T12:11:48Z</time>
      </trkpt>
      <trkpt lat="47.1009" lon="-1.44232">
        <ele>31.200000762939</ele>
        <time>2016-10-22T12:11:55Z</time>
      </trkpt>
      <trkpt lat="47.10105" lon="-1.44286">
        <ele>31</ele>
        <time>2016-10-22T12:12:02Z</time>
      </trkpt>
      <trkpt lat="47.10121" lon="-1.44349">
        <ele>31.200000762939</ele>
        <time>2016-10-22T12:12:11Z</time>
      </trkpt>
      <trkpt lat="47.10136" lon="-1.44395">
        <ele>31.60000038147</ele>
        <time>2016-10-22T12:12:19Z</time>
      </trkpt>
      <trkpt lat="47.10151" lon="-1.44394">
        <ele>32</ele>
        <time>2016-10-22T12:12:23Z</time>
      </trkpt>
      <trkpt lat="47.10154" lon="-1.4439">
        <ele>32</ele>
        <time>2016-10-22T12:12:24Z</time>
      </trkpt>
      <trkpt lat="47.10194" lon="-1.44343">
        <ele>31.799999237061</ele>
        <time>2016-10-22T12:12:35Z</time>
      </trkpt>
      <trkpt lat="47.10224" lon="-1.44307">
        <ele>31.799999237061</ele>
        <time>2016-10-22T12:12:43Z</time>
      </trkpt>
      <trkpt lat="47.10257" lon="-1.44266">
        <ele>31.39999961853</ele>
        <time>2016-10-22T12:12:52Z</time>
      </trkpt>
      <trkpt lat="47.10289" lon="-1.44234">
        <ele>31</ele>
        <time>2016-10-22T12:13:00Z</time>
      </trkpt>
      <trkpt lat="47.10294" lon="-1.44231">
        <ele>31</ele>
        <time>2016-10-22T12:13:01Z</time>
      </trkpt>
      <trkpt lat="47.10331" lon="-1.44212">
        <ele>30.39999961853</ele>
        <time>2016-10-22T12:13:09Z</time>
      </trkpt>
      <trkpt lat="47.10372" lon="-1.44192">
        <ele>30.39999961853</ele>
        <time>2016-10-22T12:13:18Z</time>
      </trkpt>
      <trkpt lat="47.10376" lon="-1.4419">
        <ele>30.39999961853</ele>
        <time>2016-10-22T12:13:19Z</time>
      </trkpt>
      <trkpt lat="47.10418" lon="-1.4417">
        <ele>30.39999961853</ele>
        <time>2016-10-22T12:13:28Z</time>
      </trkpt>
      <trkpt lat="47.10456" lon="-1.44152">
        <ele>30.799999237061</ele>
        <time>2016-10-22T12:13:36Z</time>
      </trkpt>
      <trkpt lat="47.10499" lon="-1.44128">
        <ele>31.39999961853</ele>
        <time>2016-10-22T12:13:46Z</time>
      </trkpt>
      <trkpt lat="47.10527" lon="-1.44107">
        <ele>32.200000762939</ele>
        <time>2016-10-22T12:13:53Z</time>
      </trkpt>
      <trkpt lat="47.10557" lon="-1.44082">
        <ele>33</ele>
        <time>2016-10-22T12:14:01Z</time>
      </trkpt>
      <trkpt lat="47.10585" lon="-1.44054">
        <ele>33.400001525879</ele>
        <time>2016-10-22T12:14:09Z</time>
      </trkpt>
      <trkpt lat="47.10623" lon="-1.44027">
        <ele>34</ele>
        <time>2016-10-22T12:14:19Z</time>
      </trkpt>
      <trkpt lat="47.10649" lon="-1.44011">
        <ele>34.400001525879</ele>
        <time>2016-10-22T12:14:26Z</time>
      </trkpt>
      <trkpt lat="47.10683" lon="-1.43992">
        <ele>35.599998474121</ele>
        <time>2016-10-22T12:14:35Z</time>
      </trkpt>
      <trkpt lat="47.10717" lon="-1.43968">
        <ele>37</ele>
        <time>2016-10-22T12:14:45Z</time>
      </trkpt>
      <trkpt lat="47.10743" lon="-1.43941">
        <ele>37.599998474121</ele>
        <time>2016-10-22T12:14:53Z</time>
      </trkpt>
      <trkpt lat="47.1077" lon="-1.43917">
        <ele>38.200000762939</ele>
        <time>2016-10-22T12:15:01Z</time>
      </trkpt>
      <trkpt lat="47.10801" lon="-1.4389">
        <ele>39.400001525879</ele>
        <time>2016-10-22T12:15:10Z</time>
      </trkpt>
      <trkpt lat="47.10815" lon="-1.4388">
        <ele>39.799999237061</ele>
        <time>2016-10-22T12:15:14Z</time>
      </trkpt>
      <trkpt lat="47.10826" lon="-1.43893">
        <ele>40</ele>
        <time>2016-10-22T12:15:18Z</time>
      </trkpt>
      <trkpt lat="47.10845" lon="-1.43948">
        <ele>39.599998474121</ele>
        <time>2016-10-22T12:15:27Z</time>
      </trkpt>
      <trkpt lat="47.10848" lon="-1.43962">
        <ele>39.200000762939</ele>
        <time>2016-10-22T12:15:29Z</time>
      </trkpt>
      <trkpt lat="47.10845" lon="-1.44011">
        <ele>38.200000762939</ele>
        <time>2016-10-22T12:15:35Z</time>
      </trkpt>
      <trkpt lat="47.10836" lon="-1.44064">
        <ele>37.599998474121</ele>
        <time>2016-10-22T12:15:41Z</time>
      </trkpt>
      <trkpt lat="47.10842" lon="-1.44109">
        <ele>37.200000762939</ele>
        <time>2016-10-22T12:15:46Z</time>
      </trkpt>
      <trkpt lat="47.10845" lon="-1.44117">
        <ele>37</ele>
        <time>2016-10-22T12:15:47Z</time>
      </trkpt>
      <trkpt lat="47.10874" lon="-1.44182">
        <ele>37</ele>
        <time>2016-10-22T12:15:56Z</time>
      </trkpt>
      <trkpt lat="47.10898" lon="-1.44225">
        <ele>37.599998474121</ele>
        <time>2016-10-22T12:16:03Z</time>
      </trkpt>
      <trkpt lat="47.10921" lon="-1.44263">
        <ele>38.400001525879</ele>
        <time>2016-10-22T12:16:10Z</time>
      </trkpt>
      <trkpt lat="47.10939" lon="-1.44303">
        <ele>39</ele>
        <time>2016-10-22T12:16:17Z</time>
      </trkpt>
      <trkpt lat="47.10958" lon="-1.44356">
        <ele>39.799999237061</ele>
        <time>2016-10-22T12:16:25Z</time>
      </trkpt>
      <trkpt lat="47.10982" lon="-1.44429">
        <ele>41</ele>
        <time>2016-10-22T12:16:36Z</time>
      </trkpt>
      <trkpt lat="47.11003" lon="-1.44488">
        <ele>41.599998474121</ele>
        <time>2016-10-22T12:16:45Z</time>
      </trkpt>
      <trkpt lat="47.1102" lon="-1.44539">
        <ele>42.799999237061</ele>
        <time>2016-10-22T12:16:53Z</time>
      </trkpt>
      <trkpt lat="47.11039" lon="-1.44613">
        <ele>44</ele>
        <time>2016-10-22T12:17:05Z</time>
      </trkpt>
      <trkpt lat="47.11044" lon="-1.4464">
        <ele>44.799999237061</ele>
        <time>2016-10-22T12:17:10Z</time>
      </trkpt>
      <trkpt lat="47.11055" lon="-1.44643">
        <ele>45.799999237061</ele>
        <time>2016-10-22T12:17:14Z</time>
      </trkpt>
      <trkpt lat="47.11072" lon="-1.44636">
        <ele>46.599998474121</ele>
        <time>2016-10-22T12:17:19Z</time>
      </trkpt>
      <trkpt lat="47.11088" lon="-1.44625">
        <ele>47</ele>
        <time>2016-10-22T12:17:24Z</time>
      </trkpt>
      <trkpt lat="47.11114" lon="-1.44607">
        <ele>47.200000762939</ele>
        <time>2016-10-22T12:17:31Z</time>
      </trkpt>
      <trkpt lat="47.11153" lon="-1.44581">
        <ele>47.200000762939</ele>
        <time>2016-10-22T12:17:41Z</time>
      </trkpt>
      <trkpt lat="47.11161" lon="-1.44576">
        <ele>47</ele>
        <time>2016-10-22T12:17:43Z</time>
      </trkpt>
      <trkpt lat="47.11182" lon="-1.44571">
        <ele>47.200000762939</ele>
        <time>2016-10-22T12:17:48Z</time>
      </trkpt>
      <trkpt lat="47.11186" lon="-1.4457">
        <ele>47.200000762939</ele>
        <time>2016-10-22T12:17:49Z</time>
      </trkpt>
      <trkpt lat="47.11194" lon="-1.44566">
        <ele>47.400001525879</ele>
        <time>2016-10-22T12:17:51Z</time>
      </trkpt>
      <trkpt lat="47.11205" lon="-1.44559">
        <ele>47.599998474121</ele>
        <time>2016-10-22T12:17:54Z</time>
      </trkpt>
      <trkpt lat="47.11249" lon="-1.44533">
        <ele>48</ele>
        <time>2016-10-22T12:18:05Z</time>
      </trkpt>
      <trkpt lat="47.11293" lon="-1.44508">
        <ele>49.200000762939</ele>
        <time>2016-10-22T12:18:16Z</time>
      </trkpt>
      <trkpt lat="47.11324" lon="-1.4449">
        <ele>49.400001525879</ele>
        <time>2016-10-22T12:18:24Z</time>
      </trkpt>
      <trkpt lat="47.11354" lon="-1.44475">
        <ele>49.599998474121</ele>
        <time>2016-10-22T12:18:32Z</time>
      </trkpt>
      <trkpt lat="47.11384" lon="-1.44456">
        <ele>49.400001525879</ele>
        <time>2016-10-22T12:18:40Z</time>
      </trkpt>
      <trkpt lat="47.11399" lon="-1.44448">
        <ele>49.200000762939</ele>
        <time>2016-10-22T12:18:44Z</time>
      </trkpt>
      <trkpt lat="47.11404" lon="-1.44449">
        <ele>46.62109375</ele>
      </trkpt>
      <trkpt lat="47.11398" lon="-1.44435">
        <ele>46.24609375</ele>
      </trkpt>
      <trkpt lat="47.11392" lon="-1.44417">
        <ele>45.8203125</ele>
      </trkpt>
      <trkpt lat="47.11385" lon="-1.44396">
        <ele>45.3203125</ele>
      </trkpt>
      <trkpt lat="47.11382" lon="-1.44379">
        <ele>44.94921875</ele>
      </trkpt>
      <trkpt lat="47.11375" lon="-1.44358">
        <ele>44.4609375</ele>
      </trkpt>
      <trkpt lat="47.11399" lon="-1.44353">
        <ele>44.79296875</ele>
      </trkpt>
      <trkpt lat="47.11423" lon="-1.44339">
        <ele>44.3203125</ele>
      </trkpt>
      <trkpt lat="47.11446" lon="-1.44325">
        <ele>43.32421875</ele>
      </trkpt>
      <trkpt lat="47.11468" lon="-1.44309">
        <ele>42.19921875</ele>
      </trkpt>
      <trkpt lat="47.11494" lon="-1.44292">
        <ele>41.34765625</ele>
      </trkpt>
      <trkpt lat="47.1151" lon="-1.44283">
        <ele>40.8671875</ele>
      </trkpt>
      <trkpt lat="47.11528" lon="-1.44274">
        <ele>40.5078125</ele>
      </trkpt>
      <trkpt lat="47.1154" lon="-1.44262">
        <ele>40.29296875</ele>
      </trkpt>
      <trkpt lat="47.11545" lon="-1.44249">
        <ele>40.06640625</ele>
      </trkpt>
      <trkpt lat="47.11548" lon="-1.44237">
        <ele>39.91796875</ele>
      </trkpt>
      <trkpt lat="47.11555" lon="-1.44229">
        <ele>39.8046875</ele>
      </trkpt>
      <trkpt lat="47.11572" lon="-1.44233">
        <ele>39.77734375</ele>
      </trkpt>
      <trkpt lat="47.11584" lon="-1.44232">
        <ele>39.70703125</ele>
      </trkpt>
      <trkpt lat="47.11608" lon="-1.44222">
        <ele>39.31640625</ele>
      </trkpt>
      <trkpt lat="47.11629" lon="-1.44212">
        <ele>38.79296875</ele>
      </trkpt>
      <trkpt lat="47.11657" lon="-1.44215">
        <ele>39.4453125</ele>
      </trkpt>
      <trkpt lat="47.11682" lon="-1.44221">
        <ele>39.95703125</ele>
      </trkpt>
      <trkpt lat="47.11695" lon="-1.44234">
        <ele>40.37890625</ele>
      </trkpt>
      <trkpt lat="47.11707" lon="-1.44257">
        <ele>40.80859375</ele>
      </trkpt>
      <trkpt lat="47.11706" lon="-1.44288">
        <ele>40.76171875</ele>
      </trkpt>
      <trkpt lat="47.11706" lon="-1.44315">
        <ele>40.76171875</ele>
      </trkpt>
      <trkpt lat="47.11706" lon="-1.44348">
        <ele>40.76171875</ele>
      </trkpt>
      <trkpt lat="47.11707" lon="-1.44374">
        <ele>40.68359375</ele>
      </trkpt>
      <trkpt lat="47.11707" lon="-1.44399">
        <ele>40.484375</ele>
      </trkpt>
      <trkpt lat="47.11698" lon="-1.44422">
        <ele>40.24609375</ele>
      </trkpt>
      <trkpt lat="47.11691" lon="-1.44447">
        <ele>40.109375</ele>
      </trkpt>
      <trkpt lat="47.11683" lon="-1.44474">
        <ele>40.2265625</ele>
      </trkpt>
      <trkpt lat="47.11674" lon="-1.44489">
        <ele>40.9453125</ele>
      </trkpt>
      <trkpt lat="47.11671" lon="-1.44526">
        <ele>41.83984375</ele>
      </trkpt>
      <trkpt lat="47.11671" lon="-1.44558">
        <ele>42.8671875</ele>
      </trkpt>
      <trkpt lat="47.11671" lon="-1.44591">
        <ele>43.73046875</ele>
      </trkpt>
      <trkpt lat="47.11673" lon="-1.4462">
        <ele>44.1875</ele>
      </trkpt>
      <trkpt lat="47.11672" lon="-1.44646">
        <ele>44.66796875</ele>
      </trkpt>
      <trkpt lat="47.1167" lon="-1.44667">
        <ele>45.12890625</ele>
      </trkpt>
      <trkpt lat="47.1166" lon="-1.44701">
        <ele>45.890625</ele>
      </trkpt>
      <trkpt lat="47.11644" lon="-1.44744">
        <ele>46.45703125</ele>
      </trkpt>
      <trkpt lat="47.1163" lon="-1.44767">
        <ele>48.200000762939</ele>
        <time>2016-10-22T12:23:48Z</time>
      </trkpt>
      <trkpt lat="47.11644" lon="-1.44777">
        <ele>48.200000762939</ele>
        <time>2016-10-22T12:24:09Z</time>
      </trkpt>
      <trkpt lat="47.11662" lon="-1.44799">
        <ele>47.799999237061</ele>
        <time>2016-10-22T12:24:16Z</time>
      </trkpt>
      <trkpt lat="47.11682" lon="-1.44826">
        <ele>47.599998474121</ele>
        <time>2016-10-22T12:24:23Z</time>
      </trkpt>
      <trkpt lat="47.1169" lon="-1.44839">
        <ele>47.599998474121</ele>
        <time>2016-10-22T12:24:26Z</time>
      </trkpt>
      <trkpt lat="47.11701" lon="-1.44882">
        <ele>47.200000762939</ele>
        <time>2016-10-22T12:24:33Z</time>
      </trkpt>
      <trkpt lat="47.11703" lon="-1.44921">
        <ele>47.599998474121</ele>
        <time>2016-10-22T12:24:39Z</time>
      </trkpt>
      <trkpt lat="47.11692" lon="-1.4497">
        <ele>48.799999237061</ele>
        <time>2016-10-22T12:24:47Z</time>
      </trkpt>
      <trkpt lat="47.11678" lon="-1.45025">
        <ele>49.799999237061</ele>
        <time>2016-10-22T12:24:56Z</time>
      </trkpt>
      <trkpt lat="47.11674" lon="-1.45043">
        <ele>50.400001525879</ele>
        <time>2016-10-22T12:24:59Z</time>
      </trkpt>
      <trkpt lat="47.11684" lon="-1.451">
        <ele>50.799999237061</ele>
        <time>2016-10-22T12:25:08Z</time>
      </trkpt>
      <trkpt lat="47.11693" lon="-1.45152">
        <ele>50.799999237061</ele>
        <time>2016-10-22T12:25:16Z</time>
      </trkpt>
      <trkpt lat="47.11691" lon="-1.45185">
        <ele>51</ele>
        <time>2016-10-22T12:25:21Z</time>
      </trkpt>
      <trkpt lat="47.11687" lon="-1.45198">
        <ele>51</ele>
        <time>2016-10-22T12:25:23Z</time>
      </trkpt>
      <trkpt lat="47.11684" lon="-1.45226">
        <ele>51.200000762939</ele>
        <time>2016-10-22T12:25:27Z</time>
      </trkpt>
      <trkpt lat="47.11685" lon="-1.45267">
        <ele>51.400001525879</ele>
        <time>2016-10-22T12:25:33Z</time>
      </trkpt>
      <trkpt lat="47.11684" lon="-1.45281">
        <ele>51.400001525879</ele>
        <time>2016-10-22T12:25:35Z</time>
      </trkpt>
      <trkpt lat="47.11674" lon="-1.45312">
        <ele>51.599998474121</ele>
        <time>2016-10-22T12:25:40Z</time>
      </trkpt>
      <trkpt lat="47.11659" lon="-1.45332">
        <ele>52</ele>
        <time>2016-10-22T12:25:44Z</time>
      </trkpt>
      <trkpt lat="47.11644" lon="-1.45371">
        <ele>52.400001525879</ele>
        <time>2016-10-22T12:25:50Z</time>
      </trkpt>
      <trkpt lat="47.11643" lon="-1.45402">
        <ele>52.400001525879</ele>
        <time>2016-10-22T12:25:54Z</time>
      </trkpt>
      <trkpt lat="47.11651" lon="-1.45422">
        <ele>52.200000762939</ele>
        <time>2016-10-22T12:25:57Z</time>
      </trkpt>
      <trkpt lat="47.1168" lon="-1.45475">
        <ele>51</ele>
        <time>2016-10-22T12:26:06Z</time>
      </trkpt>
      <trkpt lat="47.11684" lon="-1.45481">
        <ele>51</ele>
        <time>2016-10-22T12:26:08Z</time>
      </trkpt>
      <trkpt lat="47.11695" lon="-1.45474">
        <ele>50.599998474121</ele>
        <time>2016-10-22T12:26:13Z</time>
      </trkpt>
      <trkpt lat="47.11723" lon="-1.45444">
        <ele>50.599998474121</ele>
        <time>2016-10-22T12:26:21Z</time>
      </trkpt>
      <trkpt lat="47.11757" lon="-1.45415">
        <ele>49.400001525879</ele>
        <time>2016-10-22T12:26:29Z</time>
      </trkpt>
      <trkpt lat="47.11796" lon="-1.45379">
        <ele>48.599998474121</ele>
        <time>2016-10-22T12:26:37Z</time>
      </trkpt>
      <trkpt lat="47.11807" lon="-1.45373">
        <ele>48.400001525879</ele>
        <time>2016-10-22T12:26:39Z</time>
      </trkpt>
      <trkpt lat="47.11842" lon="-1.45373">
        <ele>48</ele>
        <time>2016-10-22T12:26:45Z</time>
      </trkpt>
      <trkpt lat="47.11852" lon="-1.4538">
        <ele>47.799999237061</ele>
        <time>2016-10-22T12:26:47Z</time>
      </trkpt>
      <trkpt lat="47.11895" lon="-1.45423">
        <ele>47</ele>
        <time>2016-10-22T12:26:55Z</time>
      </trkpt>
      <trkpt lat="47.11928" lon="-1.45453">
        <ele>47</ele>
        <time>2016-10-22T12:27:01Z</time>
      </trkpt>
      <trkpt lat="47.1193" lon="-1.45455">
        <ele>47</ele>
        <time>2016-10-22T12:27:02Z</time>
      </trkpt>
      <trkpt lat="47.11937" lon="-1.45463">
        <ele>45.799999237061</ele>
        <time>2016-10-22T12:30:16Z</time>
      </trkpt>
      <trkpt lat="47.11941" lon="-1.45465">
        <ele>45.599998474121</ele>
        <time>2016-10-22T12:30:18Z</time>
      </trkpt>
      <trkpt lat="47.11948" lon="-1.45467">
        <ele>45.599998474121</ele>
        <time>2016-10-22T12:30:23Z</time>
      </trkpt>
      <trkpt lat="47.11962" lon="-1.45474">
        <ele>46</ele>
        <time>2016-10-22T12:30:29Z</time>
      </trkpt>
      <trkpt lat="47.11963" lon="-1.45474">
        <ele>45.799999237061</ele>
        <time>2016-10-22T12:30:36Z</time>
      </trkpt>
      <trkpt lat="47.11971" lon="-1.45479">
        <ele>45.599998474121</ele>
        <time>2016-10-22T12:30:39Z</time>
      </trkpt>
      <trkpt lat="47.11994" lon="-1.45487">
        <ele>45.400001525879</ele>
        <time>2016-10-22T12:30:46Z</time>
      </trkpt>
      <trkpt lat="47.12014" lon="-1.45488">
        <ele>45.599998474121</ele>
        <time>2016-10-22T12:30:51Z</time>
      </trkpt>
      <trkpt lat="47.12031" lon="-1.45482">
        <ele>46</ele>
        <time>2016-10-22T12:30:55Z</time>
      </trkpt>
      <trkpt lat="47.12077" lon="-1.45461">
        <ele>47.200000762939</ele>
        <time>2016-10-22T12:31:05Z</time>
      </trkpt>
      <trkpt lat="47.12103" lon="-1.45447">
        <ele>48.200000762939</ele>
        <time>2016-10-22T12:31:11Z</time>
      </trkpt>
      <trkpt lat="47.12135" lon="-1.45431">
        <ele>49.799999237061</ele>
        <time>2016-10-22T12:31:19Z</time>
      </trkpt>
      <trkpt lat="47.12149" lon="-1.45423">
        <ele>50.400001525879</ele>
        <time>2016-10-22T12:31:23Z</time>
      </trkpt>
      <trkpt lat="47.12169" lon="-1.45414">
        <ele>51.200000762939</ele>
        <time>2016-10-22T12:31:28Z</time>
      </trkpt>
      <trkpt lat="47.12177" lon="-1.45416">
        <ele>51.599998474121</ele>
        <time>2016-10-22T12:31:30Z</time>
      </trkpt>
      <trkpt lat="47.12186" lon="-1.45437">
        <ele>52.599998474121</ele>
        <time>2016-10-22T12:31:35Z</time>
      </trkpt>
      <trkpt lat="47.12189" lon="-1.45482">
        <ele>52</ele>
        <time>2016-10-22T12:31:43Z</time>
      </trkpt>
      <trkpt lat="47.12187" lon="-1.45487">
        <ele>52</ele>
        <time>2016-10-22T12:31:44Z</time>
      </trkpt>
      <trkpt lat="47.12169" lon="-1.45505">
        <ele>51.400001525879</ele>
        <time>2016-10-22T12:31:49Z</time>
      </trkpt>
      <trkpt lat="47.1214" lon="-1.45528">
        <ele>50</ele>
        <time>2016-10-22T12:31:55Z</time>
      </trkpt>
      <trkpt lat="47.12136" lon="-1.45533">
        <ele>49.599998474121</ele>
        <time>2016-10-22T12:31:56Z</time>
      </trkpt>
      <trkpt lat="47.12122" lon="-1.45559">
        <ele>48.599998474121</ele>
        <time>2016-10-22T12:32:00Z</time>
      </trkpt>
      <trkpt lat="47.12103" lon="-1.4562">
        <ele>47</ele>
        <time>2016-10-22T12:32:08Z</time>
      </trkpt>
      <trkpt lat="47.1209" lon="-1.45648">
        <ele>45.799999237061</ele>
        <time>2016-10-22T12:32:12Z</time>
      </trkpt>
      <trkpt lat="47.12088" lon="-1.45669">
        <ele>45.400001525879</ele>
        <time>2016-10-22T12:32:16Z</time>
      </trkpt>
      <trkpt lat="47.12091" lon="-1.45673">
        <ele>45.400001525879</ele>
        <time>2016-10-22T12:32:17Z</time>
      </trkpt>
      <trkpt lat="47.12114" lon="-1.45711">
        <ele>46</ele>
        <time>2016-10-22T12:32:25Z</time>
      </trkpt>
      <trkpt lat="47.12142" lon="-1.45766">
        <ele>46.200000762939</ele>
        <time>2016-10-22T12:32:35Z</time>
      </trkpt>
      <trkpt lat="47.12163" lon="-1.45811">
        <ele>46.400001525879</ele>
        <time>2016-10-22T12:32:43Z</time>
      </trkpt>
      <trkpt lat="47.12165" lon="-1.45817">
        <ele>46.400001525879</ele>
        <time>2016-10-22T12:32:44Z</time>
      </trkpt>
      <trkpt lat="47.12172" lon="-1.45847">
        <ele>46.599998474121</ele>
        <time>2016-10-22T12:32:49Z</time>
      </trkpt>
      <trkpt lat="47.12169" lon="-1.45871">
        <ele>46.599998474121</ele>
        <time>2016-10-22T12:32:53Z</time>
      </trkpt>
      <trkpt lat="47.12167" lon="-1.45876">
        <ele>46.599998474121</ele>
        <time>2016-10-22T12:32:54Z</time>
      </trkpt>
      <trkpt lat="47.12145" lon="-1.45927">
        <ele>47.799999237061</ele>
        <time>2016-10-22T12:33:03Z</time>
      </trkpt>
      <trkpt lat="47.12142" lon="-1.45962">
        <ele>48.599998474121</ele>
        <time>2016-10-22T12:33:08Z</time>
      </trkpt>
      <trkpt lat="47.12146" lon="-1.46017">
        <ele>49.200000762939</ele>
        <time>2016-10-22T12:33:16Z</time>
      </trkpt>
      <trkpt lat="47.12147" lon="-1.46051">
        <ele>49.200000762939</ele>
        <time>2016-10-22T12:33:21Z</time>
      </trkpt>
      <trkpt lat="47.12146" lon="-1.46075">
        <ele>49.400001525879</ele>
        <time>2016-10-22T12:33:25Z</time>
      </trkpt>
      <trkpt lat="47.12143" lon="-1.46088">
        <ele>49.400001525879</ele>
        <time>2016-10-22T12:33:27Z</time>
      </trkpt>
      <trkpt lat="47.1213" lon="-1.46115">
        <ele>49.599998474121</ele>
        <time>2016-10-22T12:33:32Z</time>
      </trkpt>
      <trkpt lat="47.12117" lon="-1.46149">
        <ele>50.200000762939</ele>
        <time>2016-10-22T12:33:38Z</time>
      </trkpt>
      <trkpt lat="47.12121" lon="-1.46174">
        <ele>50.200000762939</ele>
        <time>2016-10-22T12:33:43Z</time>
      </trkpt>
      <trkpt lat="47.12126" lon="-1.46182">
        <ele>50.200000762939</ele>
        <time>2016-10-22T12:33:45Z</time>
      </trkpt>
      <trkpt lat="47.12141" lon="-1.46196">
        <ele>50</ele>
        <time>2016-10-22T12:33:49Z</time>
      </trkpt>
      <trkpt lat="47.12172" lon="-1.46219">
        <ele>49.799999237061</ele>
        <time>2016-10-22T12:33:56Z</time>
      </trkpt>
      <trkpt lat="47.12201" lon="-1.46248">
        <ele>49.599998474121</ele>
        <time>2016-10-22T12:34:03Z</time>
      </trkpt>
      <trkpt lat="47.12242" lon="-1.46287">
        <ele>49</ele>
        <time>2016-10-22T12:34:13Z</time>
      </trkpt>
      <trkpt lat="47.12269" lon="-1.46319">
        <ele>48.799999237061</ele>
        <time>2016-10-22T12:34:20Z</time>
      </trkpt>
      <trkpt lat="47.12293" lon="-1.46366">
        <ele>49</ele>
        <time>2016-10-22T12:34:28Z</time>
      </trkpt>
      <trkpt lat="47.12316" lon="-1.46424">
        <ele>49.400001525879</ele>
        <time>2016-10-22T12:34:37Z</time>
      </trkpt>
      <trkpt lat="47.12341" lon="-1.46494">
        <ele>49.799999237061</ele>
        <time>2016-10-22T12:34:48Z</time>
      </trkpt>
      <trkpt lat="47.12346" lon="-1.46544">
        <ele>50.400001525879</ele>
        <time>2016-10-22T12:34:55Z</time>
      </trkpt>
      <trkpt lat="47.12355" lon="-1.46625">
        <ele>51</ele>
        <time>2016-10-22T12:35:06Z</time>
      </trkpt>
      <trkpt lat="47.1237" lon="-1.46722">
        <ele>51.799999237061</ele>
        <time>2016-10-22T12:35:19Z</time>
      </trkpt>
      <trkpt lat="47.12381" lon="-1.4679">
        <ele>52</ele>
        <time>2016-10-22T12:35:28Z</time>
      </trkpt>
      <trkpt lat="47.12397" lon="-1.46839">
        <ele>52.599998474121</ele>
        <time>2016-10-22T12:35:35Z</time>
      </trkpt>
      <trkpt lat="47.12418" lon="-1.46888">
        <ele>53.200000762939</ele>
        <time>2016-10-22T12:35:43Z</time>
      </trkpt>
      <trkpt lat="47.12445" lon="-1.46946">
        <ele>54</ele>
        <time>2016-10-22T12:35:53Z</time>
      </trkpt>
      <trkpt lat="47.1245" lon="-1.46952">
        <ele>54</ele>
        <time>2016-10-22T12:35:55Z</time>
      </trkpt>
      <trkpt lat="47.12466" lon="-1.46948">
        <ele>54.400001525879</ele>
        <time>2016-10-22T12:35:59Z</time>
      </trkpt>
      <trkpt lat="47.12483" lon="-1.4694">
        <ele>55</ele>
        <time>2016-10-22T12:36:03Z</time>
      </trkpt>
      <trkpt lat="47.12504" lon="-1.46944">
        <ele>55</ele>
        <time>2016-10-22T12:36:08Z</time>
      </trkpt>
      <trkpt lat="47.12507" lon="-1.46957">
        <ele>55</ele>
        <time>2016-10-22T12:36:10Z</time>
      </trkpt>
      <trkpt lat="47.12523" lon="-1.47022">
        <ele>55</ele>
        <time>2016-10-22T12:36:20Z</time>
      </trkpt>
      <trkpt lat="47.1253" lon="-1.47047">
        <ele>55</ele>
        <time>2016-10-22T12:36:24Z</time>
      </trkpt>
      <trkpt lat="47.12528" lon="-1.47071">
        <ele>55</ele>
        <time>2016-10-22T12:36:28Z</time>
      </trkpt>
      <trkpt lat="47.12513" lon="-1.47085">
        <ele>54.799999237061</ele>
        <time>2016-10-22T12:36:32Z</time>
      </trkpt>
      <trkpt lat="47.12501" lon="-1.47095">
        <ele>54.599998474121</ele>
        <time>2016-10-22T12:36:35Z</time>
      </trkpt>
      <trkpt lat="47.12474" lon="-1.47116">
        <ele>54.200000762939</ele>
        <time>2016-10-22T12:36:41Z</time>
      </trkpt>
      <trkpt lat="47.12445" lon="-1.47144">
        <ele>53.599998474121</ele>
        <time>2016-10-22T12:36:48Z</time>
      </trkpt>
      <trkpt lat="47.12417" lon="-1.47171">
        <ele>54</ele>
        <time>2016-10-22T12:36:55Z</time>
      </trkpt>
      <trkpt lat="47.12404" lon="-1.4718">
        <ele>54</ele>
        <time>2016-10-22T12:36:58Z</time>
      </trkpt>
      <trkpt lat="47.12369" lon="-1.47214">
        <ele>54.200000762939</ele>
        <time>2016-10-22T12:37:07Z</time>
      </trkpt>
      <trkpt lat="47.12358" lon="-1.47226">
        <ele>54.200000762939</ele>
        <time>2016-10-22T12:37:10Z</time>
      </trkpt>
      <trkpt lat="47.1234" lon="-1.47246">
        <ele>54.400001525879</ele>
        <time>2016-10-22T12:37:15Z</time>
      </trkpt>
      <trkpt lat="47.12343" lon="-1.47263">
        <ele>54.400001525879</ele>
        <time>2016-10-22T12:37:18Z</time>
      </trkpt>
      <trkpt lat="47.12357" lon="-1.47279">
        <ele>54.400001525879</ele>
        <time>2016-10-22T12:37:22Z</time>
      </trkpt>
      <trkpt lat="47.12361" lon="-1.47284">
        <ele>54.400001525879</ele>
        <time>2016-10-22T12:37:23Z</time>
      </trkpt>
      <trkpt lat="47.12403" lon="-1.47335">
        <ele>54.200000762939</ele>
        <time>2016-10-22T12:37:33Z</time>
      </trkpt>
      <trkpt lat="47.12408" lon="-1.47341">
        <ele>54.200000762939</ele>
        <time>2016-10-22T12:37:34Z</time>
      </trkpt>
      <trkpt lat="47.12429" lon="-1.47355">
        <ele>53.799999237061</ele>
        <time>2016-10-22T12:37:38Z</time>
      </trkpt>
      <trkpt lat="47.12452" lon="-1.47378">
        <ele>53.599998474121</ele>
        <time>2016-10-22T12:37:43Z</time>
      </trkpt>
      <trkpt lat="47.12456" lon="-1.47382">
        <ele>53.400001525879</ele>
        <time>2016-10-22T12:37:44Z</time>
      </trkpt>
      <trkpt lat="47.12464" lon="-1.47395">
        <ele>53.400001525879</ele>
        <time>2016-10-22T12:37:47Z</time>
      </trkpt>
      <trkpt lat="47.12474" lon="-1.47403">
        <ele>53</ele>
        <time>2016-10-22T12:37:51Z</time>
      </trkpt>
      <trkpt lat="47.1248" lon="-1.4741">
        <ele>52.799999237061</ele>
        <time>2016-10-22T12:37:53Z</time>
      </trkpt>
      <trkpt lat="47.12505" lon="-1.47443">
        <ele>52.599998474121</ele>
        <time>2016-10-22T12:38:00Z</time>
      </trkpt>
      <trkpt lat="47.12531" lon="-1.47476">
        <ele>52.200000762939</ele>
        <time>2016-10-22T12:38:07Z</time>
      </trkpt>
      <trkpt lat="47.12545" lon="-1.47476">
        <ele>51.599998474121</ele>
        <time>2016-10-22T12:38:11Z</time>
      </trkpt>
      <trkpt lat="47.12552" lon="-1.47472">
        <ele>51.599998474121</ele>
        <time>2016-10-22T12:38:13Z</time>
      </trkpt>
      <trkpt lat="47.12572" lon="-1.47472">
        <ele>51.400001525879</ele>
        <time>2016-10-22T12:38:18Z</time>
      </trkpt>
      <trkpt lat="47.12597" lon="-1.4748">
        <ele>51.799999237061</ele>
        <time>2016-10-22T12:38:24Z</time>
      </trkpt>
      <trkpt lat="47.126" lon="-1.47482">
        <ele>52</ele>
        <time>2016-10-22T12:38:25Z</time>
      </trkpt>
      <trkpt lat="47.12629" lon="-1.4751">
        <ele>52.599998474121</ele>
        <time>2016-10-22T12:38:32Z</time>
      </trkpt>
      <trkpt lat="47.12634" lon="-1.47513">
        <ele>52.799999237061</ele>
        <time>2016-10-22T12:38:33Z</time>
      </trkpt>
      <trkpt lat="47.12654" lon="-1.47514">
        <ele>53</ele>
        <time>2016-10-22T12:38:38Z</time>
      </trkpt>
      <trkpt lat="47.12659" lon="-1.47512">
        <ele>53</ele>
        <time>2016-10-22T12:38:39Z</time>
      </trkpt>
      <trkpt lat="47.12685" lon="-1.47496">
        <ele>54.200000762939</ele>
        <time>2016-10-22T12:38:45Z</time>
      </trkpt>
      <trkpt lat="47.12693" lon="-1.47473">
        <ele>55</ele>
        <time>2016-10-22T12:38:49Z</time>
      </trkpt>
      <trkpt lat="47.12689" lon="-1.47421">
        <ele>56</ele>
        <time>2016-10-22T12:38:56Z</time>
      </trkpt>
      <trkpt lat="47.12692" lon="-1.47368">
        <ele>55.599998474121</ele>
        <time>2016-10-22T12:39:03Z</time>
      </trkpt>
      <trkpt lat="47.12695" lon="-1.47323">
        <ele>55.200000762939</ele>
        <time>2016-10-22T12:39:09Z</time>
      </trkpt>
      <trkpt lat="47.12697" lon="-1.47308">
        <ele>55.400001525879</ele>
        <time>2016-10-22T12:39:11Z</time>
      </trkpt>
      <trkpt lat="47.12693" lon="-1.47271">
        <ele>55.400001525879</ele>
        <time>2016-10-22T12:39:16Z</time>
      </trkpt>
      <trkpt lat="47.12686" lon="-1.4726">
        <ele>55.400001525879</ele>
        <time>2016-10-22T12:39:18Z</time>
      </trkpt>
      <trkpt lat="47.12663" lon="-1.47225">
        <ele>56.200000762939</ele>
        <time>2016-10-22T12:39:25Z</time>
      </trkpt>
      <trkpt lat="47.12648" lon="-1.47199">
        <ele>56.400001525879</ele>
        <time>2016-10-22T12:39:30Z</time>
      </trkpt>
      <trkpt lat="47.12638" lon="-1.47167">
        <ele>56.200000762939</ele>
        <time>2016-10-22T12:39:35Z</time>
      </trkpt>
      <trkpt lat="47.12637" lon="-1.47162">
        <ele>56.200000762939</ele>
        <time>2016-10-22T12:39:36Z</time>
      </trkpt>
      <trkpt lat="47.12639" lon="-1.47127">
        <ele>56.400001525879</ele>
        <time>2016-10-22T12:39:41Z</time>
      </trkpt>
      <trkpt lat="47.1264" lon="-1.47119">
        <ele>56.599998474121</ele>
        <time>2016-10-22T12:39:42Z</time>
      </trkpt>
      <trkpt lat="47.12645" lon="-1.47098">
        <ele>56.799999237061</ele>
        <time>2016-10-22T12:39:45Z</time>
      </trkpt>
      <trkpt lat="47.1266" lon="-1.47083">
        <ele>56.799999237061</ele>
        <time>2016-10-22T12:39:49Z</time>
      </trkpt>
      <trkpt lat="47.12673" lon="-1.47074">
        <ele>57</ele>
        <time>2016-10-22T12:39:52Z</time>
      </trkpt>
      <trkpt lat="47.1269" lon="-1.47064">
        <ele>57.200000762939</ele>
        <time>2016-10-22T12:39:57Z</time>
      </trkpt>
      <trkpt lat="47.12694" lon="-1.47064">
        <ele>57.400001525879</ele>
        <time>2016-10-22T12:39:58Z</time>
      </trkpt>
      <trkpt lat="47.12709" lon="-1.47066">
        <ele>57.599998474121</ele>
        <time>2016-10-22T12:40:01Z</time>
      </trkpt>
      <trkpt lat="47.12736" lon="-1.47066">
        <ele>58</ele>
        <time>2016-10-22T12:40:07Z</time>
      </trkpt>
      <trkpt lat="47.1276" lon="-1.4705">
        <ele>58.200000762939</ele>
        <time>2016-10-22T12:40:13Z</time>
      </trkpt>
      <trkpt lat="47.12764" lon="-1.47049">
        <ele>58.200000762939</ele>
        <time>2016-10-22T12:40:14Z</time>
      </trkpt>
      <trkpt lat="47.12784" lon="-1.47074">
        <ele>58</ele>
        <time>2016-10-22T12:40:19Z</time>
      </trkpt>
      <trkpt lat="47.12789" lon="-1.47085">
        <ele>58.200000762939</ele>
        <time>2016-10-22T12:40:21Z</time>
      </trkpt>
      <trkpt lat="47.12806" lon="-1.47116">
        <ele>58.599998474121</ele>
        <time>2016-10-22T12:40:27Z</time>
      </trkpt>
      <trkpt lat="47.12816" lon="-1.47135">
        <ele>58.400001525879</ele>
        <time>2016-10-22T12:40:30Z</time>
      </trkpt>
      <trkpt lat="47.12838" lon="-1.47172">
        <ele>57.799999237061</ele>
        <time>2016-10-22T12:40:36Z</time>
      </trkpt>
      <trkpt lat="47.12843" lon="-1.47178">
        <ele>57.799999237061</ele>
        <time>2016-10-22T12:40:37Z</time>
      </trkpt>
      <trkpt lat="47.12863" lon="-1.47217">
        <ele>57</ele>
        <time>2016-10-22T12:40:43Z</time>
      </trkpt>
      <trkpt lat="47.12869" lon="-1.47228">
        <ele>56.599998474121</ele>
        <time>2016-10-22T12:40:45Z</time>
      </trkpt>
      <trkpt lat="47.12879" lon="-1.47245">
        <ele>56.200000762939</ele>
        <time>2016-10-22T12:40:48Z</time>
      </trkpt>
      <trkpt lat="47.12901" lon="-1.47285">
        <ele>55.400001525879</ele>
        <time>2016-10-22T12:40:55Z</time>
      </trkpt>
      <trkpt lat="47.12912" lon="-1.47303">
        <ele>55.400001525879</ele>
        <time>2016-10-22T12:40:58Z</time>
      </trkpt>
      <trkpt lat="47.12924" lon="-1.47324">
        <ele>55.200000762939</ele>
        <time>2016-10-22T12:41:02Z</time>
      </trkpt>
      <trkpt lat="47.12923" lon="-1.47348">
        <ele>55</ele>
        <time>2016-10-22T12:41:06Z</time>
      </trkpt>
      <trkpt lat="47.12914" lon="-1.47377">
        <ele>55.200000762939</ele>
        <time>2016-10-22T12:41:11Z</time>
      </trkpt>
      <trkpt lat="47.1291" lon="-1.4739">
        <ele>55.400001525879</ele>
        <time>2016-10-22T12:41:13Z</time>
      </trkpt>
      <trkpt lat="47.12904" lon="-1.4741">
        <ele>55.599998474121</ele>
        <time>2016-10-22T12:41:16Z</time>
      </trkpt>
      <trkpt lat="47.12901" lon="-1.47442">
        <ele>55.799999237061</ele>
        <time>2016-10-22T12:41:21Z</time>
      </trkpt>
      <trkpt lat="47.12905" lon="-1.47471">
        <ele>55.599998474121</ele>
        <time>2016-10-22T12:41:26Z</time>
      </trkpt>
      <trkpt lat="47.12905" lon="-1.47484">
        <ele>55.200000762939</ele>
        <time>2016-10-22T12:41:28Z</time>
      </trkpt>
      <trkpt lat="47.12909" lon="-1.47509">
        <ele>54.799999237061</ele>
        <time>2016-10-22T12:41:31Z</time>
      </trkpt>
      <trkpt lat="47.12913" lon="-1.47542">
        <ele>54.200000762939</ele>
        <time>2016-10-22T12:41:35Z</time>
      </trkpt>
      <trkpt lat="47.12916" lon="-1.47584">
        <ele>53.599998474121</ele>
        <time>2016-10-22T12:41:41Z</time>
      </trkpt>
      <trkpt lat="47.1292" lon="-1.47612">
        <ele>53.400001525879</ele>
        <time>2016-10-22T12:41:46Z</time>
      </trkpt>
      <trkpt lat="47.12923" lon="-1.47627">
        <ele>53.400001525879</ele>
        <time>2016-10-22T12:41:48Z</time>
      </trkpt>
      <trkpt lat="47.12926" lon="-1.47664">
        <ele>53.200000762939</ele>
        <time>2016-10-22T12:41:54Z</time>
      </trkpt>
      <trkpt lat="47.12929" lon="-1.47668">
        <ele>53.200000762939</ele>
        <time>2016-10-22T12:41:55Z</time>
      </trkpt>
      <trkpt lat="47.12961" lon="-1.47693">
        <ele>53.599998474121</ele>
        <time>2016-10-22T12:42:03Z</time>
      </trkpt>
      <trkpt lat="47.12987" lon="-1.47711">
        <ele>53.799999237061</ele>
        <time>2016-10-22T12:42:09Z</time>
      </trkpt>
      <trkpt lat="47.13001" lon="-1.47722">
        <ele>54</ele>
        <time>2016-10-22T12:42:12Z</time>
      </trkpt>
      <trkpt lat="47.13019" lon="-1.47732">
        <ele>53.799999237061</ele>
        <time>2016-10-22T12:42:16Z</time>
      </trkpt>
      <trkpt lat="47.13027" lon="-1.47738">
        <ele>53.599998474121</ele>
        <time>2016-10-22T12:42:20Z</time>
      </trkpt>
      <trkpt lat="47.13029" lon="-1.47738">
        <ele>53.599998474121</ele>
        <time>2016-10-22T12:42:22Z</time>
      </trkpt>
      <trkpt lat="47.13044" lon="-1.47747">
        <ele>54</ele>
        <time>2016-10-22T12:43:38Z</time>
      </trkpt>
      <trkpt lat="47.13051" lon="-1.47751">
        <ele>53.599998474121</ele>
        <time>2016-10-22T12:43:42Z</time>
      </trkpt>
      <trkpt lat="47.13064" lon="-1.4776">
        <ele>53.200000762939</ele>
        <time>2016-10-22T12:43:47Z</time>
      </trkpt>
      <trkpt lat="47.13075" lon="-1.47768">
        <ele>53</ele>
        <time>2016-10-22T12:43:51Z</time>
      </trkpt>
      <trkpt lat="47.13087" lon="-1.47779">
        <ele>52.200000762939</ele>
        <time>2016-10-22T12:43:56Z</time>
      </trkpt>
      <trkpt lat="47.13095" lon="-1.47773">
        <ele>51.799999237061</ele>
        <time>2016-10-22T12:43:59Z</time>
      </trkpt>
      <trkpt lat="47.13103" lon="-1.47759">
        <ele>51</ele>
        <time>2016-10-22T12:44:04Z</time>
      </trkpt>
      <trkpt lat="47.13106" lon="-1.47754">
        <ele>50.799999237061</ele>
        <time>2016-10-22T12:44:06Z</time>
      </trkpt>
      <trkpt lat="47.13114" lon="-1.47733">
        <ele>50.400001525879</ele>
        <time>2016-10-22T12:44:11Z</time>
      </trkpt>
      <trkpt lat="47.13124" lon="-1.47727">
        <ele>50.200000762939</ele>
        <time>2016-10-22T12:44:15Z</time>
      </trkpt>
      <trkpt lat="47.13133" lon="-1.47735">
        <ele>50</ele>
        <time>2016-10-22T12:44:19Z</time>
      </trkpt>
      <trkpt lat="47.1314" lon="-1.47742">
        <ele>49.599998474121</ele>
        <time>2016-10-22T12:44:22Z</time>
      </trkpt>
      <trkpt lat="47.13153" lon="-1.47772">
        <ele>49</ele>
        <time>2016-10-22T12:44:28Z</time>
      </trkpt>
      <trkpt lat="47.13171" lon="-1.47791">
        <ele>49</ele>
        <time>2016-10-22T12:44:33Z</time>
      </trkpt>
      <trkpt lat="47.13191" lon="-1.47804">
        <ele>49.200000762939</ele>
        <time>2016-10-22T12:44:39Z</time>
      </trkpt>
      <trkpt lat="47.13204" lon="-1.47813">
        <ele>49</ele>
        <time>2016-10-22T12:44:43Z</time>
      </trkpt>
      <trkpt lat="47.13219" lon="-1.47823">
        <ele>48.799999237061</ele>
        <time>2016-10-22T12:44:48Z</time>
      </trkpt>
      <trkpt lat="47.13234" lon="-1.47848">
        <ele>48</ele>
        <time>2016-10-22T12:44:54Z</time>
      </trkpt>
      <trkpt lat="47.13244" lon="-1.47866">
        <ele>47.599998474121</ele>
        <time>2016-10-22T12:44:58Z</time>
      </trkpt>
      <trkpt lat="47.13251" lon="-1.47877">
        <ele>47.200000762939</ele>
        <time>2016-10-22T12:45:02Z</time>
      </trkpt>
      <trkpt lat="47.13259" lon="-1.47868">
        <ele>47.200000762939</ele>
        <time>2016-10-22T12:45:06Z</time>
      </trkpt>
      <trkpt lat="47.13274" lon="-1.47863">
        <ele>46.799999237061</ele>
        <time>2016-10-22T12:45:10Z</time>
      </trkpt>
      <trkpt lat="47.1328" lon="-1.47868">
        <ele>46.400001525879</ele>
        <time>2016-10-22T12:45:12Z</time>
      </trkpt>
      <trkpt lat="47.13294" lon="-1.47888">
        <ele>45.799999237061</ele>
        <time>2016-10-22T12:45:17Z</time>
      </trkpt>
      <trkpt lat="47.13302" lon="-1.47902">
        <ele>45.400001525879</ele>
        <time>2016-10-22T12:45:20Z</time>
      </trkpt>
      <trkpt lat="47.13316" lon="-1.47926">
        <ele>44.799999237061</ele>
        <time>2016-10-22T12:45:25Z</time>
      </trkpt>
      <trkpt lat="47.13321" lon="-1.47937">
        <ele>44.599998474121</ele>
        <time>2016-10-22T12:45:27Z</time>
      </trkpt>
      <trkpt lat="47.13335" lon="-1.47962">
        <ele>44</ele>
        <time>2016-10-22T12:45:32Z</time>
      </trkpt>
      <trkpt lat="47.13346" lon="-1.47983">
        <ele>43.599998474121</ele>
        <time>2016-10-22T12:45:37Z</time>
      </trkpt>
      <trkpt lat="47.13358" lon="-1.47995">
        <ele>43.799999237061</ele>
        <time>2016-10-22T12:45:42Z</time>
      </trkpt>
      <trkpt lat="47.13362" lon="-1.47993">
        <ele>43.799999237061</ele>
        <time>2016-10-22T12:45:43Z</time>
      </trkpt>
      <trkpt lat="47.1338" lon="-1.47961">
        <ele>42.799999237061</ele>
        <time>2016-10-22T12:45:49Z</time>
      </trkpt>
      <trkpt lat="47.13385" lon="-1.4791">
        <ele>42</ele>
        <time>2016-10-22T12:45:56Z</time>
      </trkpt>
      <trkpt lat="47.13389" lon="-1.47861">
        <ele>42</ele>
        <time>2016-10-22T12:46:03Z</time>
      </trkpt>
      <trkpt lat="47.13392" lon="-1.47826">
        <ele>42.400001525879</ele>
        <time>2016-10-22T12:46:08Z</time>
      </trkpt>
      <trkpt lat="47.13396" lon="-1.47766">
        <ele>42.599998474121</ele>
        <time>2016-10-22T12:46:16Z</time>
      </trkpt>
      <trkpt lat="47.13399" lon="-1.47691">
        <ele>42.799999237061</ele>
        <time>2016-10-22T12:46:26Z</time>
      </trkpt>
      <trkpt lat="47.13402" lon="-1.4762">
        <ele>43</ele>
        <time>2016-10-22T12:46:36Z</time>
      </trkpt>
      <trkpt lat="47.13404" lon="-1.47548">
        <ele>42.799999237061</ele>
        <time>2016-10-22T12:46:46Z</time>
      </trkpt>
      <trkpt lat="47.13407" lon="-1.47482">
        <ele>43.400001525879</ele>
        <time>2016-10-22T12:46:55Z</time>
      </trkpt>
      <trkpt lat="47.1341" lon="-1.47427">
        <ele>43.599998474121</ele>
        <time>2016-10-22T12:47:03Z</time>
      </trkpt>
      <trkpt lat="47.13415" lon="-1.47354">
        <ele>45</ele>
        <time>2016-10-22T12:47:14Z</time>
      </trkpt>
      <trkpt lat="47.13418" lon="-1.473">
        <ele>46.200000762939</ele>
        <time>2016-10-22T12:47:22Z</time>
      </trkpt>
      <trkpt lat="47.13423" lon="-1.47233">
        <ele>46.799999237061</ele>
        <time>2016-10-22T12:47:32Z</time>
      </trkpt>
      <trkpt lat="47.13427" lon="-1.47167">
        <ele>46.599998474121</ele>
        <time>2016-10-22T12:47:42Z</time>
      </trkpt>
      <trkpt lat="47.13431" lon="-1.47107">
        <ele>47.599998474121</ele>
        <time>2016-10-22T12:47:51Z</time>
      </trkpt>
      <trkpt lat="47.13436" lon="-1.47032">
        <ele>48.200000762939</ele>
        <time>2016-10-22T12:48:02Z</time>
      </trkpt>
      <trkpt lat="47.13441" lon="-1.46991">
        <ele>48.200000762939</ele>
        <time>2016-10-22T12:48:08Z</time>
      </trkpt>
      <trkpt lat="47.13453" lon="-1.46949">
        <ele>47.599998474121</ele>
        <time>2016-10-22T12:48:14Z</time>
      </trkpt>
      <trkpt lat="47.13459" lon="-1.46924">
        <ele>47.200000762939</ele>
        <time>2016-10-22T12:48:18Z</time>
      </trkpt>
      <trkpt lat="47.13467" lon="-1.46906">
        <ele>47.200000762939</ele>
        <time>2016-10-22T12:48:22Z</time>
      </trkpt>
      <trkpt lat="47.13473" lon="-1.4691">
        <ele>47.200000762939</ele>
        <time>2016-10-22T12:48:25Z</time>
      </trkpt>
      <trkpt lat="47.13475" lon="-1.46913">
        <ele>47.200000762939</ele>
        <time>2016-10-22T12:48:26Z</time>
      </trkpt>
      <trkpt lat="47.1349" lon="-1.46941">
        <ele>47.200000762939</ele>
        <time>2016-10-22T12:48:32Z</time>
      </trkpt>
      <trkpt lat="47.13511" lon="-1.4698">
        <ele>46.799999237061</ele>
        <time>2016-10-22T12:48:39Z</time>
      </trkpt>
      <trkpt lat="47.13514" lon="-1.46985">
        <ele>46.799999237061</ele>
        <time>2016-10-22T12:48:40Z</time>
      </trkpt>
      <trkpt lat="47.13526" lon="-1.47003">
        <ele>46.799999237061</ele>
        <time>2016-10-22T12:48:44Z</time>
      </trkpt>
      <trkpt lat="47.1355" lon="-1.47028">
        <ele>47.200000762939</ele>
        <time>2016-10-22T12:48:50Z</time>
      </trkpt>
      <trkpt lat="47.13597" lon="-1.47063">
        <ele>47.400001525879</ele>
        <time>2016-10-22T12:48:59Z</time>
      </trkpt>
      <trkpt lat="47.13634" lon="-1.47092">
        <ele>47.799999237061</ele>
        <time>2016-10-22T12:49:07Z</time>
      </trkpt>
      <trkpt lat="47.13676" lon="-1.47119">
        <ele>48</ele>
        <time>2016-10-22T12:49:16Z</time>
      </trkpt>
      <trkpt lat="47.13715" lon="-1.47135">
        <ele>48.400001525879</ele>
        <time>2016-10-22T12:49:24Z</time>
      </trkpt>
      <trkpt lat="47.1373" lon="-1.47136">
        <ele>48.599998474121</ele>
        <time>2016-10-22T12:49:27Z</time>
      </trkpt>
      <trkpt lat="47.13739" lon="-1.47134">
        <ele>48.599998474121</ele>
        <time>2016-10-22T12:49:29Z</time>
      </trkpt>
      <trkpt lat="47.13775" lon="-1.47117">
        <ele>48.400001525879</ele>
        <time>2016-10-22T12:49:37Z</time>
      </trkpt>
      <trkpt lat="47.13783" lon="-1.47102">
        <ele>48.599998474121</ele>
        <time>2016-10-22T12:49:41Z</time>
      </trkpt>
      <trkpt lat="47.13783" lon="-1.47096">
        <ele>48.799999237061</ele>
        <time>2016-10-22T12:49:42Z</time>
      </trkpt>
      <trkpt lat="47.13785" lon="-1.47037">
        <ele>48.799999237061</ele>
        <time>2016-10-22T12:49:51Z</time>
      </trkpt>
      <trkpt lat="47.13783" lon="-1.46997">
        <ele>49.200000762939</ele>
        <time>2016-10-22T12:49:57Z</time>
      </trkpt>
      <trkpt lat="47.13786" lon="-1.46966">
        <ele>49.599998474121</ele>
        <time>2016-10-22T12:50:02Z</time>
      </trkpt>
      <trkpt lat="47.13795" lon="-1.46955">
        <ele>49.799999237061</ele>
        <time>2016-10-22T12:50:05Z</time>
      </trkpt>
      <trkpt lat="47.13807" lon="-1.46939">
        <ele>49.799999237061</ele>
        <time>2016-10-22T12:50:09Z</time>
      </trkpt>
      <trkpt lat="47.13826" lon="-1.46894">
        <ele>50.400001525879</ele>
        <time>2016-10-22T12:50:17Z</time>
      </trkpt>
      <trkpt lat="47.13846" lon="-1.46854">
        <ele>50.799999237061</ele>
        <time>2016-10-22T12:50:24Z</time>
      </trkpt>
      <trkpt lat="47.13859" lon="-1.46831">
        <ele>50.599998474121</ele>
        <time>2016-10-22T12:50:28Z</time>
      </trkpt>
      <trkpt lat="47.13892" lon="-1.4679">
        <ele>50.200000762939</ele>
        <time>2016-10-22T12:50:36Z</time>
      </trkpt>
      <trkpt lat="47.13925" lon="-1.4675">
        <ele>49.400001525879</ele>
        <time>2016-10-22T12:50:44Z</time>
      </trkpt>
      <trkpt lat="47.13934" lon="-1.46733">
        <ele>49</ele>
        <time>2016-10-22T12:50:48Z</time>
      </trkpt>
      <trkpt lat="47.13936" lon="-1.46729">
        <ele>48.599998474121</ele>
        <time>2016-10-22T12:50:52Z</time>
      </trkpt>
      <trkpt lat="47.13939" lon="-1.46724">
        <ele>48.400001525879</ele>
        <time>2016-10-22T12:50:55Z</time>
      </trkpt>
      <trkpt lat="47.13951" lon="-1.46716">
        <ele>48.200000762939</ele>
        <time>2016-10-22T12:50:59Z</time>
      </trkpt>
      <trkpt lat="47.13963" lon="-1.46698">
        <ele>48.200000762939</ele>
        <time>2016-10-22T12:51:03Z</time>
      </trkpt>
      <trkpt lat="47.13973" lon="-1.46683">
        <ele>48.200000762939</ele>
        <time>2016-10-22T12:51:06Z</time>
      </trkpt>
      <trkpt lat="47.13979" lon="-1.46672">
        <ele>48</ele>
        <time>2016-10-22T12:51:08Z</time>
      </trkpt>
      <trkpt lat="47.13983" lon="-1.46659">
        <ele>48</ele>
        <time>2016-10-22T12:51:10Z</time>
      </trkpt>
      <trkpt lat="47.14003" lon="-1.46629">
        <ele>47.599998474121</ele>
        <time>2016-10-22T12:51:16Z</time>
      </trkpt>
      <trkpt lat="47.14016" lon="-1.4662">
        <ele>47.200000762939</ele>
        <time>2016-10-22T12:51:19Z</time>
      </trkpt>
      <trkpt lat="47.14049" lon="-1.46605">
        <ele>46.599998474121</ele>
        <time>2016-10-22T12:51:26Z</time>
      </trkpt>
      <trkpt lat="47.14085" lon="-1.46606">
        <ele>45.200000762939</ele>
        <time>2016-10-22T12:51:33Z</time>
      </trkpt>
      <trkpt lat="47.14133" lon="-1.46622">
        <ele>44.200000762939</ele>
        <time>2016-10-22T12:51:42Z</time>
      </trkpt>
      <trkpt lat="47.14145" lon="-1.46624">
        <ele>44</ele>
        <time>2016-10-22T12:51:44Z</time>
      </trkpt>
      <trkpt lat="47.14171" lon="-1.46625">
        <ele>43.799999237061</ele>
        <time>2016-10-22T12:51:49Z</time>
      </trkpt>
      <trkpt lat="47.14182" lon="-1.46623">
        <ele>44</ele>
        <time>2016-10-22T12:51:51Z</time>
      </trkpt>
      <trkpt lat="47.14227" lon="-1.46627">
        <ele>43.400001525879</ele>
        <time>2016-10-22T12:51:59Z</time>
      </trkpt>
      <trkpt lat="47.14249" lon="-1.46635">
        <ele>43</ele>
        <time>2016-10-22T12:52:03Z</time>
      </trkpt>
      <trkpt lat="47.14284" lon="-1.46633">
        <ele>42.200000762939</ele>
        <time>2016-10-22T12:52:09Z</time>
      </trkpt>
      <trkpt lat="47.14295" lon="-1.46631">
        <ele>42</ele>
        <time>2016-10-22T12:52:11Z</time>
      </trkpt>
      <trkpt lat="47.1432" lon="-1.46631">
        <ele>41.799999237061</ele>
        <time>2016-10-22T12:52:15Z</time>
      </trkpt>
      <trkpt lat="47.14384" lon="-1.46609">
        <ele>42.200000762939</ele>
        <time>2016-10-22T12:52:26Z</time>
      </trkpt>
      <trkpt lat="47.14424" lon="-1.46599">
        <ele>42.400001525879</ele>
        <time>2016-10-22T12:52:33Z</time>
      </trkpt>
      <trkpt lat="47.14446" lon="-1.46592">
        <ele>42.200000762939</ele>
        <time>2016-10-22T12:52:37Z</time>
      </trkpt>
      <trkpt lat="47.14474" lon="-1.46583">
        <ele>42.200000762939</ele>
        <time>2016-10-22T12:52:42Z</time>
      </trkpt>
      <trkpt lat="47.1451" lon="-1.46562">
        <ele>41.799999237061</ele>
        <time>2016-10-22T12:52:49Z</time>
      </trkpt>
      <trkpt lat="47.14557" lon="-1.46542">
        <ele>41.799999237061</ele>
        <time>2016-10-22T12:52:58Z</time>
      </trkpt>
      <trkpt lat="47.14576" lon="-1.46532">
        <ele>42</ele>
        <time>2016-10-22T12:53:02Z</time>
      </trkpt>
      <trkpt lat="47.14626" lon="-1.46508">
        <ele>42.599998474121</ele>
        <time>2016-10-22T12:53:12Z</time>
      </trkpt>
      <trkpt lat="47.14659" lon="-1.46489">
        <ele>42.799999237061</ele>
        <time>2016-10-22T12:53:19Z</time>
      </trkpt>
      <trkpt lat="47.14673" lon="-1.46483">
        <ele>43.200000762939</ele>
        <time>2016-10-22T12:53:22Z</time>
      </trkpt>
      <trkpt lat="47.14702" lon="-1.4648">
        <ele>43.400001525879</ele>
        <time>2016-10-22T12:53:28Z</time>
      </trkpt>
      <trkpt lat="47.14724" lon="-1.46485">
        <ele>43.200000762939</ele>
        <time>2016-10-22T12:53:33Z</time>
      </trkpt>
      <trkpt lat="47.1476" lon="-1.4651">
        <ele>42.200000762939</ele>
        <time>2016-10-22T12:53:41Z</time>
      </trkpt>
      <trkpt lat="47.14779" lon="-1.46527">
        <ele>41.200000762939</ele>
        <time>2016-10-22T12:53:45Z</time>
      </trkpt>
      <trkpt lat="47.14808" lon="-1.46541">
        <ele>39.799999237061</ele>
        <time>2016-10-22T12:53:50Z</time>
      </trkpt>
      <trkpt lat="47.14824" lon="-1.46564">
        <ele>38.400001525879</ele>
        <time>2016-10-22T12:53:54Z</time>
      </trkpt>
      <trkpt lat="47.1483" lon="-1.46575">
        <ele>38.200000762939</ele>
        <time>2016-10-22T12:53:56Z</time>
      </trkpt>
      <trkpt lat="47.14852" lon="-1.46608">
        <ele>36</ele>
        <time>2016-10-22T12:54:02Z</time>
      </trkpt>
      <trkpt lat="47.14869" lon="-1.46639">
        <ele>32.200000762939</ele>
        <time>2016-10-22T12:54:07Z</time>
      </trkpt>
      <trkpt lat="47.14881" lon="-1.4666">
        <ele>28.60000038147</ele>
        <time>2016-10-22T12:54:11Z</time>
      </trkpt>
      <trkpt lat="47.14891" lon="-1.46672">
        <ele>25.799999237061</ele>
        <time>2016-10-22T12:54:14Z</time>
      </trkpt>
      <trkpt lat="47.1491" lon="-1.46691">
        <ele>21</ele>
        <time>2016-10-22T12:54:19Z</time>
      </trkpt>
      <trkpt lat="47.14914" lon="-1.46694">
        <ele>19.799999237061</ele>
        <time>2016-10-22T12:54:22Z</time>
      </trkpt>
      <trkpt lat="47.14913" lon="-1.46694">
        <ele>18.799999237061</ele>
        <time>2016-10-22T12:54:24Z</time>
      </trkpt>
      <trkpt lat="47.14917" lon="-1.46693">
        <ele>17.60000038147</ele>
        <time>2016-10-22T12:54:35Z</time>
      </trkpt>
      <trkpt lat="47.14934" lon="-1.46695">
        <ele>16</ele>
        <time>2016-10-22T12:54:41Z</time>
      </trkpt>
      <trkpt lat="47.14945" lon="-1.46695">
        <ele>14.199999809265</ele>
        <time>2016-10-22T12:54:46Z</time>
      </trkpt>
      <trkpt lat="47.14947" lon="-1.46695">
        <ele>14.199999809265</ele>
        <time>2016-10-22T12:54:47Z</time>
      </trkpt>
      <trkpt lat="47.14964" lon="-1.46707">
        <ele>12.800000190735</ele>
        <time>2016-10-22T12:54:52Z</time>
      </trkpt>
      <trkpt lat="47.14987" lon="-1.46727">
        <ele>10.60000038147</ele>
        <time>2016-10-22T12:54:58Z</time>
      </trkpt>
      <trkpt lat="47.14991" lon="-1.46749">
        <ele>8.8000001907349</ele>
        <time>2016-10-22T12:55:02Z</time>
      </trkpt>
      <trkpt lat="47.14987" lon="-1.46779">
        <ele>8.1999998092651</ele>
        <time>2016-10-22T12:55:07Z</time>
      </trkpt>
      <trkpt lat="47.14985" lon="-1.46791">
        <ele>8.1999998092651</ele>
        <time>2016-10-22T12:55:09Z</time>
      </trkpt>
      <trkpt lat="47.14991" lon="-1.46823">
        <ele>7.4000000953674</ele>
        <time>2016-10-22T12:55:14Z</time>
      </trkpt>
      <trkpt lat="47.14995" lon="-1.46843">
        <ele>6.8000001907349</ele>
        <time>2016-10-22T12:55:17Z</time>
      </trkpt>
      <trkpt lat="47.14999" lon="-1.46859">
        <ele>7</ele>
        <time>2016-10-22T12:55:20Z</time>
      </trkpt>
      <trkpt lat="47.15013" lon="-1.4686">
        <ele>8.1999998092651</ele>
        <time>2016-10-22T12:55:24Z</time>
      </trkpt>
      <trkpt lat="47.1506" lon="-1.46857">
        <ele>11.199999809265</ele>
        <time>2016-10-22T12:55:34Z</time>
      </trkpt>
      <trkpt lat="47.151" lon="-1.46855">
        <ele>12</ele>
        <time>2016-10-22T12:55:42Z</time>
      </trkpt>
      <trkpt lat="47.15148" lon="-1.46851">
        <ele>10.60000038147</ele>
        <time>2016-10-22T12:55:51Z</time>
      </trkpt>
      <trkpt lat="47.15196" lon="-1.46847">
        <ele>9.3999996185303</ele>
        <time>2016-10-22T12:55:59Z</time>
      </trkpt>
      <trkpt lat="47.15243" lon="-1.46841">
        <ele>8.8000001907349</ele>
        <time>2016-10-22T12:56:07Z</time>
      </trkpt>
      <trkpt lat="47.15291" lon="-1.46827">
        <ele>8.3999996185303</ele>
        <time>2016-10-22T12:56:16Z</time>
      </trkpt>
      <trkpt lat="47.15337" lon="-1.46806">
        <ele>8</ele>
        <time>2016-10-22T12:56:25Z</time>
      </trkpt>
      <trkpt lat="47.1537" lon="-1.46789">
        <ele>7.5999999046326</ele>
        <time>2016-10-22T12:56:32Z</time>
      </trkpt>
      <trkpt lat="47.15422" lon="-1.46755">
        <ele>8.1999998092651</ele>
        <time>2016-10-22T12:56:43Z</time>
      </trkpt>
      <trkpt lat="47.15435" lon="-1.46745">
        <ele>8.8000001907349</ele>
        <time>2016-10-22T12:56:46Z</time>
      </trkpt>
      <trkpt lat="47.15441" lon="-1.46729">
        <ele>9.1999998092651</ele>
        <time>2016-10-22T12:56:49Z</time>
      </trkpt>
      <trkpt lat="47.1543" lon="-1.46717">
        <ele>9.6000003814697</ele>
        <time>2016-10-22T12:56:52Z</time>
      </trkpt>
      <trkpt lat="47.15421" lon="-1.46723">
        <ele>9.8000001907349</ele>
        <time>2016-10-22T12:56:54Z</time>
      </trkpt>
      <trkpt lat="47.15418" lon="-1.46729">
        <ele>9.8000001907349</ele>
        <time>2016-10-22T12:56:55Z</time>
      </trkpt>
      <trkpt lat="47.15387" lon="-1.46765">
        <ele>8.8000001907349</ele>
        <time>2016-10-22T12:57:01Z</time>
      </trkpt>
      <trkpt lat="47.15366" lon="-1.46765">
        <ele>7.4000000953674</ele>
        <time>2016-10-22T12:57:04Z</time>
      </trkpt>
      <trkpt lat="47.15341" lon="-1.46745">
        <ele>6</ele>
        <time>2016-10-22T12:57:08Z</time>
      </trkpt>
      <trkpt lat="47.15326" lon="-1.46716">
        <ele>5.1999998092651</ele>
        <time>2016-10-22T12:57:12Z</time>
      </trkpt>
      <trkpt lat="47.15311" lon="-1.46659">
        <ele>5</ele>
        <time>2016-10-22T12:57:19Z</time>
      </trkpt>
      <trkpt lat="47.15309" lon="-1.46616">
        <ele>5</ele>
        <time>2016-10-22T12:57:24Z</time>
      </trkpt>
      <trkpt lat="47.15314" lon="-1.466">
        <ele>4.8000001907349</ele>
        <time>2016-10-22T12:57:26Z</time>
      </trkpt>
      <trkpt lat="47.15322" lon="-1.46578">
        <ele>4.8000001907349</ele>
        <time>2016-10-22T12:57:29Z</time>
      </trkpt>
      <trkpt lat="47.15329" lon="-1.46565">
        <ele>4.8000001907349</ele>
        <time>2016-10-22T12:57:31Z</time>
      </trkpt>
      <trkpt lat="47.15332" lon="-1.4654">
        <ele>5</ele>
        <time>2016-10-22T12:57:35Z</time>
      </trkpt>
      <trkpt lat="47.1533" lon="-1.46534">
        <ele>5</ele>
        <time>2016-10-22T12:57:36Z</time>
      </trkpt>
      <trkpt lat="47.15315" lon="-1.46497">
        <ele>5</ele>
        <time>2016-10-22T12:57:42Z</time>
      </trkpt>
      <trkpt lat="47.15301" lon="-1.46467">
        <ele>5</ele>
        <time>2016-10-22T12:57:47Z</time>
      </trkpt>
      <trkpt lat="47.15289" lon="-1.46438">
        <ele>5.4000000953674</ele>
        <time>2016-10-22T12:57:52Z</time>
      </trkpt>
      <trkpt lat="47.15285" lon="-1.46419">
        <ele>6.1999998092651</ele>
        <time>2016-10-22T12:57:56Z</time>
      </trkpt>
      <trkpt lat="47.15301" lon="-1.46411">
        <ele>7.4000000953674</ele>
        <time>2016-10-22T12:58:01Z</time>
      </trkpt>
      <trkpt lat="47.15314" lon="-1.46407">
        <ele>8.3999996185303</ele>
        <time>2016-10-22T12:58:04Z</time>
      </trkpt>
      <trkpt lat="47.15321" lon="-1.46385">
        <ele>9.6000003814697</ele>
        <time>2016-10-22T12:58:09Z</time>
      </trkpt>
      <trkpt lat="47.15319" lon="-1.46376">
        <ele>10.39999961853</ele>
        <time>2016-10-22T12:58:11Z</time>
      </trkpt>
      <trkpt lat="47.15308" lon="-1.46327">
        <ele>12.39999961853</ele>
        <time>2016-10-22T12:58:19Z</time>
      </trkpt>
      <trkpt lat="47.15306" lon="-1.46302">
        <ele>13</ele>
        <time>2016-10-22T12:58:23Z</time>
      </trkpt>
      <trkpt lat="47.15311" lon="-1.46259">
        <ele>13.800000190735</ele>
        <time>2016-10-22T12:58:29Z</time>
      </trkpt>
      <trkpt lat="47.15321" lon="-1.4622">
        <ele>14.199999809265</ele>
        <time>2016-10-22T12:58:35Z</time>
      </trkpt>
      <trkpt lat="47.15324" lon="-1.46208">
        <ele>14.39999961853</ele>
        <time>2016-10-22T12:58:37Z</time>
      </trkpt>
      <trkpt lat="47.15325" lon="-1.46182">
        <ele>14.800000190735</ele>
        <time>2016-10-22T12:58:41Z</time>
      </trkpt>
      <trkpt lat="47.15318" lon="-1.46131">
        <ele>15.199999809265</ele>
        <time>2016-10-22T12:58:49Z</time>
      </trkpt>
      <trkpt lat="47.15319" lon="-1.46092">
        <ele>15</ele>
        <time>2016-10-22T12:58:55Z</time>
      </trkpt>
      <trkpt lat="47.15323" lon="-1.4607">
        <ele>14</ele>
        <time>2016-10-22T12:58:58Z</time>
      </trkpt>
      <trkpt lat="47.15331" lon="-1.46057">
        <ele>13.39999961853</ele>
        <time>2016-10-22T12:59:00Z</time>
      </trkpt>
      <trkpt lat="47.15357" lon="-1.46032">
        <ele>10.800000190735</ele>
        <time>2016-10-22T12:59:05Z</time>
      </trkpt>
      <trkpt lat="47.15375" lon="-1.46022">
        <ele>11.199999809265</ele>
        <time>2016-10-22T12:59:10Z</time>
      </trkpt>
      <trkpt lat="47.154" lon="-1.46008">
        <ele>13</ele>
        <time>2016-10-22T12:59:17Z</time>
      </trkpt>
      <trkpt lat="47.15415" lon="-1.45988">
        <ele>13.60000038147</ele>
        <time>2016-10-22T12:59:23Z</time>
      </trkpt>
      <trkpt lat="47.15425" lon="-1.45995">
        <ele>13.800000190735</ele>
        <time>2016-10-22T12:59:27Z</time>
      </trkpt>
      <trkpt lat="47.15444" lon="-1.46022">
        <ele>15</ele>
        <time>2016-10-22T12:59:34Z</time>
      </trkpt>
      <trkpt lat="47.15453" lon="-1.46033">
        <ele>15.39999961853</ele>
        <time>2016-10-22T12:59:37Z</time>
      </trkpt>
      <trkpt lat="47.15467" lon="-1.4603">
        <ele>15.60000038147</ele>
        <time>2016-10-22T12:59:41Z</time>
      </trkpt>
      <trkpt lat="47.15491" lon="-1.46007">
        <ele>16.39999961853</ele>
        <time>2016-10-22T12:59:48Z</time>
      </trkpt>
      <trkpt lat="47.15505" lon="-1.45991">
        <ele>17.200000762939</ele>
        <time>2016-10-22T12:59:53Z</time>
      </trkpt>
      <trkpt lat="47.15527" lon="-1.4598">
        <ele>17.799999237061</ele>
        <time>2016-10-22T12:59:59Z</time>
      </trkpt>
      <trkpt lat="47.15543" lon="-1.45969">
        <ele>18.39999961853</ele>
        <time>2016-10-22T13:00:04Z</time>
      </trkpt>
      <trkpt lat="47.15555" lon="-1.45958">
        <ele>19.200000762939</ele>
        <time>2016-10-22T13:00:09Z</time>
      </trkpt>
      <trkpt lat="47.15567" lon="-1.45947">
        <ele>20.200000762939</ele>
        <time>2016-10-22T13:00:13Z</time>
      </trkpt>
      <trkpt lat="47.15583" lon="-1.45929">
        <ele>21.200000762939</ele>
        <time>2016-10-22T13:00:18Z</time>
      </trkpt>
      <trkpt lat="47.156" lon="-1.45915">
        <ele>23</ele>
        <time>2016-10-22T13:00:24Z</time>
      </trkpt>
      <trkpt lat="47.15615" lon="-1.45907">
        <ele>24.60000038147</ele>
        <time>2016-10-22T13:00:29Z</time>
      </trkpt>
      <trkpt lat="47.15629" lon="-1.459">
        <ele>25.799999237061</ele>
        <time>2016-10-22T13:00:34Z</time>
      </trkpt>
      <trkpt lat="47.15648" lon="-1.45891">
        <ele>27.200000762939</ele>
        <time>2016-10-22T13:00:40Z</time>
      </trkpt>
      <trkpt lat="47.15661" lon="-1.45878">
        <ele>27.60000038147</ele>
        <time>2016-10-22T13:00:45Z</time>
      </trkpt>
      <trkpt lat="47.15671" lon="-1.45853">
        <ele>28.39999961853</ele>
        <time>2016-10-22T13:00:50Z</time>
      </trkpt>
      <trkpt lat="47.15674" lon="-1.4582">
        <ele>28.799999237061</ele>
        <time>2016-10-22T13:00:56Z</time>
      </trkpt>
      <trkpt lat="47.15672" lon="-1.45796">
        <ele>29</ele>
        <time>2016-10-22T13:01:01Z</time>
      </trkpt>
      <trkpt lat="47.15668" lon="-1.45789">
        <ele>28.799999237061</ele>
        <time>2016-10-22T13:01:03Z</time>
      </trkpt>
      <trkpt lat="47.15672" lon="-1.45775">
        <ele>28.799999237061</ele>
        <time>2016-10-22T13:01:07Z</time>
      </trkpt>
      <trkpt lat="47.157" lon="-1.45744">
        <ele>29.39999961853</ele>
        <time>2016-10-22T13:01:17Z</time>
      </trkpt>
      <trkpt lat="47.15725" lon="-1.45717">
        <ele>29.39999961853</ele>
        <time>2016-10-22T13:01:25Z</time>
      </trkpt>
      <trkpt lat="47.15751" lon="-1.45683">
        <ele>29.60000038147</ele>
        <time>2016-10-22T13:01:34Z</time>
      </trkpt>
      <trkpt lat="47.15782" lon="-1.45642">
        <ele>30.200000762939</ele>
        <time>2016-10-22T13:01:45Z</time>
      </trkpt>
      <trkpt lat="47.15801" lon="-1.45612">
        <ele>30.60000038147</ele>
        <time>2016-10-22T13:01:53Z</time>
      </trkpt>
      <trkpt lat="47.15807" lon="-1.45581">
        <ele>30.799999237061</ele>
        <time>2016-10-22T13:01:59Z</time>
      </trkpt>
      <trkpt lat="47.15813" lon="-1.4552">
        <ele>31.799999237061</ele>
        <time>2016-10-22T13:02:10Z</time>
      </trkpt>
      <trkpt lat="47.15816" lon="-1.45478">
        <ele>32.599998474121</ele>
        <time>2016-10-22T13:02:18Z</time>
      </trkpt>
      <trkpt lat="47.15821" lon="-1.4543">
        <ele>33</ele>
        <time>2016-10-22T13:02:27Z</time>
      </trkpt>
      <trkpt lat="47.15824" lon="-1.4539">
        <ele>33.799999237061</ele>
        <time>2016-10-22T13:02:35Z</time>
      </trkpt>
      <trkpt lat="47.1582" lon="-1.4538">
        <ele>33.799999237061</ele>
        <time>2016-10-22T13:02:39Z</time>
      </trkpt>
      <trkpt lat="47.1582" lon="-1.4538">
        <ele>33.799999237061</ele>
        <time>2016-10-22T13:02:40Z</time>
      </trkpt>
      <trkpt lat="47.15815" lon="-1.45378">
        <ele>35.400001525879</ele>
        <time>2016-10-22T13:12:14Z</time>
      </trkpt>
      <trkpt lat="47.158" lon="-1.45376">
        <ele>35.200000762939</ele>
        <time>2016-10-22T13:12:18Z</time>
      </trkpt>
      <trkpt lat="47.1578" lon="-1.45374">
        <ele>34.400001525879</ele>
        <time>2016-10-22T13:12:22Z</time>
      </trkpt>
      <trkpt lat="47.15765" lon="-1.45359">
        <ele>33.400001525879</ele>
        <time>2016-10-22T13:12:26Z</time>
      </trkpt>
      <trkpt lat="47.15754" lon="-1.45293">
        <ele>31.39999961853</ele>
        <time>2016-10-22T13:12:35Z</time>
      </trkpt>
      <trkpt lat="47.15743" lon="-1.45244">
        <ele>29.60000038147</ele>
        <time>2016-10-22T13:12:41Z</time>
      </trkpt>
      <trkpt lat="47.15732" lon="-1.45195">
        <ele>27</ele>
        <time>2016-10-22T13:12:46Z</time>
      </trkpt>
      <trkpt lat="47.15726" lon="-1.45174">
        <ele>25.39999961853</ele>
        <time>2016-10-22T13:12:48Z</time>
      </trkpt>
      <trkpt lat="47.15718" lon="-1.45116">
        <ele>22.200000762939</ele>
        <time>2016-10-22T13:12:53Z</time>
      </trkpt>
      <trkpt lat="47.15713" lon="-1.45084">
        <ele>21</ele>
        <time>2016-10-22T13:12:56Z</time>
      </trkpt>
      <trkpt lat="47.15698" lon="-1.45048">
        <ele>20</ele>
        <time>2016-10-22T13:13:01Z</time>
      </trkpt>
      <trkpt lat="47.15679" lon="-1.45023">
        <ele>20.200000762939</ele>
        <time>2016-10-22T13:13:07Z</time>
      </trkpt>
      <trkpt lat="47.15653" lon="-1.45035">
        <ele>20.200000762939</ele>
        <time>2016-10-22T13:13:12Z</time>
      </trkpt>
      <trkpt lat="47.15613" lon="-1.45054">
        <ele>17.799999237061</ele>
        <time>2016-10-22T13:13:18Z</time>
      </trkpt>
      <trkpt lat="47.15574" lon="-1.45073">
        <ele>16.200000762939</ele>
        <time>2016-10-22T13:13:24Z</time>
      </trkpt>
      <trkpt lat="47.15545" lon="-1.45089">
        <ele>16.200000762939</ele>
        <time>2016-10-22T13:13:30Z</time>
      </trkpt>
      <trkpt lat="47.1554" lon="-1.45091">
        <ele>16.39999961853</ele>
        <time>2016-10-22T13:13:31Z</time>
      </trkpt>
      <trkpt lat="47.15531" lon="-1.45108">
        <ele>16.799999237061</ele>
        <time>2016-10-22T13:13:35Z</time>
      </trkpt>
      <trkpt lat="47.15537" lon="-1.4514">
        <ele>16.60000038147</ele>
        <time>2016-10-22T13:13:40Z</time>
      </trkpt>
      <trkpt lat="47.15547" lon="-1.45178">
        <ele>15.199999809265</ele>
        <time>2016-10-22T13:13:45Z</time>
      </trkpt>
      <trkpt lat="47.15551" lon="-1.45205">
        <ele>14</ele>
        <time>2016-10-22T13:13:49Z</time>
      </trkpt>
      <trkpt lat="47.15539" lon="-1.45231">
        <ele>11</ele>
        <time>2016-10-22T13:13:54Z</time>
      </trkpt>
      <trkpt lat="47.15517" lon="-1.45238">
        <ele>9.1999998092651</ele>
        <time>2016-10-22T13:13:58Z</time>
      </trkpt>
      <trkpt lat="47.15478" lon="-1.45234">
        <ele>8.8000001907349</ele>
        <time>2016-10-22T13:14:05Z</time>
      </trkpt>
      <trkpt lat="47.15462" lon="-1.45232">
        <ele>9.1999998092651</ele>
        <time>2016-10-22T13:14:09Z</time>
      </trkpt>
      <trkpt lat="47.15459" lon="-1.4523">
        <ele>9.1999998092651</ele>
        <time>2016-10-22T13:14:10Z</time>
      </trkpt>
      <trkpt lat="47.15444" lon="-1.45196">
        <ele>8.3999996185303</ele>
        <time>2016-10-22T13:14:16Z</time>
      </trkpt>
      <trkpt lat="47.15431" lon="-1.45154">
        <ele>8.3999996185303</ele>
        <time>2016-10-22T13:14:23Z</time>
      </trkpt>
      <trkpt lat="47.15423" lon="-1.45123">
        <ele>8</ele>
        <time>2016-10-22T13:14:28Z</time>
      </trkpt>
      <trkpt lat="47.1542" lon="-1.45116">
        <ele>7.8000001907349</ele>
        <time>2016-10-22T13:14:29Z</time>
      </trkpt>
      <trkpt lat="47.15416" lon="-1.451">
        <ele>7.4000000953674</ele>
        <time>2016-10-22T13:14:31Z</time>
      </trkpt>
      <trkpt lat="47.15414" lon="-1.45087">
        <ele>7</ele>
        <time>2016-10-22T13:14:33Z</time>
      </trkpt>
      <trkpt lat="47.15413" lon="-1.45072">
        <ele>6.5999999046326</ele>
        <time>2016-10-22T13:14:35Z</time>
      </trkpt>
      <trkpt lat="47.15413" lon="-1.45048">
        <ele>6.4000000953674</ele>
        <time>2016-10-22T13:14:38Z</time>
      </trkpt>
      <trkpt lat="47.15419" lon="-1.44996">
        <ele>6.5999999046326</ele>
        <time>2016-10-22T13:14:45Z</time>
      </trkpt>
      <trkpt lat="47.15421" lon="-1.44953">
        <ele>6.4000000953674</ele>
        <time>2016-10-22T13:14:51Z</time>
      </trkpt>
      <trkpt lat="47.1542" lon="-1.44946">
        <ele>6.1999998092651</ele>
        <time>2016-10-22T13:14:52Z</time>
      </trkpt>
      <trkpt lat="47.15426" lon="-1.44911">
        <ele>6</ele>
        <time>2016-10-22T13:14:57Z</time>
      </trkpt>
      <trkpt lat="47.15427" lon="-1.44905">
        <ele>6</ele>
        <time>2016-10-22T13:14:58Z</time>
      </trkpt>
      <trkpt lat="47.15429" lon="-1.44887">
        <ele>6.4000000953674</ele>
        <time>2016-10-22T13:15:01Z</time>
      </trkpt>
      <trkpt lat="47.15425" lon="-1.44852">
        <ele>6.5999999046326</ele>
        <time>2016-10-22T13:15:06Z</time>
      </trkpt>
      <trkpt lat="47.15424" lon="-1.44846">
        <ele>6.8000001907349</ele>
        <time>2016-10-22T13:15:07Z</time>
      </trkpt>
      <trkpt lat="47.15423" lon="-1.44817">
        <ele>6.8000001907349</ele>
        <time>2016-10-22T13:15:11Z</time>
      </trkpt>
      <trkpt lat="47.15423" lon="-1.44787">
        <ele>7.8000001907349</ele>
        <time>2016-10-22T13:15:16Z</time>
      </trkpt>
      <trkpt lat="47.15423" lon="-1.44775">
        <ele>8.1999998092651</ele>
        <time>2016-10-22T13:15:18Z</time>
      </trkpt>
      <trkpt lat="47.15428" lon="-1.44739">
        <ele>9</ele>
        <time>2016-10-22T13:15:24Z</time>
      </trkpt>
      <trkpt lat="47.15428" lon="-1.44733">
        <ele>8.8000001907349</ele>
        <time>2016-10-22T13:15:25Z</time>
      </trkpt>
      <trkpt lat="47.15423" lon="-1.44687">
        <ele>7.5999999046326</ele>
        <time>2016-10-22T13:15:30Z</time>
      </trkpt>
      <trkpt lat="47.15424" lon="-1.44669">
        <ele>6.8000001907349</ele>
        <time>2016-10-22T13:15:32Z</time>
      </trkpt>
      <trkpt lat="47.15417" lon="-1.44637">
        <ele>5.8000001907349</ele>
        <time>2016-10-22T13:15:37Z</time>
      </trkpt>
      <trkpt lat="47.15425" lon="-1.44624">
        <ele>6.1999998092651</ele>
        <time>2016-10-22T13:15:41Z</time>
      </trkpt>
      <trkpt lat="47.15439" lon="-1.44628">
        <ele>7.1999998092651</ele>
        <time>2016-10-22T13:15:46Z</time>
      </trkpt>
      <trkpt lat="47.15447" lon="-1.44636">
        <ele>9</ele>
        <time>2016-10-22T13:15:51Z</time>
      </trkpt>
      <trkpt lat="47.15458" lon="-1.44636">
        <ele>10.800000190735</ele>
        <time>2016-10-22T13:15:56Z</time>
      </trkpt>
      <trkpt lat="47.1546" lon="-1.44625">
        <ele>12.60000038147</ele>
        <time>2016-10-22T13:16:01Z</time>
      </trkpt>
      <trkpt lat="47.15457" lon="-1.44613">
        <ele>14</ele>
        <time>2016-10-22T13:16:07Z</time>
      </trkpt>
      <trkpt lat="47.15459" lon="-1.44608">
        <ele>14.199999809265</ele>
        <time>2016-10-22T13:16:09Z</time>
      </trkpt>
      <trkpt lat="47.15466" lon="-1.44594">
        <ele>15.60000038147</ele>
        <time>2016-10-22T13:16:15Z</time>
      </trkpt>
      <trkpt lat="47.15467" lon="-1.44593">
        <ele>15.800000190735</ele>
        <time>2016-10-22T13:16:16Z</time>
      </trkpt>
      <trkpt lat="47.15474" lon="-1.44579">
        <ele>17.200000762939</ele>
        <time>2016-10-22T13:16:22Z</time>
      </trkpt>
      <trkpt lat="47.15476" lon="-1.44572">
        <ele>17.60000038147</ele>
        <time>2016-10-22T13:16:25Z</time>
      </trkpt>
      <trkpt lat="47.15476" lon="-1.44555">
        <ele>17.60000038147</ele>
        <time>2016-10-22T13:16:30Z</time>
      </trkpt>
      <trkpt lat="47.15477" lon="-1.44549">
        <ele>17.39999961853</ele>
        <time>2016-10-22T13:16:32Z</time>
      </trkpt>
      <trkpt lat="47.15493" lon="-1.44531">
        <ele>15.800000190735</ele>
        <time>2016-10-22T13:16:38Z</time>
      </trkpt>
      <trkpt lat="47.15499" lon="-1.44513">
        <ele>14.60000038147</ele>
        <time>2016-10-22T13:16:42Z</time>
      </trkpt>
      <trkpt lat="47.15505" lon="-1.44503">
        <ele>14</ele>
        <time>2016-10-22T13:16:46Z</time>
      </trkpt>
      <trkpt lat="47.1551" lon="-1.44495">
        <ele>13.800000190735</ele>
        <time>2016-10-22T13:16:50Z</time>
      </trkpt>
      <trkpt lat="47.15512" lon="-1.44495">
        <ele>13.800000190735</ele>
        <time>2016-10-22T13:16:51Z</time>
      </trkpt>
      <trkpt lat="47.15527" lon="-1.44498">
        <ele>15.800000190735</ele>
        <time>2016-10-22T13:16:58Z</time>
      </trkpt>
      <trkpt lat="47.15528" lon="-1.44497">
        <ele>16</ele>
        <time>2016-10-22T13:16:59Z</time>
      </trkpt>
      <trkpt lat="47.15542" lon="-1.44479">
        <ele>13.60000038147</ele>
        <time>2016-10-22T13:17:05Z</time>
      </trkpt>
      <trkpt lat="47.15549" lon="-1.44478">
        <ele>12.60000038147</ele>
        <time>2016-10-22T13:17:07Z</time>
      </trkpt>
      <trkpt lat="47.15582" lon="-1.4447">
        <ele>14.199999809265</ele>
        <time>2016-10-22T13:17:18Z</time>
      </trkpt>
      <trkpt lat="47.15587" lon="-1.44463">
        <ele>15</ele>
        <time>2016-10-22T13:17:21Z</time>
      </trkpt>
      <trkpt lat="47.15598" lon="-1.44437">
        <ele>15.199999809265</ele>
        <time>2016-10-22T13:17:27Z</time>
      </trkpt>
      <trkpt lat="47.15605" lon="-1.44423">
        <ele>15.60000038147</ele>
        <time>2016-10-22T13:17:31Z</time>
      </trkpt>
      <trkpt lat="47.15607" lon="-1.44406">
        <ele>16.39999961853</ele>
        <time>2016-10-22T13:17:36Z</time>
      </trkpt>
      <trkpt lat="47.1561" lon="-1.44397">
        <ele>17</ele>
        <time>2016-10-22T13:17:39Z</time>
      </trkpt>
      <trkpt lat="47.15611" lon="-1.44381">
        <ele>16.799999237061</ele>
        <time>2016-10-22T13:17:43Z</time>
      </trkpt>
      <trkpt lat="47.15621" lon="-1.44377">
        <ele>17.200000762939</ele>
        <time>2016-10-22T13:17:47Z</time>
      </trkpt>
      <trkpt lat="47.15627" lon="-1.44373">
        <ele>18</ele>
        <time>2016-10-22T13:17:50Z</time>
      </trkpt>
      <trkpt lat="47.15647" lon="-1.44363">
        <ele>18.799999237061</ele>
        <time>2016-10-22T13:17:57Z</time>
      </trkpt>
      <trkpt lat="47.15649" lon="-1.44362">
        <ele>19.200000762939</ele>
        <time>2016-10-22T13:17:58Z</time>
      </trkpt>
      <trkpt lat="47.15669" lon="-1.44356">
        <ele>20.39999961853</ele>
        <time>2016-10-22T13:18:04Z</time>
      </trkpt>
      <trkpt lat="47.15685" lon="-1.44355">
        <ele>21.200000762939</ele>
        <time>2016-10-22T13:18:10Z</time>
      </trkpt>
      <trkpt lat="47.157" lon="-1.4435">
        <ele>21.799999237061</ele>
        <time>2016-10-22T13:18:15Z</time>
      </trkpt>
      <trkpt lat="47.15721" lon="-1.44343">
        <ele>22.60000038147</ele>
        <time>2016-10-22T13:18:21Z</time>
      </trkpt>
      <trkpt lat="47.15729" lon="-1.44332">
        <ele>23.200000762939</ele>
        <time>2016-10-22T13:18:25Z</time>
      </trkpt>
      <trkpt lat="47.15735" lon="-1.44311">
        <ele>24.39999961853</ele>
        <time>2016-10-22T13:18:31Z</time>
      </trkpt>
      <trkpt lat="47.15744" lon="-1.44295">
        <ele>25.799999237061</ele>
        <time>2016-10-22T13:18:36Z</time>
      </trkpt>
      <trkpt lat="47.15755" lon="-1.44284">
        <ele>26</ele>
        <time>2016-10-22T13:18:41Z</time>
      </trkpt>
      <trkpt lat="47.15779" lon="-1.44274">
        <ele>25.799999237061</ele>
        <time>2016-10-22T13:18:48Z</time>
      </trkpt>
      <trkpt lat="47.15783" lon="-1.44259">
        <ele>25.39999961853</ele>
        <time>2016-10-22T13:18:52Z</time>
      </trkpt>
      <trkpt lat="47.15781" lon="-1.44255">
        <ele>25.39999961853</ele>
        <time>2016-10-22T13:18:53Z</time>
      </trkpt>
      <trkpt lat="47.15767" lon="-1.4421">
        <ele>26.799999237061</ele>
        <time>2016-10-22T13:19:04Z</time>
      </trkpt>
      <trkpt lat="47.15757" lon="-1.44175">
        <ele>29</ele>
        <time>2016-10-22T13:19:13Z</time>
      </trkpt>
      <trkpt lat="47.15746" lon="-1.44134">
        <ele>30.39999961853</ele>
        <time>2016-10-22T13:19:23Z</time>
      </trkpt>
      <trkpt lat="47.15737" lon="-1.44106">
        <ele>32</ele>
        <time>2016-10-22T13:19:30Z</time>
      </trkpt>
      <trkpt lat="47.15725" lon="-1.44064">
        <ele>33.400001525879</ele>
        <time>2016-10-22T13:19:40Z</time>
      </trkpt>
      <trkpt lat="47.15714" lon="-1.44025">
        <ele>34.200000762939</ele>
        <time>2016-10-22T13:19:49Z</time>
      </trkpt>
      <trkpt lat="47.15713" lon="-1.44019">
        <ele>34</ele>
        <time>2016-10-22T13:19:50Z</time>
      </trkpt>
      <trkpt lat="47.15692" lon="-1.43984">
        <ele>33.599998474121</ele>
        <time>2016-10-22T13:19:57Z</time>
      </trkpt>
      <trkpt lat="47.15664" lon="-1.43945">
        <ele>31.200000762939</ele>
        <time>2016-10-22T13:20:03Z</time>
      </trkpt>
      <trkpt lat="47.15643" lon="-1.43907">
        <ele>29.200000762939</ele>
        <time>2016-10-22T13:20:07Z</time>
      </trkpt>
      <trkpt lat="47.15624" lon="-1.43865">
        <ele>25.799999237061</ele>
        <time>2016-10-22T13:20:11Z</time>
      </trkpt>
      <trkpt lat="47.15579" lon="-1.43793">
        <ele>16.200000762939</ele>
        <time>2016-10-22T13:20:18Z</time>
      </trkpt>
      <trkpt lat="47.15574" lon="-1.43786">
        <ele>14.60000038147</ele>
        <time>2016-10-22T13:20:19Z</time>
      </trkpt>
      <trkpt lat="47.15559" lon="-1.43778">
        <ele>9.1999998092651</ele>
        <time>2016-10-22T13:20:23Z</time>
      </trkpt>
      <trkpt lat="47.15555" lon="-1.43788">
        <ele>7.5999999046326</ele>
        <time>2016-10-22T13:20:25Z</time>
      </trkpt>
      <trkpt lat="47.1555" lon="-1.43813">
        <ele>6.4000000953674</ele>
        <time>2016-10-22T13:20:31Z</time>
      </trkpt>
      <trkpt lat="47.15543" lon="-1.43836">
        <ele>6.1999998092651</ele>
        <time>2016-10-22T13:20:36Z</time>
      </trkpt>
      <trkpt lat="47.15532" lon="-1.43854">
        <ele>6.4000000953674</ele>
        <time>2016-10-22T13:20:41Z</time>
      </trkpt>
      <trkpt lat="47.15518" lon="-1.43861">
        <ele>6.1999998092651</ele>
        <time>2016-10-22T13:20:45Z</time>
      </trkpt>
      <trkpt lat="47.15506" lon="-1.43871">
        <ele>6</ele>
        <time>2016-10-22T13:20:49Z</time>
      </trkpt>
      <trkpt lat="47.15488" lon="-1.43892">
        <ele>6.1999998092651</ele>
        <time>2016-10-22T13:20:55Z</time>
      </trkpt>
      <trkpt lat="47.15473" lon="-1.4391">
        <ele>7.4000000953674</ele>
        <time>2016-10-22T13:21:01Z</time>
      </trkpt>
      <trkpt lat="47.15454" lon="-1.43927">
        <ele>8.3999996185303</ele>
        <time>2016-10-22T13:21:07Z</time>
      </trkpt>
      <trkpt lat="47.15447" lon="-1.43933">
        <ele>8.1999998092651</ele>
        <time>2016-10-22T13:21:09Z</time>
      </trkpt>
      <trkpt lat="47.15435" lon="-1.43941">
        <ele>7.8000001907349</ele>
        <time>2016-10-22T13:21:12Z</time>
      </trkpt>
      <trkpt lat="47.15415" lon="-1.43959">
        <ele>6.8000001907349</ele>
        <time>2016-10-22T13:21:17Z</time>
      </trkpt>
      <trkpt lat="47.15396" lon="-1.43981">
        <ele>6</ele>
        <time>2016-10-22T13:21:23Z</time>
      </trkpt>
      <trkpt lat="47.15376" lon="-1.44007">
        <ele>5.5999999046326</ele>
        <time>2016-10-22T13:21:29Z</time>
      </trkpt>
      <trkpt lat="47.15379" lon="-1.44027">
        <ele>6.1999998092651</ele>
        <time>2016-10-22T13:21:34Z</time>
      </trkpt>
      <trkpt lat="47.15381" lon="-1.44038">
        <ele>7.1999998092651</ele>
        <time>2016-10-22T13:21:37Z</time>
      </trkpt>
      <trkpt lat="47.15387" lon="-1.44069">
        <ele>9.3999996185303</ele>
        <time>2016-10-22T13:21:44Z</time>
      </trkpt>
      <trkpt lat="47.15384" lon="-1.441">
        <ele>9.8000001907349</ele>
        <time>2016-10-22T13:21:50Z</time>
      </trkpt>
      <trkpt lat="47.15383" lon="-1.44105">
        <ele>9.6000003814697</ele>
        <time>2016-10-22T13:21:51Z</time>
      </trkpt>
      <trkpt lat="47.15376" lon="-1.44108">
        <ele>9.3999996185303</ele>
        <time>2016-10-22T13:21:55Z</time>
      </trkpt>
      <trkpt lat="47.15377" lon="-1.441">
        <ele>9.1999998092651</ele>
        <time>2016-10-22T13:21:57Z</time>
      </trkpt>
      <trkpt lat="47.15379" lon="-1.44064">
        <ele>9.1999998092651</ele>
        <time>2016-10-22T13:22:04Z</time>
      </trkpt>
      <trkpt lat="47.1537" lon="-1.44034">
        <ele>9.6000003814697</ele>
        <time>2016-10-22T13:22:10Z</time>
      </trkpt>
      <trkpt lat="47.15354" lon="-1.44011">
        <ele>10.39999961853</ele>
        <time>2016-10-22T13:22:16Z</time>
      </trkpt>
      <trkpt lat="47.15329" lon="-1.43975">
        <ele>11</ele>
        <time>2016-10-22T13:22:25Z</time>
      </trkpt>
      <trkpt lat="47.15308" lon="-1.43944">
        <ele>10.800000190735</ele>
        <time>2016-10-22T13:22:31Z</time>
      </trkpt>
      <trkpt lat="47.15296" lon="-1.43918">
        <ele>9.6000003814697</ele>
        <time>2016-10-22T13:22:35Z</time>
      </trkpt>
      <trkpt lat="47.15282" lon="-1.4389">
        <ele>8.8000001907349</ele>
        <time>2016-10-22T13:22:40Z</time>
      </trkpt>
      <trkpt lat="47.15286" lon="-1.43876">
        <ele>8.1999998092651</ele>
        <time>2016-10-22T13:22:44Z</time>
      </trkpt>
      <trkpt lat="47.15288" lon="-1.43872">
        <ele>8</ele>
        <time>2016-10-22T13:22:45Z</time>
      </trkpt>
      <trkpt lat="47.15299" lon="-1.43851">
        <ele>6.1999998092651</ele>
        <time>2016-10-22T13:22:50Z</time>
      </trkpt>
      <trkpt lat="47.15303" lon="-1.43842">
        <ele>5.8000001907349</ele>
        <time>2016-10-22T13:22:52Z</time>
      </trkpt>
      <trkpt lat="47.15308" lon="-1.43813">
        <ele>5.5999999046326</ele>
        <time>2016-10-22T13:22:57Z</time>
      </trkpt>
      <trkpt lat="47.15308" lon="-1.43773">
        <ele>5.4000000953674</ele>
        <time>2016-10-22T13:23:03Z</time>
      </trkpt>
      <trkpt lat="47.15306" lon="-1.4376">
        <ele>5.4000000953674</ele>
        <time>2016-10-22T13:23:05Z</time>
      </trkpt>
      <trkpt lat="47.15305" lon="-1.43734">
        <ele>5.4000000953674</ele>
        <time>2016-10-22T13:23:09Z</time>
      </trkpt>
      <trkpt lat="47.1531" lon="-1.43689">
        <ele>5.5999999046326</ele>
        <time>2016-10-22T13:23:16Z</time>
      </trkpt>
      <trkpt lat="47.15313" lon="-1.43658">
        <ele>5.5999999046326</ele>
        <time>2016-10-22T13:23:21Z</time>
      </trkpt>
      <trkpt lat="47.15312" lon="-1.43622">
        <ele>5.5999999046326</ele>
        <time>2016-10-22T13:23:27Z</time>
      </trkpt>
      <trkpt lat="47.15313" lon="-1.43591">
        <ele>5.5999999046326</ele>
        <time>2016-10-22T13:23:32Z</time>
      </trkpt>
      <trkpt lat="47.15311" lon="-1.43573">
        <ele>5.4000000953674</ele>
        <time>2016-10-22T13:23:35Z</time>
      </trkpt>
      <trkpt lat="47.15301" lon="-1.4352">
        <ele>5.8000001907349</ele>
        <time>2016-10-22T13:23:44Z</time>
      </trkpt>
      <trkpt lat="47.1529" lon="-1.43482">
        <ele>6.4000000953674</ele>
        <time>2016-10-22T13:23:51Z</time>
      </trkpt>
      <trkpt lat="47.15284" lon="-1.43449">
        <ele>6.5999999046326</ele>
        <time>2016-10-22T13:23:57Z</time>
      </trkpt>
      <trkpt lat="47.15279" lon="-1.43411">
        <ele>6.4000000953674</ele>
        <time>2016-10-22T13:24:03Z</time>
      </trkpt>
      <trkpt lat="47.1528" lon="-1.43362">
        <ele>7.1999998092651</ele>
        <time>2016-10-22T13:24:11Z</time>
      </trkpt>
      <trkpt lat="47.15283" lon="-1.43343">
        <ele>7.4000000953674</ele>
        <time>2016-10-22T13:24:14Z</time>
      </trkpt>
      <trkpt lat="47.15295" lon="-1.43292">
        <ele>7.5999999046326</ele>
        <time>2016-10-22T13:24:23Z</time>
      </trkpt>
      <trkpt lat="47.15302" lon="-1.43247">
        <ele>8.1999998092651</ele>
        <time>2016-10-22T13:24:31Z</time>
      </trkpt>
      <trkpt lat="47.153" lon="-1.43216">
        <ele>8.8000001907349</ele>
        <time>2016-10-22T13:24:36Z</time>
      </trkpt>
      <trkpt lat="47.15292" lon="-1.43185">
        <ele>10</ele>
        <time>2016-10-22T13:24:42Z</time>
      </trkpt>
      <trkpt lat="47.15282" lon="-1.4316">
        <ele>11.199999809265</ele>
        <time>2016-10-22T13:24:48Z</time>
      </trkpt>
      <trkpt lat="47.1527" lon="-1.43121">
        <ele>14.39999961853</ele>
        <time>2016-10-22T13:24:57Z</time>
      </trkpt>
      <trkpt lat="47.15262" lon="-1.43093">
        <ele>16.799999237061</ele>
        <time>2016-10-22T13:25:04Z</time>
      </trkpt>
      <trkpt lat="47.15255" lon="-1.43062">
        <ele>19.200000762939</ele>
        <time>2016-10-22T13:25:11Z</time>
      </trkpt>
      <trkpt lat="47.15243" lon="-1.43029">
        <ele>22</ele>
        <time>2016-10-22T13:25:19Z</time>
      </trkpt>
      <trkpt lat="47.15232" lon="-1.43008">
        <ele>23.60000038147</ele>
        <time>2016-10-22T13:25:25Z</time>
      </trkpt>
      <trkpt lat="47.15229" lon="-1.42999">
        <ele>24.200000762939</ele>
        <time>2016-10-22T13:25:28Z</time>
      </trkpt>
      <trkpt lat="47.15232" lon="-1.42989">
        <ele>24.799999237061</ele>
        <time>2016-10-22T13:25:32Z</time>
      </trkpt>
      <trkpt lat="47.15234" lon="-1.42987">
        <ele>25</ele>
        <time>2016-10-22T13:25:33Z</time>
      </trkpt>
      <trkpt lat="47.15251" lon="-1.42972">
        <ele>25</ele>
        <time>2016-10-22T13:25:40Z</time>
      </trkpt>
      <trkpt lat="47.15261" lon="-1.42959">
        <ele>24.39999961853</ele>
        <time>2016-10-22T13:25:43Z</time>
      </trkpt>
      <trkpt lat="47.15265" lon="-1.42937">
        <ele>23.799999237061</ele>
        <time>2016-10-22T13:25:47Z</time>
      </trkpt>
      <trkpt lat="47.15258" lon="-1.42882">
        <ele>23</ele>
        <time>2016-10-22T13:25:57Z</time>
      </trkpt>
      <trkpt lat="47.15255" lon="-1.42838">
        <ele>23.200000762939</ele>
        <time>2016-10-22T13:26:06Z</time>
      </trkpt>
      <trkpt lat="47.15249" lon="-1.42809">
        <ele>23.60000038147</ele>
        <time>2016-10-22T13:26:12Z</time>
      </trkpt>
      <trkpt lat="47.15241" lon="-1.42767">
        <ele>23.799999237061</ele>
        <time>2016-10-22T13:26:21Z</time>
      </trkpt>
      <trkpt lat="47.15235" lon="-1.42738">
        <ele>23</ele>
        <time>2016-10-22T13:26:27Z</time>
      </trkpt>
      <trkpt lat="47.15228" lon="-1.42735">
        <ele>22.39999961853</ele>
        <time>2016-10-22T13:26:31Z</time>
      </trkpt>
      <trkpt lat="47.15217" lon="-1.42742">
        <ele>23</ele>
        <time>2016-10-22T13:26:37Z</time>
      </trkpt>
      <trkpt lat="47.15215" lon="-1.42743">
        <ele>23.200000762939</ele>
        <time>2016-10-22T13:26:38Z</time>
      </trkpt>
      <trkpt lat="47.15202" lon="-1.42761">
        <ele>25.200000762939</ele>
        <time>2016-10-22T13:26:46Z</time>
      </trkpt>
      <trkpt lat="47.15186" lon="-1.4278">
        <ele>27.200000762939</ele>
        <time>2016-10-22T13:26:54Z</time>
      </trkpt>
      <trkpt lat="47.1517" lon="-1.42779">
        <ele>28.39999961853</ele>
        <time>2016-10-22T13:27:00Z</time>
      </trkpt>
      <trkpt lat="47.15162" lon="-1.4277">
        <ele>28.799999237061</ele>
        <time>2016-10-22T13:27:04Z</time>
      </trkpt>
      <trkpt lat="47.15145" lon="-1.42744">
        <ele>28.799999237061</ele>
        <time>2016-10-22T13:27:12Z</time>
      </trkpt>
      <trkpt lat="47.15123" lon="-1.42703">
        <ele>29.200000762939</ele>
        <time>2016-10-22T13:27:22Z</time>
      </trkpt>
      <trkpt lat="47.151" lon="-1.42665">
        <ele>29.39999961853</ele>
        <time>2016-10-22T13:27:31Z</time>
      </trkpt>
      <trkpt lat="47.1508" lon="-1.42631">
        <ele>29.799999237061</ele>
        <time>2016-10-22T13:27:39Z</time>
      </trkpt>
      <trkpt lat="47.15064" lon="-1.42603">
        <ele>30.799999237061</ele>
        <time>2016-10-22T13:27:46Z</time>
      </trkpt>
      <trkpt lat="47.15046" lon="-1.4256">
        <ele>31.39999961853</ele>
        <time>2016-10-22T13:27:55Z</time>
      </trkpt>
      <trkpt lat="47.15028" lon="-1.42524">
        <ele>32</ele>
        <time>2016-10-22T13:28:03Z</time>
      </trkpt>
      <trkpt lat="47.15006" lon="-1.42482">
        <ele>32.400001525879</ele>
        <time>2016-10-22T13:28:12Z</time>
      </trkpt>
      <trkpt lat="47.15003" lon="-1.42477">
        <ele>32.400001525879</ele>
        <time>2016-10-22T13:28:13Z</time>
      </trkpt>
      <trkpt lat="47.14987" lon="-1.42456">
        <ele>32.400001525879</ele>
        <time>2016-10-22T13:28:18Z</time>
      </trkpt>
      <trkpt lat="47.14961" lon="-1.4244">
        <ele>31.60000038147</ele>
        <time>2016-10-22T13:28:24Z</time>
      </trkpt>
      <trkpt lat="47.14957" lon="-1.42438">
        <ele>31.39999961853</ele>
        <time>2016-10-22T13:28:25Z</time>
      </trkpt>
      <trkpt lat="47.14912" lon="-1.42429">
        <ele>31.60000038147</ele>
        <time>2016-10-22T13:28:35Z</time>
      </trkpt>
      <trkpt lat="47.14873" lon="-1.42422">
        <ele>31.799999237061</ele>
        <time>2016-10-22T13:28:43Z</time>
      </trkpt>
      <trkpt lat="47.14846" lon="-1.42411">
        <ele>31.60000038147</ele>
        <time>2016-10-22T13:28:49Z</time>
      </trkpt>
      <trkpt lat="47.14833" lon="-1.42405">
        <ele>31.60000038147</ele>
        <time>2016-10-22T13:28:52Z</time>
      </trkpt>
      <trkpt lat="47.14821" lon="-1.42415">
        <ele>31.799999237061</ele>
        <time>2016-10-22T13:28:56Z</time>
      </trkpt>
      <trkpt lat="47.14812" lon="-1.42417">
        <ele>32.200000762939</ele>
        <time>2016-10-22T13:28:59Z</time>
      </trkpt>
      <trkpt lat="47.14809" lon="-1.42413">
        <ele>32.599998474121</ele>
        <time>2016-10-22T13:29:00Z</time>
      </trkpt>
      <trkpt lat="47.1479" lon="-1.42389">
        <ele>32.799999237061</ele>
        <time>2016-10-22T13:29:05Z</time>
      </trkpt>
      <trkpt lat="47.1477" lon="-1.42374">
        <ele>31</ele>
        <time>2016-10-22T13:29:09Z</time>
      </trkpt>
      <trkpt lat="47.14754" lon="-1.4237">
        <ele>30.200000762939</ele>
        <time>2016-10-22T13:29:12Z</time>
      </trkpt>
      <trkpt lat="47.14745" lon="-1.4236">
        <ele>29.39999961853</ele>
        <time>2016-10-22T13:29:14Z</time>
      </trkpt>
      <trkpt lat="47.14711" lon="-1.42316">
        <ele>26.200000762939</ele>
        <time>2016-10-22T13:29:20Z</time>
      </trkpt>
      <trkpt lat="47.1469" lon="-1.42292">
        <ele>24.200000762939</ele>
        <time>2016-10-22T13:29:23Z</time>
      </trkpt>
      <trkpt lat="47.14683" lon="-1.42286">
        <ele>23.200000762939</ele>
        <time>2016-10-22T13:29:24Z</time>
      </trkpt>
      <trkpt lat="47.14678" lon="-1.42269">
        <ele>20.39999961853</ele>
        <time>2016-10-22T13:29:27Z</time>
      </trkpt>
      <trkpt lat="47.14686" lon="-1.42258">
        <ele>19.60000038147</ele>
        <time>2016-10-22T13:29:29Z</time>
      </trkpt>
      <trkpt lat="47.1469" lon="-1.42238">
        <ele>16.799999237061</ele>
        <time>2016-10-22T13:29:32Z</time>
      </trkpt>
      <trkpt lat="47.14683" lon="-1.42228">
        <ele>15.800000190735</ele>
        <time>2016-10-22T13:29:34Z</time>
      </trkpt>
      <trkpt lat="47.14675" lon="-1.42209">
        <ele>14.60000038147</ele>
        <time>2016-10-22T13:29:37Z</time>
      </trkpt>
      <trkpt lat="47.14668" lon="-1.42197">
        <ele>14</ele>
        <time>2016-10-22T13:29:39Z</time>
      </trkpt>
      <trkpt lat="47.14653" lon="-1.42182">
        <ele>13.199999809265</ele>
        <time>2016-10-22T13:29:43Z</time>
      </trkpt>
      <trkpt lat="47.14648" lon="-1.42184">
        <ele>13.199999809265</ele>
        <time>2016-10-22T13:29:44Z</time>
      </trkpt>
      <trkpt lat="47.1462" lon="-1.422">
        <ele>14.39999961853</ele>
        <time>2016-10-22T13:29:52Z</time>
      </trkpt>
      <trkpt lat="47.14618" lon="-1.42203">
        <ele>14.800000190735</ele>
        <time>2016-10-22T13:29:53Z</time>
      </trkpt>
      <trkpt lat="47.14609" lon="-1.42197">
        <ele>16.39999961853</ele>
        <time>2016-10-22T13:29:58Z</time>
      </trkpt>
      <trkpt lat="47.14615" lon="-1.4219">
        <ele>16</ele>
        <time>2016-10-22T13:30:02Z</time>
      </trkpt>
      <trkpt lat="47.14627" lon="-1.42185">
        <ele>15.199999809265</ele>
        <time>2016-10-22T13:30:05Z</time>
      </trkpt>
      <trkpt lat="47.14628" lon="-1.42165">
        <ele>13.800000190735</ele>
        <time>2016-10-22T13:30:10Z</time>
      </trkpt>
      <trkpt lat="47.14628" lon="-1.42162">
        <ele>13.60000038147</ele>
        <time>2016-10-22T13:30:11Z</time>
      </trkpt>
      <trkpt lat="47.1462" lon="-1.4213">
        <ele>14.39999961853</ele>
        <time>2016-10-22T13:30:20Z</time>
      </trkpt>
      <trkpt lat="47.14613" lon="-1.42097">
        <ele>17.39999961853</ele>
        <time>2016-10-22T13:30:30Z</time>
      </trkpt>
      <trkpt lat="47.14605" lon="-1.42063">
        <ele>19.799999237061</ele>
        <time>2016-10-22T13:30:40Z</time>
      </trkpt>
      <trkpt lat="47.14599" lon="-1.42038">
        <ele>21.39999961853</ele>
        <time>2016-10-22T13:30:47Z</time>
      </trkpt>
      <trkpt lat="47.14588" lon="-1.41999">
        <ele>22.39999961853</ele>
        <time>2016-10-22T13:30:57Z</time>
      </trkpt>
      <trkpt lat="47.14574" lon="-1.41963">
        <ele>22.39999961853</ele>
        <time>2016-10-22T13:31:07Z</time>
      </trkpt>
      <trkpt lat="47.14568" lon="-1.4195">
        <ele>22.799999237061</ele>
        <time>2016-10-22T13:31:11Z</time>
      </trkpt>
      <trkpt lat="47.14553" lon="-1.41953">
        <ele>24</ele>
        <time>2016-10-22T13:31:17Z</time>
      </trkpt>
      <trkpt lat="47.1453" lon="-1.41962">
        <ele>26.799999237061</ele>
        <time>2016-10-22T13:31:27Z</time>
      </trkpt>
      <trkpt lat="47.14513" lon="-1.41969">
        <ele>29.60000038147</ele>
        <time>2016-10-22T13:31:35Z</time>
      </trkpt>
      <trkpt lat="47.14495" lon="-1.41975">
        <ele>32.200000762939</ele>
        <time>2016-10-22T13:31:43Z</time>
      </trkpt>
      <trkpt lat="47.1448" lon="-1.4198">
        <ele>33.799999237061</ele>
        <time>2016-10-22T13:31:50Z</time>
      </trkpt>
      <trkpt lat="47.14475" lon="-1.41967">
        <ele>34.599998474121</ele>
        <time>2016-10-22T13:31:55Z</time>
      </trkpt>
      <trkpt lat="47.14474" lon="-1.41936">
        <ele>35.400001525879</ele>
        <time>2016-10-22T13:32:03Z</time>
      </trkpt>
      <trkpt lat="47.14473" lon="-1.41891">
        <ele>36.599998474121</ele>
        <time>2016-10-22T13:32:14Z</time>
      </trkpt>
      <trkpt lat="47.14472" lon="-1.41862">
        <ele>36.599998474121</ele>
        <time>2016-10-22T13:32:21Z</time>
      </trkpt>
      <trkpt lat="47.14472" lon="-1.41829">
        <ele>37.599998474121</ele>
        <time>2016-10-22T13:32:30Z</time>
      </trkpt>
      <trkpt lat="47.14473" lon="-1.41793">
        <ele>39.799999237061</ele>
        <time>2016-10-22T13:32:40Z</time>
      </trkpt>
      <trkpt lat="47.14475" lon="-1.41761">
        <ele>41</ele>
        <time>2016-10-22T13:32:49Z</time>
      </trkpt>
      <trkpt lat="47.14477" lon="-1.4174">
        <ele>41.799999237061</ele>
        <time>2016-10-22T13:32:55Z</time>
      </trkpt>
      <trkpt lat="47.14478" lon="-1.4171">
        <ele>42.799999237061</ele>
        <time>2016-10-22T13:33:03Z</time>
      </trkpt>
      <trkpt lat="47.14478" lon="-1.41683">
        <ele>43.400001525879</ele>
        <time>2016-10-22T13:33:10Z</time>
      </trkpt>
      <trkpt lat="47.14473" lon="-1.41644">
        <ele>44</ele>
        <time>2016-10-22T13:33:19Z</time>
      </trkpt>
      <trkpt lat="47.14471" lon="-1.41606">
        <ele>44.400001525879</ele>
        <time>2016-10-22T13:33:27Z</time>
      </trkpt>
      <trkpt lat="47.14476" lon="-1.41564">
        <ele>44.200000762939</ele>
        <time>2016-10-22T13:33:36Z</time>
      </trkpt>
      <trkpt lat="47.14481" lon="-1.41526">
        <ele>44.599998474121</ele>
        <time>2016-10-22T13:33:44Z</time>
      </trkpt>
      <trkpt lat="47.14481" lon="-1.41506">
        <ele>44.599998474121</ele>
        <time>2016-10-22T13:33:49Z</time>
      </trkpt>
      <trkpt lat="47.14479" lon="-1.41504">
        <ele>44.599998474121</ele>
        <time>2016-10-22T13:33:52Z</time>
      </trkpt>
      <trkpt lat="47.14463" lon="-1.41509">
        <ele>45.599998474121</ele>
        <time>2016-10-22T13:37:29Z</time>
      </trkpt>
      <trkpt lat="47.14444" lon="-1.4151">
        <ele>45.799999237061</ele>
        <time>2016-10-22T13:37:36Z</time>
      </trkpt>
      <trkpt lat="47.1442" lon="-1.41513">
        <ele>46.400001525879</ele>
        <time>2016-10-22T13:37:44Z</time>
      </trkpt>
      <trkpt lat="47.14398" lon="-1.41517">
        <ele>47.200000762939</ele>
        <time>2016-10-22T13:37:53Z</time>
      </trkpt>
      <trkpt lat="47.14398" lon="-1.41517">
        <ele>47.400001525879</ele>
        <time>2016-10-22T13:37:54Z</time>
      </trkpt>
      <trkpt lat="47.14396" lon="-1.41542">
        <ele>47.400001525879</ele>
        <time>2016-10-22T13:38:01Z</time>
      </trkpt>
      <trkpt lat="47.14395" lon="-1.41594">
        <ele>48</ele>
        <time>2016-10-22T13:38:10Z</time>
      </trkpt>
      <trkpt lat="47.14381" lon="-1.41601">
        <ele>48</ele>
        <time>2016-10-22T13:38:14Z</time>
      </trkpt>
      <trkpt lat="47.14345" lon="-1.41607">
        <ele>48.400001525879</ele>
        <time>2016-10-22T13:38:22Z</time>
      </trkpt>
      <trkpt lat="47.14325" lon="-1.41613">
        <ele>47.799999237061</ele>
        <time>2016-10-22T13:38:26Z</time>
      </trkpt>
      <trkpt lat="47.14298" lon="-1.41633">
        <ele>47</ele>
        <time>2016-10-22T13:38:32Z</time>
      </trkpt>
      <trkpt lat="47.14272" lon="-1.41657">
        <ele>46.400001525879</ele>
        <time>2016-10-22T13:38:38Z</time>
      </trkpt>
      <trkpt lat="47.1425" lon="-1.41674">
        <ele>46</ele>
        <time>2016-10-22T13:38:44Z</time>
      </trkpt>
      <trkpt lat="47.14245" lon="-1.41678">
        <ele>45.799999237061</ele>
        <time>2016-10-22T13:38:47Z</time>
      </trkpt>
      <trkpt lat="47.14239" lon="-1.41679">
        <ele>45.599998474121</ele>
        <time>2016-10-22T13:38:51Z</time>
      </trkpt>
      <trkpt lat="47.14233" lon="-1.41682">
        <ele>45.200000762939</ele>
        <time>2016-10-22T13:38:53Z</time>
      </trkpt>
      <trkpt lat="47.14203" lon="-1.41702">
        <ele>43.799999237061</ele>
        <time>2016-10-22T13:38:59Z</time>
      </trkpt>
      <trkpt lat="47.14167" lon="-1.41733">
        <ele>42</ele>
        <time>2016-10-22T13:39:04Z</time>
      </trkpt>
      <trkpt lat="47.14132" lon="-1.41763">
        <ele>38.400001525879</ele>
        <time>2016-10-22T13:39:08Z</time>
      </trkpt>
      <trkpt lat="47.14079" lon="-1.41808">
        <ele>29.39999961853</ele>
        <time>2016-10-22T13:39:14Z</time>
      </trkpt>
      <trkpt lat="47.14048" lon="-1.41838">
        <ele>22.799999237061</ele>
        <time>2016-10-22T13:39:18Z</time>
      </trkpt>
      <trkpt lat="47.14006" lon="-1.41852">
        <ele>15.39999961853</ele>
        <time>2016-10-22T13:39:23Z</time>
      </trkpt>
      <trkpt lat="47.1399" lon="-1.41846">
        <ele>13.39999961853</ele>
        <time>2016-10-22T13:39:25Z</time>
      </trkpt>
      <trkpt lat="47.13968" lon="-1.41834">
        <ele>12</ele>
        <time>2016-10-22T13:39:28Z</time>
      </trkpt>
      <trkpt lat="47.13944" lon="-1.41818">
        <ele>10.800000190735</ele>
        <time>2016-10-22T13:39:32Z</time>
      </trkpt>
      <trkpt lat="47.13939" lon="-1.41813">
        <ele>10</ele>
        <time>2016-10-22T13:39:35Z</time>
      </trkpt>
      <trkpt lat="47.13927" lon="-1.41799">
        <ele>9.8000001907349</ele>
        <time>2016-10-22T13:39:40Z</time>
      </trkpt>
      <trkpt lat="47.13918" lon="-1.41802">
        <ele>10.199999809265</ele>
        <time>2016-10-22T13:39:45Z</time>
      </trkpt>
      <trkpt lat="47.13904" lon="-1.418">
        <ele>9.6000003814697</ele>
        <time>2016-10-22T13:39:50Z</time>
      </trkpt>
      <trkpt lat="47.13882" lon="-1.41793">
        <ele>9</ele>
        <time>2016-10-22T13:39:57Z</time>
      </trkpt>
      <trkpt lat="47.13874" lon="-1.41792">
        <ele>8.8000001907349</ele>
        <time>2016-10-22T13:39:59Z</time>
      </trkpt>
      <trkpt lat="47.13862" lon="-1.41788">
        <ele>8.8000001907349</ele>
        <time>2016-10-22T13:40:02Z</time>
      </trkpt>
      <trkpt lat="47.13846" lon="-1.4177">
        <ele>8.3999996185303</ele>
        <time>2016-10-22T13:40:07Z</time>
      </trkpt>
      <trkpt lat="47.13843" lon="-1.41767">
        <ele>8.3999996185303</ele>
        <time>2016-10-22T13:40:08Z</time>
      </trkpt>
      <trkpt lat="47.13819" lon="-1.41745">
        <ele>8.1999998092651</ele>
        <time>2016-10-22T13:40:15Z</time>
      </trkpt>
      <trkpt lat="47.13815" lon="-1.41742">
        <ele>8.1999998092651</ele>
        <time>2016-10-22T13:40:16Z</time>
      </trkpt>
      <trkpt lat="47.13808" lon="-1.41736">
        <ele>8.1999998092651</ele>
        <time>2016-10-22T13:40:18Z</time>
      </trkpt>
      <trkpt lat="47.13786" lon="-1.41716">
        <ele>8</ele>
        <time>2016-10-22T13:40:24Z</time>
      </trkpt>
      <trkpt lat="47.13774" lon="-1.41708">
        <ele>7.8000001907349</ele>
        <time>2016-10-22T13:40:27Z</time>
      </trkpt>
      <trkpt lat="47.13756" lon="-1.4169">
        <ele>7.4000000953674</ele>
        <time>2016-10-22T13:40:32Z</time>
      </trkpt>
      <trkpt lat="47.13742" lon="-1.41679">
        <ele>7.1999998092651</ele>
        <time>2016-10-22T13:40:36Z</time>
      </trkpt>
      <trkpt lat="47.13728" lon="-1.41664">
        <ele>7</ele>
        <time>2016-10-22T13:40:40Z</time>
      </trkpt>
      <trkpt lat="47.13718" lon="-1.41653">
        <ele>7</ele>
        <time>2016-10-22T13:40:43Z</time>
      </trkpt>
      <trkpt lat="47.13708" lon="-1.41641">
        <ele>7</ele>
        <time>2016-10-22T13:40:46Z</time>
      </trkpt>
      <trkpt lat="47.13698" lon="-1.41619">
        <ele>6.8000001907349</ele>
        <time>2016-10-22T13:40:50Z</time>
      </trkpt>
      <trkpt lat="47.13681" lon="-1.41593">
        <ele>6.8000001907349</ele>
        <time>2016-10-22T13:40:56Z</time>
      </trkpt>
      <trkpt lat="47.13673" lon="-1.41577">
        <ele>6.8000001907349</ele>
        <time>2016-10-22T13:40:59Z</time>
      </trkpt>
      <trkpt lat="47.13664" lon="-1.41562">
        <ele>6.8000001907349</ele>
        <time>2016-10-22T13:41:02Z</time>
      </trkpt>
      <trkpt lat="47.13639" lon="-1.41529">
        <ele>7.1999998092651</ele>
        <time>2016-10-22T13:41:09Z</time>
      </trkpt>
      <trkpt lat="47.13619" lon="-1.41516">
        <ele>7.4000000953674</ele>
        <time>2016-10-22T13:41:14Z</time>
      </trkpt>
      <trkpt lat="47.1359" lon="-1.41512">
        <ele>7.4000000953674</ele>
        <time>2016-10-22T13:41:20Z</time>
      </trkpt>
      <trkpt lat="47.13575" lon="-1.41509">
        <ele>7.1999998092651</ele>
        <time>2016-10-22T13:41:23Z</time>
      </trkpt>
      <trkpt lat="47.13567" lon="-1.41502">
        <ele>7</ele>
        <time>2016-10-22T13:41:25Z</time>
      </trkpt>
      <trkpt lat="47.13546" lon="-1.41482">
        <ele>7</ele>
        <time>2016-10-22T13:41:30Z</time>
      </trkpt>
      <trkpt lat="47.13516" lon="-1.41472">
        <ele>7</ele>
        <time>2016-10-22T13:41:36Z</time>
      </trkpt>
      <trkpt lat="47.13477" lon="-1.4146">
        <ele>7</ele>
        <time>2016-10-22T13:41:44Z</time>
      </trkpt>
      <trkpt lat="47.13468" lon="-1.41457">
        <ele>7</ele>
        <time>2016-10-22T13:41:46Z</time>
      </trkpt>
      <trkpt lat="47.13454" lon="-1.4145">
        <ele>7.1999998092651</ele>
        <time>2016-10-22T13:41:49Z</time>
      </trkpt>
      <trkpt lat="47.13436" lon="-1.41437">
        <ele>7</ele>
        <time>2016-10-22T13:41:53Z</time>
      </trkpt>
      <trkpt lat="47.13418" lon="-1.41425">
        <ele>6.8000001907349</ele>
        <time>2016-10-22T13:41:57Z</time>
      </trkpt>
      <trkpt lat="47.13395" lon="-1.41413">
        <ele>6.8000001907349</ele>
        <time>2016-10-22T13:42:02Z</time>
      </trkpt>
      <trkpt lat="47.13366" lon="-1.41384">
        <ele>7.1999998092651</ele>
        <time>2016-10-22T13:42:09Z</time>
      </trkpt>
      <trkpt lat="47.13362" lon="-1.4138">
        <ele>7.4000000953674</ele>
        <time>2016-10-22T13:42:10Z</time>
      </trkpt>
      <trkpt lat="47.13336" lon="-1.41359">
        <ele>7.5999999046326</ele>
        <time>2016-10-22T13:42:16Z</time>
      </trkpt>
      <trkpt lat="47.13312" lon="-1.4134">
        <ele>8</ele>
        <time>2016-10-22T13:42:22Z</time>
      </trkpt>
      <trkpt lat="47.13292" lon="-1.41326">
        <ele>8.8000001907349</ele>
        <time>2016-10-22T13:42:27Z</time>
      </trkpt>
      <trkpt lat="47.13277" lon="-1.41313">
        <ele>9.1999998092651</ele>
        <time>2016-10-22T13:42:31Z</time>
      </trkpt>
      <trkpt lat="47.1326" lon="-1.413">
        <ele>9.1999998092651</ele>
        <time>2016-10-22T13:42:35Z</time>
      </trkpt>
      <trkpt lat="47.1323" lon="-1.41292">
        <ele>7.8000001907349</ele>
        <time>2016-10-22T13:42:40Z</time>
      </trkpt>
      <trkpt lat="47.13216" lon="-1.41283">
        <ele>7</ele>
        <time>2016-10-22T13:42:43Z</time>
      </trkpt>
      <trkpt lat="47.13201" lon="-1.41279">
        <ele>6.8000001907349</ele>
        <time>2016-10-22T13:42:46Z</time>
      </trkpt>
      <trkpt lat="47.13173" lon="-1.41279">
        <ele>6.5999999046326</ele>
        <time>2016-10-22T13:42:51Z</time>
      </trkpt>
      <trkpt lat="47.13153" lon="-1.41279">
        <ele>6.4000000953674</ele>
        <time>2016-10-22T13:42:55Z</time>
      </trkpt>
      <trkpt lat="47.13117" lon="-1.41273">
        <ele>6.4000000953674</ele>
        <time>2016-10-22T13:43:03Z</time>
      </trkpt>
      <trkpt lat="47.13112" lon="-1.41272">
        <ele>6.5999999046326</ele>
        <time>2016-10-22T13:43:04Z</time>
      </trkpt>
      <trkpt lat="47.13071" lon="-1.4127">
        <ele>6.8000001907349</ele>
        <time>2016-10-22T13:43:13Z</time>
      </trkpt>
      <trkpt lat="47.13038" lon="-1.41264">
        <ele>6.8000001907349</ele>
        <time>2016-10-22T13:43:20Z</time>
      </trkpt>
      <trkpt lat="47.13029" lon="-1.41261">
        <ele>6.8000001907349</ele>
        <time>2016-10-22T13:43:22Z</time>
      </trkpt>
      <trkpt lat="47.13006" lon="-1.41253">
        <ele>6.5999999046326</ele>
        <time>2016-10-22T13:43:27Z</time>
      </trkpt>
      <trkpt lat="47.12984" lon="-1.41245">
        <ele>6.5999999046326</ele>
        <time>2016-10-22T13:43:32Z</time>
      </trkpt>
      <trkpt lat="47.12981" lon="-1.4124">
        <ele>6.5999999046326</ele>
        <time>2016-10-22T13:43:33Z</time>
      </trkpt>
      <trkpt lat="47.12967" lon="-1.41214">
        <ele>7</ele>
        <time>2016-10-22T13:43:38Z</time>
      </trkpt>
      <trkpt lat="47.12959" lon="-1.41181">
        <ele>7.1999998092651</ele>
        <time>2016-10-22T13:43:43Z</time>
      </trkpt>
      <trkpt lat="47.12948" lon="-1.41136">
        <ele>8.3999996185303</ele>
        <time>2016-10-22T13:43:51Z</time>
      </trkpt>
      <trkpt lat="47.12941" lon="-1.41111">
        <ele>9</ele>
        <time>2016-10-22T13:43:56Z</time>
      </trkpt>
      <trkpt lat="47.12931" lon="-1.41083">
        <ele>10.199999809265</ele>
        <time>2016-10-22T13:44:02Z</time>
      </trkpt>
      <trkpt lat="47.12924" lon="-1.41061">
        <ele>10.800000190735</ele>
        <time>2016-10-22T13:44:07Z</time>
      </trkpt>
      <trkpt lat="47.12919" lon="-1.41037">
        <ele>11.39999961853</ele>
        <time>2016-10-22T13:44:12Z</time>
      </trkpt>
      <trkpt lat="47.1291" lon="-1.41008">
        <ele>12.39999961853</ele>
        <time>2016-10-22T13:44:19Z</time>
      </trkpt>
      <trkpt lat="47.12898" lon="-1.40968">
        <ele>13.800000190735</ele>
        <time>2016-10-22T13:44:27Z</time>
      </trkpt>
      <trkpt lat="47.12895" lon="-1.40938">
        <ele>14.800000190735</ele>
        <time>2016-10-22T13:44:33Z</time>
      </trkpt>
      <trkpt lat="47.12901" lon="-1.40916">
        <ele>16</ele>
        <time>2016-10-22T13:44:39Z</time>
      </trkpt>
      <trkpt lat="47.1291" lon="-1.40896">
        <ele>17.60000038147</ele>
        <time>2016-10-22T13:44:45Z</time>
      </trkpt>
      <trkpt lat="47.12914" lon="-1.40882">
        <ele>18.60000038147</ele>
        <time>2016-10-22T13:44:49Z</time>
      </trkpt>
      <trkpt lat="47.12912" lon="-1.40871">
        <ele>19.60000038147</ele>
        <time>2016-10-22T13:44:53Z</time>
      </trkpt>
      <trkpt lat="47.129" lon="-1.40864">
        <ele>19.60000038147</ele>
        <time>2016-10-22T13:45:00Z</time>
      </trkpt>
      <trkpt lat="47.12894" lon="-1.40876">
        <ele>20.200000762939</ele>
        <time>2016-10-22T13:45:06Z</time>
      </trkpt>
      <trkpt lat="47.12885" lon="-1.40888">
        <ele>21</ele>
        <time>2016-10-22T13:45:12Z</time>
      </trkpt>
      <trkpt lat="47.12875" lon="-1.40893">
        <ele>22</ele>
        <time>2016-10-22T13:45:18Z</time>
      </trkpt>
      <trkpt lat="47.12874" lon="-1.40893">
        <ele>22.39999961853</ele>
        <time>2016-10-22T13:45:19Z</time>
      </trkpt>
      <trkpt lat="47.12872" lon="-1.40891">
        <ele>23</ele>
        <time>2016-10-22T13:45:21Z</time>
      </trkpt>
      <trkpt lat="47.12871" lon="-1.40887">
        <ele>23.60000038147</ele>
        <time>2016-10-22T13:45:24Z</time>
      </trkpt>
      <trkpt lat="47.1287" lon="-1.4088">
        <ele>25</ele>
        <time>2016-10-22T13:45:29Z</time>
      </trkpt>
      <trkpt lat="47.12869" lon="-1.40874">
        <ele>26</ele>
        <time>2016-10-22T13:45:33Z</time>
      </trkpt>
      <trkpt lat="47.12869" lon="-1.40869">
        <ele>26.60000038147</ele>
        <time>2016-10-22T13:45:36Z</time>
      </trkpt>
      <trkpt lat="47.12862" lon="-1.4086">
        <ele>28.799999237061</ele>
        <time>2016-10-22T13:45:43Z</time>
      </trkpt>
      <trkpt lat="47.12856" lon="-1.40861">
        <ele>30.799999237061</ele>
        <time>2016-10-22T13:45:50Z</time>
      </trkpt>
      <trkpt lat="47.12855" lon="-1.40863">
        <ele>31.200000762939</ele>
        <time>2016-10-22T13:45:52Z</time>
      </trkpt>
      <trkpt lat="47.12851" lon="-1.40867">
        <ele>32.200000762939</ele>
        <time>2016-10-22T13:45:56Z</time>
      </trkpt>
      <trkpt lat="47.1285" lon="-1.40875">
        <ele>33</ele>
        <time>2016-10-22T13:46:01Z</time>
      </trkpt>
      <trkpt lat="47.12846" lon="-1.40884">
        <ele>34.400001525879</ele>
        <time>2016-10-22T13:46:07Z</time>
      </trkpt>
      <trkpt lat="47.12839" lon="-1.40894">
        <ele>35.799999237061</ele>
        <time>2016-10-22T13:46:15Z</time>
      </trkpt>
      <trkpt lat="47.1283" lon="-1.40897">
        <ele>37.400001525879</ele>
        <time>2016-10-22T13:46:22Z</time>
      </trkpt>
      <trkpt lat="47.12816" lon="-1.409">
        <ele>40</ele>
        <time>2016-10-22T13:46:31Z</time>
      </trkpt>
      <trkpt lat="47.12804" lon="-1.40904">
        <ele>41.400001525879</ele>
        <time>2016-10-22T13:46:39Z</time>
      </trkpt>
      <trkpt lat="47.12793" lon="-1.4091">
        <ele>42.599998474121</ele>
        <time>2016-10-22T13:46:47Z</time>
      </trkpt>
      <trkpt lat="47.12781" lon="-1.40914">
        <ele>43.599998474121</ele>
        <time>2016-10-22T13:46:54Z</time>
      </trkpt>
      <trkpt lat="47.12767" lon="-1.40919">
        <ele>45.200000762939</ele>
        <time>2016-10-22T13:47:02Z</time>
      </trkpt>
      <trkpt lat="47.12751" lon="-1.40921">
        <ele>46.200000762939</ele>
        <time>2016-10-22T13:47:10Z</time>
      </trkpt>
      <trkpt lat="47.1273" lon="-1.40915">
        <ele>47.400001525879</ele>
        <time>2016-10-22T13:47:20Z</time>
      </trkpt>
      <trkpt lat="47.1271" lon="-1.4091">
        <ele>48.799999237061</ele>
        <time>2016-10-22T13:47:30Z</time>
      </trkpt>
      <trkpt lat="47.12688" lon="-1.40904">
        <ele>50.400001525879</ele>
        <time>2016-10-22T13:47:41Z</time>
      </trkpt>
      <trkpt lat="47.12669" lon="-1.409">
        <ele>51.799999237061</ele>
        <time>2016-10-22T13:47:50Z</time>
      </trkpt>
      <trkpt lat="47.12658" lon="-1.40897">
        <ele>52.200000762939</ele>
        <time>2016-10-22T13:47:56Z</time>
      </trkpt>
      <trkpt lat="47.12644" lon="-1.40908">
        <ele>52.799999237061</ele>
        <time>2016-10-22T13:48:03Z</time>
      </trkpt>
      <trkpt lat="47.12627" lon="-1.40922">
        <ele>53.200000762939</ele>
        <time>2016-10-22T13:48:11Z</time>
      </trkpt>
      <trkpt lat="47.12607" lon="-1.40953">
        <ele>53.200000762939</ele>
        <time>2016-10-22T13:48:21Z</time>
      </trkpt>
      <trkpt lat="47.12589" lon="-1.40984">
        <ele>53</ele>
        <time>2016-10-22T13:48:29Z</time>
      </trkpt>
      <trkpt lat="47.12579" lon="-1.41011">
        <ele>52.599998474121</ele>
        <time>2016-10-22T13:48:34Z</time>
      </trkpt>
      <trkpt lat="47.12572" lon="-1.4103">
        <ele>52.200000762939</ele>
        <time>2016-10-22T13:48:37Z</time>
      </trkpt>
      <trkpt lat="47.1256" lon="-1.41063">
        <ele>51.200000762939</ele>
        <time>2016-10-22T13:48:42Z</time>
      </trkpt>
      <trkpt lat="47.12526" lon="-1.41113">
        <ele>50</ele>
        <time>2016-10-22T13:48:51Z</time>
      </trkpt>
      <trkpt lat="47.12515" lon="-1.41128">
        <ele>49.599998474121</ele>
        <time>2016-10-22T13:48:54Z</time>
      </trkpt>
      <trkpt lat="47.12494" lon="-1.41176">
        <ele>48.599998474121</ele>
        <time>2016-10-22T13:49:01Z</time>
      </trkpt>
      <trkpt lat="47.12482" lon="-1.41191">
        <ele>47.799999237061</ele>
        <time>2016-10-22T13:49:05Z</time>
      </trkpt>
      <trkpt lat="47.12473" lon="-1.41204">
        <ele>47.400001525879</ele>
        <time>2016-10-22T13:49:09Z</time>
      </trkpt>
      <trkpt lat="47.12467" lon="-1.41211">
        <ele>47</ele>
        <time>2016-10-22T13:49:12Z</time>
      </trkpt>
      <trkpt lat="47.12453" lon="-1.41222">
        <ele>46.200000762939</ele>
        <time>2016-10-22T13:49:17Z</time>
      </trkpt>
      <trkpt lat="47.12433" lon="-1.41242">
        <ele>45.400001525879</ele>
        <time>2016-10-22T13:49:22Z</time>
      </trkpt>
      <trkpt lat="47.12422" lon="-1.41256">
        <ele>44.400001525879</ele>
        <time>2016-10-22T13:49:26Z</time>
      </trkpt>
      <trkpt lat="47.12431" lon="-1.41271">
        <ele>42.799999237061</ele>
        <time>2016-10-22T13:49:31Z</time>
      </trkpt>
      <trkpt lat="47.12438" lon="-1.41276">
        <ele>42</ele>
        <time>2016-10-22T13:49:33Z</time>
      </trkpt>
      <trkpt lat="47.12457" lon="-1.41287">
        <ele>38.799999237061</ele>
        <time>2016-10-22T13:49:39Z</time>
      </trkpt>
      <trkpt lat="47.12465" lon="-1.4129">
        <ele>36</ele>
        <time>2016-10-22T13:49:43Z</time>
      </trkpt>
      <trkpt lat="47.12479" lon="-1.41302">
        <ele>32.799999237061</ele>
        <time>2016-10-22T13:49:48Z</time>
      </trkpt>
      <trkpt lat="47.12482" lon="-1.41305">
        <ele>32</ele>
        <time>2016-10-22T13:49:49Z</time>
      </trkpt>
      <trkpt lat="47.12509" lon="-1.41327">
        <ele>27</ele>
        <time>2016-10-22T13:49:55Z</time>
      </trkpt>
      <trkpt lat="47.12519" lon="-1.41337">
        <ele>24.799999237061</ele>
        <time>2016-10-22T13:49:57Z</time>
      </trkpt>
      <trkpt lat="47.12542" lon="-1.41349">
        <ele>20</ele>
        <time>2016-10-22T13:50:02Z</time>
      </trkpt>
      <trkpt lat="47.1255" lon="-1.41365">
        <ele>17.60000038147</ele>
        <time>2016-10-22T13:50:05Z</time>
      </trkpt>
      <trkpt lat="47.1255" lon="-1.41376">
        <ele>15.800000190735</ele>
        <time>2016-10-22T13:50:10Z</time>
      </trkpt>
      <trkpt lat="47.12543" lon="-1.41396">
        <ele>14.800000190735</ele>
        <time>2016-10-22T13:50:15Z</time>
      </trkpt>
      <trkpt lat="47.12519" lon="-1.41433">
        <ele>13</ele>
        <time>2016-10-22T13:50:22Z</time>
      </trkpt>
      <trkpt lat="47.12504" lon="-1.41449">
        <ele>11.39999961853</ele>
        <time>2016-10-22T13:50:26Z</time>
      </trkpt>
      <trkpt lat="47.125" lon="-1.41457">
        <ele>10</ele>
        <time>2016-10-22T13:50:31Z</time>
      </trkpt>
      <trkpt lat="47.12496" lon="-1.41466">
        <ele>9.6000003814697</ele>
        <time>2016-10-22T13:50:34Z</time>
      </trkpt>
      <trkpt lat="47.12481" lon="-1.41501">
        <ele>9.1999998092651</ele>
        <time>2016-10-22T13:50:42Z</time>
      </trkpt>
      <trkpt lat="47.12462" lon="-1.41544">
        <ele>8.8000001907349</ele>
        <time>2016-10-22T13:50:51Z</time>
      </trkpt>
      <trkpt lat="47.12446" lon="-1.41583">
        <ele>8.8000001907349</ele>
        <time>2016-10-22T13:50:59Z</time>
      </trkpt>
      <trkpt lat="47.1244" lon="-1.41596">
        <ele>8.8000001907349</ele>
        <time>2016-10-22T13:51:02Z</time>
      </trkpt>
      <trkpt lat="47.12443" lon="-1.41606">
        <ele>8.6000003814697</ele>
        <time>2016-10-22T13:51:06Z</time>
      </trkpt>
      <trkpt lat="47.12446" lon="-1.41609">
        <ele>8.3999996185303</ele>
        <time>2016-10-22T13:51:10Z</time>
      </trkpt>
      <trkpt lat="47.12439" lon="-1.41618">
        <ele>10.199999809265</ele>
        <time>2016-10-22T13:54:00Z</time>
      </trkpt>
      <trkpt lat="47.12429" lon="-1.41617">
        <ele>10.199999809265</ele>
        <time>2016-10-22T13:54:05Z</time>
      </trkpt>
      <trkpt lat="47.12403" lon="-1.41627">
        <ele>10.39999961853</ele>
        <time>2016-10-22T13:54:13Z</time>
      </trkpt>
      <trkpt lat="47.12391" lon="-1.41629">
        <ele>10.60000038147</ele>
        <time>2016-10-22T13:54:17Z</time>
      </trkpt>
      <trkpt lat="47.12389" lon="-1.41629">
        <ele>10.800000190735</ele>
        <time>2016-10-22T13:54:20Z</time>
      </trkpt>
      <trkpt lat="47.12394" lon="-1.41638">
        <ele>10.800000190735</ele>
        <time>2016-10-22T13:54:35Z</time>
      </trkpt>
      <trkpt lat="47.12399" lon="-1.41649">
        <ele>10.39999961853</ele>
        <time>2016-10-22T13:54:42Z</time>
      </trkpt>
      <trkpt lat="47.12401" lon="-1.4165">
        <ele>10.39999961853</ele>
        <time>2016-10-22T13:54:45Z</time>
      </trkpt>
      <trkpt lat="47.12392" lon="-1.41674">
        <ele>10.39999961853</ele>
        <time>2016-10-22T13:54:57Z</time>
      </trkpt>
      <trkpt lat="47.12381" lon="-1.41695">
        <ele>10.60000038147</ele>
        <time>2016-10-22T13:55:04Z</time>
      </trkpt>
      <trkpt lat="47.12381" lon="-1.41718">
        <ele>10.60000038147</ele>
        <time>2016-10-22T13:55:10Z</time>
      </trkpt>
      <trkpt lat="47.12379" lon="-1.41747">
        <ele>10.60000038147</ele>
        <time>2016-10-22T13:55:18Z</time>
      </trkpt>
      <trkpt lat="47.12368" lon="-1.4177">
        <ele>10.800000190735</ele>
        <time>2016-10-22T13:55:25Z</time>
      </trkpt>
      <trkpt lat="47.1236" lon="-1.41793">
        <ele>10.800000190735</ele>
        <time>2016-10-22T13:55:31Z</time>
      </trkpt>
      <trkpt lat="47.12348" lon="-1.41809">
        <ele>10.800000190735</ele>
        <time>2016-10-22T13:55:37Z</time>
      </trkpt>
      <trkpt lat="47.1234" lon="-1.41816">
        <ele>11</ele>
        <time>2016-10-22T13:55:42Z</time>
      </trkpt>
      <trkpt lat="47.12324" lon="-1.41829">
        <ele>11</ele>
        <time>2016-10-22T13:55:47Z</time>
      </trkpt>
      <trkpt lat="47.12321" lon="-1.41831">
        <ele>11</ele>
        <time>2016-10-22T13:55:48Z</time>
      </trkpt>
      <trkpt lat="47.12294" lon="-1.41849">
        <ele>10.39999961853</ele>
        <time>2016-10-22T13:55:55Z</time>
      </trkpt>
      <trkpt lat="47.12274" lon="-1.41853">
        <ele>10</ele>
        <time>2016-10-22T13:56:00Z</time>
      </trkpt>
      <trkpt lat="47.12257" lon="-1.41857">
        <ele>10.199999809265</ele>
        <time>2016-10-22T13:56:04Z</time>
      </trkpt>
      <trkpt lat="47.12236" lon="-1.41855">
        <ele>10</ele>
        <time>2016-10-22T13:56:09Z</time>
      </trkpt>
      <trkpt lat="47.12223" lon="-1.41851">
        <ele>10</ele>
        <time>2016-10-22T13:56:12Z</time>
      </trkpt>
      <trkpt lat="47.12196" lon="-1.41835">
        <ele>10</ele>
        <time>2016-10-22T13:56:19Z</time>
      </trkpt>
      <trkpt lat="47.12181" lon="-1.41827">
        <ele>10</ele>
        <time>2016-10-22T13:56:23Z</time>
      </trkpt>
      <trkpt lat="47.12166" lon="-1.41804">
        <ele>10.39999961853</ele>
        <time>2016-10-22T13:56:28Z</time>
      </trkpt>
      <trkpt lat="47.12159" lon="-1.41784">
        <ele>10.800000190735</ele>
        <time>2016-10-22T13:56:32Z</time>
      </trkpt>
      <trkpt lat="47.12148" lon="-1.41773">
        <ele>11.39999961853</ele>
        <time>2016-10-22T13:56:36Z</time>
      </trkpt>
      <trkpt lat="47.12134" lon="-1.41765">
        <ele>11.800000190735</ele>
        <time>2016-10-22T13:56:40Z</time>
      </trkpt>
      <trkpt lat="47.12123" lon="-1.41757">
        <ele>12.199999809265</ele>
        <time>2016-10-22T13:56:44Z</time>
      </trkpt>
      <trkpt lat="47.12118" lon="-1.41753">
        <ele>12.39999961853</ele>
        <time>2016-10-22T13:56:46Z</time>
      </trkpt>
      <trkpt lat="47.12106" lon="-1.41758">
        <ele>12.39999961853</ele>
        <time>2016-10-22T13:56:51Z</time>
      </trkpt>
      <trkpt lat="47.12098" lon="-1.41757">
        <ele>11</ele>
        <time>2016-10-22T13:56:55Z</time>
      </trkpt>
      <trkpt lat="47.12091" lon="-1.41751">
        <ele>10</ele>
        <time>2016-10-22T13:57:00Z</time>
      </trkpt>
      <trkpt lat="47.12091" lon="-1.41751">
        <ele>10</ele>
        <time>2016-10-22T13:57:02Z</time>
      </trkpt>
      <trkpt lat="47.12079" lon="-1.4175">
        <ele>9.8000001907349</ele>
        <time>2016-10-22T13:57:16Z</time>
      </trkpt>
      <trkpt lat="47.12073" lon="-1.41747">
        <ele>9.6000003814697</ele>
        <time>2016-10-22T13:57:21Z</time>
      </trkpt>
      <trkpt lat="47.12073" lon="-1.41737">
        <ele>10.199999809265</ele>
        <time>2016-10-22T13:57:28Z</time>
      </trkpt>
      <trkpt lat="47.12071" lon="-1.41735">
        <ele>11</ele>
        <time>2016-10-22T13:57:33Z</time>
      </trkpt>
      <trkpt lat="47.12071" lon="-1.4173">
        <ele>11.39999961853</ele>
        <time>2016-10-22T13:57:38Z</time>
      </trkpt>
      <trkpt lat="47.12068" lon="-1.41726">
        <ele>11.39999961853</ele>
        <time>2016-10-22T13:57:43Z</time>
      </trkpt>
      <trkpt lat="47.1206" lon="-1.41724">
        <ele>10.800000190735</ele>
        <time>2016-10-22T13:57:51Z</time>
      </trkpt>
      <trkpt lat="47.12054" lon="-1.41713">
        <ele>10.199999809265</ele>
        <time>2016-10-22T13:57:57Z</time>
      </trkpt>
      <trkpt lat="47.12052" lon="-1.41713">
        <ele>10.199999809265</ele>
        <time>2016-10-22T13:57:58Z</time>
      </trkpt>
      <trkpt lat="47.12036" lon="-1.41711">
        <ele>10.199999809265</ele>
        <time>2016-10-22T13:58:05Z</time>
      </trkpt>
      <trkpt lat="47.12022" lon="-1.4171">
        <ele>10.39999961853</ele>
        <time>2016-10-22T13:58:10Z</time>
      </trkpt>
      <trkpt lat="47.12007" lon="-1.4171">
        <ele>10.199999809265</ele>
        <time>2016-10-22T13:58:15Z</time>
      </trkpt>
      <trkpt lat="47.11988" lon="-1.41713">
        <ele>10</ele>
        <time>2016-10-22T13:58:20Z</time>
      </trkpt>
      <trkpt lat="47.11967" lon="-1.41714">
        <ele>9.8000001907349</ele>
        <time>2016-10-22T13:58:25Z</time>
      </trkpt>
      <trkpt lat="47.11944" lon="-1.41714">
        <ele>9.8000001907349</ele>
        <time>2016-10-22T13:58:31Z</time>
      </trkpt>
      <trkpt lat="47.1192" lon="-1.41715">
        <ele>10</ele>
        <time>2016-10-22T13:58:37Z</time>
      </trkpt>
      <trkpt lat="47.11896" lon="-1.41714">
        <ele>10.199999809265</ele>
        <time>2016-10-22T13:58:43Z</time>
      </trkpt>
      <trkpt lat="47.11886" lon="-1.41705">
        <ele>10.199999809265</ele>
        <time>2016-10-22T13:58:46Z</time>
      </trkpt>
      <trkpt lat="47.11854" lon="-1.41701">
        <ele>9.8000001907349</ele>
        <time>2016-10-22T13:58:53Z</time>
      </trkpt>
      <trkpt lat="47.11841" lon="-1.41706">
        <ele>9.8000001907349</ele>
        <time>2016-10-22T13:58:57Z</time>
      </trkpt>
      <trkpt lat="47.11826" lon="-1.41698">
        <ele>10</ele>
        <time>2016-10-22T13:59:02Z</time>
      </trkpt>
      <trkpt lat="47.1181" lon="-1.41685">
        <ele>10</ele>
        <time>2016-10-22T13:59:07Z</time>
      </trkpt>
      <trkpt lat="47.11788" lon="-1.41681">
        <ele>9.8000001907349</ele>
        <time>2016-10-22T13:59:12Z</time>
      </trkpt>
      <trkpt lat="47.11759" lon="-1.41676">
        <ele>9.6000003814697</ele>
        <time>2016-10-22T13:59:19Z</time>
      </trkpt>
      <trkpt lat="47.11752" lon="-1.41676">
        <ele>9.6000003814697</ele>
        <time>2016-10-22T13:59:21Z</time>
      </trkpt>
      <trkpt lat="47.11745" lon="-1.41682">
        <ele>9.6000003814697</ele>
        <time>2016-10-22T13:59:23Z</time>
      </trkpt>
      <trkpt lat="47.11729" lon="-1.41684">
        <ele>9.6000003814697</ele>
        <time>2016-10-22T13:59:27Z</time>
      </trkpt>
      <trkpt lat="47.11715" lon="-1.41678">
        <ele>9.8000001907349</ele>
        <time>2016-10-22T13:59:31Z</time>
      </trkpt>
      <trkpt lat="47.11709" lon="-1.4167">
        <ele>9.6000003814697</ele>
        <time>2016-10-22T13:59:35Z</time>
      </trkpt>
      <trkpt lat="47.11706" lon="-1.41668">
        <ele>9.6000003814697</ele>
        <time>2016-10-22T13:59:37Z</time>
      </trkpt>
      <trkpt lat="47.11697" lon="-1.41672">
        <ele>9.3999996185303</ele>
        <time>2016-10-22T13:59:40Z</time>
      </trkpt>
      <trkpt lat="47.11681" lon="-1.41671">
        <ele>9.3999996185303</ele>
        <time>2016-10-22T13:59:44Z</time>
      </trkpt>
      <trkpt lat="47.11672" lon="-1.41665">
        <ele>9.1999998092651</ele>
        <time>2016-10-22T13:59:46Z</time>
      </trkpt>
      <trkpt lat="47.11657" lon="-1.41653">
        <ele>9.1999998092651</ele>
        <time>2016-10-22T13:59:50Z</time>
      </trkpt>
      <trkpt lat="47.11648" lon="-1.41646">
        <ele>9</ele>
        <time>2016-10-22T13:59:52Z</time>
      </trkpt>
      <trkpt lat="47.11625" lon="-1.4162">
        <ele>9.1999998092651</ele>
        <time>2016-10-22T13:59:58Z</time>
      </trkpt>
      <trkpt lat="47.11619" lon="-1.41609">
        <ele>9.3999996185303</ele>
        <time>2016-10-22T14:00:00Z</time>
      </trkpt>
      <trkpt lat="47.11606" lon="-1.41592">
        <ele>9.3999996185303</ele>
        <time>2016-10-22T14:00:04Z</time>
      </trkpt>
      <trkpt lat="47.11586" lon="-1.4157">
        <ele>9.3999996185303</ele>
        <time>2016-10-22T14:00:10Z</time>
      </trkpt>
      <trkpt lat="47.11583" lon="-1.41566">
        <ele>9.3999996185303</ele>
        <time>2016-10-22T14:00:11Z</time>
      </trkpt>
      <trkpt lat="47.11571" lon="-1.41549">
        <ele>9.3999996185303</ele>
        <time>2016-10-22T14:00:15Z</time>
      </trkpt>
      <trkpt lat="47.11554" lon="-1.41526">
        <ele>9.3999996185303</ele>
        <time>2016-10-22T14:00:21Z</time>
      </trkpt>
      <trkpt lat="47.1155" lon="-1.41523">
        <ele>9.3999996185303</ele>
        <time>2016-10-22T14:00:22Z</time>
      </trkpt>
      <trkpt lat="47.11534" lon="-1.41502">
        <ele>9.3999996185303</ele>
        <time>2016-10-22T14:00:27Z</time>
      </trkpt>
      <trkpt lat="47.11528" lon="-1.41493">
        <ele>9.3999996185303</ele>
        <time>2016-10-22T14:00:29Z</time>
      </trkpt>
      <trkpt lat="47.11503" lon="-1.41461">
        <ele>9.1999998092651</ele>
        <time>2016-10-22T14:00:37Z</time>
      </trkpt>
      <trkpt lat="47.11486" lon="-1.41433">
        <ele>9.3999996185303</ele>
        <time>2016-10-22T14:00:43Z</time>
      </trkpt>
      <trkpt lat="47.11482" lon="-1.41418">
        <ele>9.6000003814697</ele>
        <time>2016-10-22T14:00:47Z</time>
      </trkpt>
      <trkpt lat="47.11479" lon="-1.41409">
        <ele>10.199999809265</ele>
        <time>2016-10-22T14:00:51Z</time>
      </trkpt>
      <trkpt lat="47.11474" lon="-1.41401">
        <ele>11.60000038147</ele>
        <time>2016-10-22T14:00:56Z</time>
      </trkpt>
      <trkpt lat="47.11469" lon="-1.41389">
        <ele>13</ele>
        <time>2016-10-22T14:01:02Z</time>
      </trkpt>
      <trkpt lat="47.11458" lon="-1.41375">
        <ele>16</ele>
        <time>2016-10-22T14:01:12Z</time>
      </trkpt>
      <trkpt lat="47.1145" lon="-1.41368">
        <ele>18.200000762939</ele>
        <time>2016-10-22T14:01:18Z</time>
      </trkpt>
      <trkpt lat="47.11449" lon="-1.41366">
        <ele>18.60000038147</ele>
        <time>2016-10-22T14:01:19Z</time>
      </trkpt>
      <trkpt lat="47.1144" lon="-1.41353">
        <ele>20</ele>
        <time>2016-10-22T14:01:26Z</time>
      </trkpt>
      <trkpt lat="47.11439" lon="-1.41349">
        <ele>20.60000038147</ele>
        <time>2016-10-22T14:01:28Z</time>
      </trkpt>
      <trkpt lat="47.11431" lon="-1.41332">
        <ele>23</ele>
        <time>2016-10-22T14:01:37Z</time>
      </trkpt>
      <trkpt lat="47.1143" lon="-1.41325">
        <ele>24.200000762939</ele>
        <time>2016-10-22T14:01:41Z</time>
      </trkpt>
      <trkpt lat="47.1143" lon="-1.41314">
        <ele>26</ele>
        <time>2016-10-22T14:01:47Z</time>
      </trkpt>
      <trkpt lat="47.11427" lon="-1.41306">
        <ele>27</ele>
        <time>2016-10-22T14:01:53Z</time>
      </trkpt>
      <trkpt lat="47.11423" lon="-1.41296">
        <ele>28.60000038147</ele>
        <time>2016-10-22T14:02:00Z</time>
      </trkpt>
      <trkpt lat="47.11417" lon="-1.41284">
        <ele>30.39999961853</ele>
        <time>2016-10-22T14:02:08Z</time>
      </trkpt>
      <trkpt lat="47.11411" lon="-1.41269">
        <ele>32.200000762939</ele>
        <time>2016-10-22T14:02:17Z</time>
      </trkpt>
      <trkpt lat="47.1141" lon="-1.41267">
        <ele>32.400001525879</ele>
        <time>2016-10-22T14:02:18Z</time>
      </trkpt>
      <trkpt lat="47.11407" lon="-1.41258">
        <ele>33.400001525879</ele>
        <time>2016-10-22T14:02:23Z</time>
      </trkpt>
      <trkpt lat="47.11399" lon="-1.41245">
        <ele>35</ele>
        <time>2016-10-22T14:02:32Z</time>
      </trkpt>
      <trkpt lat="47.11397" lon="-1.41239">
        <ele>35.799999237061</ele>
        <time>2016-10-22T14:02:35Z</time>
      </trkpt>
      <trkpt lat="47.11396" lon="-1.41231">
        <ele>36.799999237061</ele>
        <time>2016-10-22T14:02:39Z</time>
      </trkpt>
      <trkpt lat="47.11392" lon="-1.41212">
        <ele>38.200000762939</ele>
        <time>2016-10-22T14:02:47Z</time>
      </trkpt>
      <trkpt lat="47.11386" lon="-1.4119">
        <ele>38.200000762939</ele>
        <time>2016-10-22T14:02:56Z</time>
      </trkpt>
      <trkpt lat="47.11385" lon="-1.41188">
        <ele>38.200000762939</ele>
        <time>2016-10-22T14:02:57Z</time>
      </trkpt>
      <trkpt lat="47.11391" lon="-1.41178">
        <ele>38.400001525879</ele>
        <time>2016-10-22T14:03:02Z</time>
      </trkpt>
      <trkpt lat="47.11404" lon="-1.41169">
        <ele>40.200000762939</ele>
        <time>2016-10-22T14:03:11Z</time>
      </trkpt>
      <trkpt lat="47.11416" lon="-1.4116">
        <ele>41.799999237061</ele>
        <time>2016-10-22T14:03:19Z</time>
      </trkpt>
      <trkpt lat="47.11429" lon="-1.41151">
        <ele>43.400001525879</ele>
        <time>2016-10-22T14:03:28Z</time>
      </trkpt>
      <trkpt lat="47.11447" lon="-1.41139">
        <ele>45.400001525879</ele>
        <time>2016-10-22T14:03:40Z</time>
      </trkpt>
      <trkpt lat="47.11459" lon="-1.41129">
        <ele>46.599998474121</ele>
        <time>2016-10-22T14:03:48Z</time>
      </trkpt>
      <trkpt lat="47.11469" lon="-1.41122">
        <ele>48.200000762939</ele>
        <time>2016-10-22T14:03:55Z</time>
      </trkpt>
      <trkpt lat="47.11469" lon="-1.41108">
        <ele>48.799999237061</ele>
        <time>2016-10-22T14:04:00Z</time>
      </trkpt>
      <trkpt lat="47.11465" lon="-1.41088">
        <ele>49</ele>
        <time>2016-10-22T14:04:06Z</time>
      </trkpt>
      <trkpt lat="47.11459" lon="-1.4106">
        <ele>49.599998474121</ele>
        <time>2016-10-22T14:04:14Z</time>
      </trkpt>
      <trkpt lat="47.11457" lon="-1.41048">
        <ele>50</ele>
        <time>2016-10-22T14:04:20Z</time>
      </trkpt>
      <trkpt lat="47.11459" lon="-1.41046">
        <ele>51.400001525879</ele>
        <time>2016-10-22T14:06:48Z</time>
      </trkpt>
      <trkpt lat="47.11459" lon="-1.41046">
        <ele>51.400001525879</ele>
        <time>2016-10-22T14:06:49Z</time>
      </trkpt>
      <trkpt lat="47.11456" lon="-1.41031">
        <ele>50.799999237061</ele>
        <time>2016-10-22T14:07:53Z</time>
      </trkpt>
      <trkpt lat="47.11452" lon="-1.41005">
        <ele>50.799999237061</ele>
        <time>2016-10-22T14:08:00Z</time>
      </trkpt>
      <trkpt lat="47.11444" lon="-1.40963">
        <ele>51.200000762939</ele>
        <time>2016-10-22T14:08:09Z</time>
      </trkpt>
      <trkpt lat="47.11438" lon="-1.40927">
        <ele>51</ele>
        <time>2016-10-22T14:08:16Z</time>
      </trkpt>
      <trkpt lat="47.1143" lon="-1.40876">
        <ele>50.799999237061</ele>
        <time>2016-10-22T14:08:26Z</time>
      </trkpt>
      <trkpt lat="47.11428" lon="-1.40859">
        <ele>50.799999237061</ele>
        <time>2016-10-22T14:08:29Z</time>
      </trkpt>
      <trkpt lat="47.11432" lon="-1.40839">
        <ele>50</ele>
        <time>2016-10-22T14:08:33Z</time>
      </trkpt>
      <trkpt lat="47.11435" lon="-1.40838">
        <ele>49.799999237061</ele>
        <time>2016-10-22T14:08:34Z</time>
      </trkpt>
      <trkpt lat="47.11471" lon="-1.40826">
        <ele>48</ele>
        <time>2016-10-22T14:08:42Z</time>
      </trkpt>
      <trkpt lat="47.11512" lon="-1.40812">
        <ele>48.599998474121</ele>
        <time>2016-10-22T14:08:52Z</time>
      </trkpt>
      <trkpt lat="47.11536" lon="-1.40801">
        <ele>50.400001525879</ele>
        <time>2016-10-22T14:08:59Z</time>
      </trkpt>
      <trkpt lat="47.11565" lon="-1.40792">
        <ele>51.200000762939</ele>
        <time>2016-10-22T14:09:08Z</time>
      </trkpt>
      <trkpt lat="47.11592" lon="-1.40781">
        <ele>52.400001525879</ele>
        <time>2016-10-22T14:09:16Z</time>
      </trkpt>
      <trkpt lat="47.11594" lon="-1.40765">
        <ele>52.799999237061</ele>
        <time>2016-10-22T14:09:20Z</time>
      </trkpt>
      <trkpt lat="47.1159" lon="-1.40739">
        <ele>52.400001525879</ele>
        <time>2016-10-22T14:09:25Z</time>
      </trkpt>
      <trkpt lat="47.11599" lon="-1.40724">
        <ele>52.400001525879</ele>
        <time>2016-10-22T14:09:29Z</time>
      </trkpt>
      <trkpt lat="47.11602" lon="-1.40722">
        <ele>52.400001525879</ele>
        <time>2016-10-22T14:09:30Z</time>
      </trkpt>
      <trkpt lat="47.11632" lon="-1.40701">
        <ele>53.200000762939</ele>
        <time>2016-10-22T14:09:39Z</time>
      </trkpt>
      <trkpt lat="47.11666" lon="-1.40677">
        <ele>53.599998474121</ele>
        <time>2016-10-22T14:09:49Z</time>
      </trkpt>
      <trkpt lat="47.11679" lon="-1.40658">
        <ele>53.799999237061</ele>
        <time>2016-10-22T14:09:54Z</time>
      </trkpt>
      <trkpt lat="47.11682" lon="-1.40631">
        <ele>53.799999237061</ele>
        <time>2016-10-22T14:09:59Z</time>
      </trkpt>
      <trkpt lat="47.11677" lon="-1.40581">
        <ele>54.400001525879</ele>
        <time>2016-10-22T14:10:08Z</time>
      </trkpt>
      <trkpt lat="47.11674" lon="-1.40536">
        <ele>55</ele>
        <time>2016-10-22T14:10:16Z</time>
      </trkpt>
      <trkpt lat="47.11671" lon="-1.40504">
        <ele>55.599998474121</ele>
        <time>2016-10-22T14:10:22Z</time>
      </trkpt>
      <trkpt lat="47.11657" lon="-1.40455">
        <ele>56.200000762939</ele>
        <time>2016-10-22T14:10:31Z</time>
      </trkpt>
      <trkpt lat="47.11653" lon="-1.40444">
        <ele>56.200000762939</ele>
        <time>2016-10-22T14:10:33Z</time>
      </trkpt>
      <trkpt lat="47.11637" lon="-1.40426">
        <ele>56</ele>
        <time>2016-10-22T14:10:38Z</time>
      </trkpt>
      <trkpt lat="47.11633" lon="-1.40424">
        <ele>56</ele>
        <time>2016-10-22T14:10:39Z</time>
      </trkpt>
      <trkpt lat="47.11606" lon="-1.4041">
        <ele>56</ele>
        <time>2016-10-22T14:10:46Z</time>
      </trkpt>
      <trkpt lat="47.11592" lon="-1.40387">
        <ele>55.599998474121</ele>
        <time>2016-10-22T14:10:51Z</time>
      </trkpt>
      <trkpt lat="47.11578" lon="-1.40332">
        <ele>56</ele>
        <time>2016-10-22T14:11:00Z</time>
      </trkpt>
      <trkpt lat="47.11564" lon="-1.40273">
        <ele>56.400001525879</ele>
        <time>2016-10-22T14:11:10Z</time>
      </trkpt>
      <trkpt lat="47.11552" lon="-1.40224">
        <ele>56.400001525879</ele>
        <time>2016-10-22T14:11:19Z</time>
      </trkpt>
      <trkpt lat="47.11539" lon="-1.40217">
        <ele>56.799999237061</ele>
        <time>2016-10-22T14:11:23Z</time>
      </trkpt>
      <trkpt lat="47.11535" lon="-1.40218">
        <ele>56.799999237061</ele>
        <time>2016-10-22T14:11:24Z</time>
      </trkpt>
      <trkpt lat="47.1149" lon="-1.4024">
        <ele>56.799999237061</ele>
        <time>2016-10-22T14:11:35Z</time>
      </trkpt>
      <trkpt lat="47.11438" lon="-1.40264">
        <ele>56.200000762939</ele>
        <time>2016-10-22T14:11:47Z</time>
      </trkpt>
      <trkpt lat="47.11394" lon="-1.40273">
        <ele>56</ele>
        <time>2016-10-22T14:11:57Z</time>
      </trkpt>
      <trkpt lat="47.1135" lon="-1.40278">
        <ele>56.400001525879</ele>
        <time>2016-10-22T14:12:07Z</time>
      </trkpt>
      <trkpt lat="47.113" lon="-1.40284">
        <ele>57.200000762939</ele>
        <time>2016-10-22T14:12:18Z</time>
      </trkpt>
      <trkpt lat="47.11265" lon="-1.40296">
        <ele>57.200000762939</ele>
        <time>2016-10-22T14:12:26Z</time>
      </trkpt>
      <trkpt lat="47.11226" lon="-1.40319">
        <ele>57.200000762939</ele>
        <time>2016-10-22T14:12:35Z</time>
      </trkpt>
      <trkpt lat="47.11179" lon="-1.40346">
        <ele>56.799999237061</ele>
        <time>2016-10-22T14:12:45Z</time>
      </trkpt>
      <trkpt lat="47.11143" lon="-1.40358">
        <ele>56.599998474121</ele>
        <time>2016-10-22T14:12:52Z</time>
      </trkpt>
      <trkpt lat="47.11138" lon="-1.40358">
        <ele>56.599998474121</ele>
        <time>2016-10-22T14:12:53Z</time>
      </trkpt>
      <trkpt lat="47.11092" lon="-1.40341">
        <ele>55.599998474121</ele>
        <time>2016-10-22T14:13:02Z</time>
      </trkpt>
      <trkpt lat="47.11046" lon="-1.4032">
        <ele>55.599998474121</ele>
        <time>2016-10-22T14:13:11Z</time>
      </trkpt>
      <trkpt lat="47.10972" lon="-1.40291">
        <ele>54.799999237061</ele>
        <time>2016-10-22T14:13:25Z</time>
      </trkpt>
      <trkpt lat="47.10932" lon="-1.40274">
        <ele>54.400001525879</ele>
        <time>2016-10-22T14:13:33Z</time>
      </trkpt>
      <trkpt lat="47.10883" lon="-1.40247">
        <ele>53.599998474121</ele>
        <time>2016-10-22T14:13:43Z</time>
      </trkpt>
      <trkpt lat="47.10852" lon="-1.40225">
        <ele>52.400001525879</ele>
        <time>2016-10-22T14:13:49Z</time>
      </trkpt>
      <trkpt lat="47.10838" lon="-1.40214">
        <ele>51.599998474121</ele>
        <time>2016-10-22T14:13:53Z</time>
      </trkpt>
      <trkpt lat="47.10834" lon="-1.40196">
        <ele>51.400001525879</ele>
        <time>2016-10-22T14:13:57Z</time>
      </trkpt>
      <trkpt lat="47.10839" lon="-1.40152">
        <ele>52</ele>
        <time>2016-10-22T14:14:05Z</time>
      </trkpt>
      <trkpt lat="47.10842" lon="-1.40113">
        <ele>52.799999237061</ele>
        <time>2016-10-22T14:14:12Z</time>
      </trkpt>
      <trkpt lat="47.10846" lon="-1.40058">
        <ele>54.400001525879</ele>
        <time>2016-10-22T14:14:22Z</time>
      </trkpt>
      <trkpt lat="47.10844" lon="-1.40033">
        <ele>55.200000762939</ele>
        <time>2016-10-22T14:14:27Z</time>
      </trkpt>
      <trkpt lat="47.10834" lon="-1.39997">
        <ele>55.599998474121</ele>
        <time>2016-10-22T14:14:34Z</time>
      </trkpt>
      <trkpt lat="47.10819" lon="-1.39958">
        <ele>56</ele>
        <time>2016-10-22T14:14:42Z</time>
      </trkpt>
      <trkpt lat="47.10801" lon="-1.39913">
        <ele>56.599998474121</ele>
        <time>2016-10-22T14:14:51Z</time>
      </trkpt>
      <trkpt lat="47.10796" lon="-1.39897">
        <ele>56.599998474121</ele>
        <time>2016-10-22T14:14:54Z</time>
      </trkpt>
      <trkpt lat="47.10783" lon="-1.39841">
        <ele>56.799999237061</ele>
        <time>2016-10-22T14:15:04Z</time>
      </trkpt>
      <trkpt lat="47.10769" lon="-1.39794">
        <ele>57.400001525879</ele>
        <time>2016-10-22T14:15:13Z</time>
      </trkpt>
      <trkpt lat="47.10762" lon="-1.39774">
        <ele>57.599998474121</ele>
        <time>2016-10-22T14:15:17Z</time>
      </trkpt>
      <trkpt lat="47.10756" lon="-1.39758">
        <ele>57.799999237061</ele>
        <time>2016-10-22T14:15:20Z</time>
      </trkpt>
      <trkpt lat="47.10753" lon="-1.39748">
        <ele>58</ele>
        <time>2016-10-22T14:15:22Z</time>
      </trkpt>
      <trkpt lat="47.10747" lon="-1.39731">
        <ele>58.200000762939</ele>
        <time>2016-10-22T14:15:25Z</time>
      </trkpt>
      <trkpt lat="47.10731" lon="-1.39695">
        <ele>58</ele>
        <time>2016-10-22T14:15:32Z</time>
      </trkpt>
      <trkpt lat="47.10727" lon="-1.39685">
        <ele>58</ele>
        <time>2016-10-22T14:15:34Z</time>
      </trkpt>
      <trkpt lat="47.10713" lon="-1.39649">
        <ele>57.799999237061</ele>
        <time>2016-10-22T14:15:41Z</time>
      </trkpt>
      <trkpt lat="47.10698" lon="-1.39611">
        <ele>58</ele>
        <time>2016-10-22T14:15:48Z</time>
      </trkpt>
      <trkpt lat="47.10683" lon="-1.3957">
        <ele>57.599998474121</ele>
        <time>2016-10-22T14:15:55Z</time>
      </trkpt>
      <trkpt lat="47.1066" lon="-1.39518">
        <ele>57.400001525879</ele>
        <time>2016-10-22T14:16:04Z</time>
      </trkpt>
      <trkpt lat="47.10636" lon="-1.39463">
        <ele>56.599998474121</ele>
        <time>2016-10-22T14:16:13Z</time>
      </trkpt>
      <trkpt lat="47.10633" lon="-1.39457">
        <ele>56.400001525879</ele>
        <time>2016-10-22T14:16:14Z</time>
      </trkpt>
      <trkpt lat="47.10617" lon="-1.39452">
        <ele>55.599998474121</ele>
        <time>2016-10-22T14:16:18Z</time>
      </trkpt>
      <trkpt lat="47.10609" lon="-1.39459">
        <ele>55.400001525879</ele>
        <time>2016-10-22T14:16:20Z</time>
      </trkpt>
      <trkpt lat="47.1056" lon="-1.39506">
        <ele>54.200000762939</ele>
        <time>2016-10-22T14:16:31Z</time>
      </trkpt>
      <trkpt lat="47.10542" lon="-1.39526">
        <ele>53.599998474121</ele>
        <time>2016-10-22T14:16:35Z</time>
      </trkpt>
      <trkpt lat="47.10522" lon="-1.39564">
        <ele>53.200000762939</ele>
        <time>2016-10-22T14:16:41Z</time>
      </trkpt>
      <trkpt lat="47.10501" lon="-1.39609">
        <ele>52.599998474121</ele>
        <time>2016-10-22T14:16:48Z</time>
      </trkpt>
      <trkpt lat="47.10485" lon="-1.39629">
        <ele>52.400001525879</ele>
        <time>2016-10-22T14:16:52Z</time>
      </trkpt>
      <trkpt lat="47.10452" lon="-1.39676">
        <ele>51.799999237061</ele>
        <time>2016-10-22T14:17:01Z</time>
      </trkpt>
      <trkpt lat="47.10432" lon="-1.39708">
        <ele>52</ele>
        <time>2016-10-22T14:17:07Z</time>
      </trkpt>
      <trkpt lat="47.10417" lon="-1.39733">
        <ele>52.200000762939</ele>
        <time>2016-10-22T14:17:12Z</time>
      </trkpt>
      <trkpt lat="47.10389" lon="-1.39763">
        <ele>52.400001525879</ele>
        <time>2016-10-22T14:17:19Z</time>
      </trkpt>
      <trkpt lat="47.10364" lon="-1.39782">
        <ele>53.200000762939</ele>
        <time>2016-10-22T14:17:25Z</time>
      </trkpt>
      <trkpt lat="47.10323" lon="-1.39817">
        <ele>54</ele>
        <time>2016-10-22T14:17:36Z</time>
      </trkpt>
      <trkpt lat="47.10284" lon="-1.39849">
        <ele>55.599998474121</ele>
        <time>2016-10-22T14:17:48Z</time>
      </trkpt>
      <trkpt lat="47.10272" lon="-1.39852">
        <ele>56.599998474121</ele>
        <time>2016-10-22T14:17:52Z</time>
      </trkpt>
      <trkpt lat="47.10259" lon="-1.39854">
        <ele>57.200000762939</ele>
        <time>2016-10-22T14:17:56Z</time>
      </trkpt>
      <trkpt lat="47.10238" lon="-1.39865">
        <ele>59.200000762939</ele>
        <time>2016-10-22T14:18:03Z</time>
      </trkpt>
      <trkpt lat="47.10222" lon="-1.39869">
        <ele>59.400001525879</ele>
        <time>2016-10-22T14:18:08Z</time>
      </trkpt>
      <trkpt lat="47.10198" lon="-1.39896">
        <ele>58.400001525879</ele>
        <time>2016-10-22T14:18:15Z</time>
      </trkpt>
      <trkpt lat="47.10171" lon="-1.39923">
        <ele>58</ele>
        <time>2016-10-22T14:18:22Z</time>
      </trkpt>
      <trkpt lat="47.10144" lon="-1.39945">
        <ele>58</ele>
        <time>2016-10-22T14:18:29Z</time>
      </trkpt>
      <trkpt lat="47.10135" lon="-1.39966">
        <ele>57.799999237061</ele>
        <time>2016-10-22T14:18:33Z</time>
      </trkpt>
      <trkpt lat="47.10141" lon="-1.39991">
        <ele>58</ele>
        <time>2016-10-22T14:18:37Z</time>
      </trkpt>
      <trkpt lat="47.10137" lon="-1.4">
        <ele>58</ele>
        <time>2016-10-22T14:18:39Z</time>
      </trkpt>
      <trkpt lat="47.10134" lon="-1.40003">
        <ele>58</ele>
        <time>2016-10-22T14:18:40Z</time>
      </trkpt>
      <trkpt lat="47.10089" lon="-1.40027">
        <ele>58.599998474121</ele>
        <time>2016-10-22T14:18:51Z</time>
      </trkpt>
      <trkpt lat="47.10046" lon="-1.4005">
        <ele>59.799999237061</ele>
        <time>2016-10-22T14:19:02Z</time>
      </trkpt>
      <trkpt lat="47.10035" lon="-1.40056">
        <ele>60.400001525879</ele>
        <time>2016-10-22T14:19:05Z</time>
      </trkpt>
      <trkpt lat="47.10035" lon="-1.40074">
        <ele>61</ele>
        <time>2016-10-22T14:19:09Z</time>
      </trkpt>
      <trkpt lat="47.10037" lon="-1.4008">
        <ele>61.200000762939</ele>
        <time>2016-10-22T14:19:10Z</time>
      </trkpt>
      <trkpt lat="47.10045" lon="-1.40102">
        <ele>61.599998474121</ele>
        <time>2016-10-22T14:19:14Z</time>
      </trkpt>
      <trkpt lat="47.10043" lon="-1.40118">
        <ele>61.599998474121</ele>
        <time>2016-10-22T14:19:17Z</time>
      </trkpt>
      <trkpt lat="47.10039" lon="-1.4012">
        <ele>61.599998474121</ele>
        <time>2016-10-22T14:19:18Z</time>
      </trkpt>
      <trkpt lat="47.10024" lon="-1.40129">
        <ele>61.599998474121</ele>
        <time>2016-10-22T14:19:22Z</time>
      </trkpt>
      <trkpt lat="47.10006" lon="-1.40154">
        <ele>62.200000762939</ele>
        <time>2016-10-22T14:19:28Z</time>
      </trkpt>
      <trkpt lat="47.09998" lon="-1.40169">
        <ele>62.400001525879</ele>
        <time>2016-10-22T14:19:31Z</time>
      </trkpt>
      <trkpt lat="47.09989" lon="-1.40184">
        <ele>62.400001525879</ele>
        <time>2016-10-22T14:19:34Z</time>
      </trkpt>
      <trkpt lat="47.09988" lon="-1.40207">
        <ele>62</ele>
        <time>2016-10-22T14:19:38Z</time>
      </trkpt>
      <trkpt lat="47.10005" lon="-1.40274">
        <ele>60.400001525879</ele>
        <time>2016-10-22T14:19:48Z</time>
      </trkpt>
      <trkpt lat="47.10011" lon="-1.40301">
        <ele>59.799999237061</ele>
        <time>2016-10-22T14:19:52Z</time>
      </trkpt>
      <trkpt lat="47.10007" lon="-1.4033">
        <ele>59.599998474121</ele>
        <time>2016-10-22T14:19:57Z</time>
      </trkpt>
      <trkpt lat="47.10003" lon="-1.4034">
        <ele>59.599998474121</ele>
        <time>2016-10-22T14:19:59Z</time>
      </trkpt>
      <trkpt lat="47.09999" lon="-1.40369">
        <ele>59.799999237061</ele>
        <time>2016-10-22T14:20:04Z</time>
      </trkpt>
      <trkpt lat="47.10002" lon="-1.40381">
        <ele>59.799999237061</ele>
        <time>2016-10-22T14:20:06Z</time>
      </trkpt>
      <trkpt lat="47.10016" lon="-1.40416">
        <ele>60</ele>
        <time>2016-10-22T14:20:13Z</time>
      </trkpt>
      <trkpt lat="47.10032" lon="-1.40462">
        <ele>60</ele>
        <time>2016-10-22T14:20:21Z</time>
      </trkpt>
      <trkpt lat="47.10036" lon="-1.40474">
        <ele>60</ele>
        <time>2016-10-22T14:20:23Z</time>
      </trkpt>
      <trkpt lat="47.10051" lon="-1.40522">
        <ele>61.200000762939</ele>
        <time>2016-10-22T14:20:32Z</time>
      </trkpt>
      <trkpt lat="47.10052" lon="-1.40527">
        <ele>61.400001525879</ele>
        <time>2016-10-22T14:20:33Z</time>
      </trkpt>
      <trkpt lat="47.10048" lon="-1.4054">
        <ele>61.599998474121</ele>
        <time>2016-10-22T14:20:37Z</time>
      </trkpt>
      <trkpt lat="47.10043" lon="-1.40545">
        <ele>61.599998474121</ele>
        <time>2016-10-22T14:20:39Z</time>
      </trkpt>
      <trkpt lat="47.10041" lon="-1.40576">
        <ele>60.400001525879</ele>
        <time>2016-10-22T14:20:44Z</time>
      </trkpt>
      <trkpt lat="47.10045" lon="-1.4059">
        <ele>59.599998474121</ele>
        <time>2016-10-22T14:20:46Z</time>
      </trkpt>
      <trkpt lat="47.10061" lon="-1.4062">
        <ele>58.400001525879</ele>
        <time>2016-10-22T14:20:51Z</time>
      </trkpt>
      <trkpt lat="47.10069" lon="-1.40631">
        <ele>57.799999237061</ele>
        <time>2016-10-22T14:20:53Z</time>
      </trkpt>
      <trkpt lat="47.10099" lon="-1.40671">
        <ele>56.599998474121</ele>
        <time>2016-10-22T14:21:01Z</time>
      </trkpt>
      <trkpt lat="47.10137" lon="-1.40726">
        <ele>55.799999237061</ele>
        <time>2016-10-22T14:21:11Z</time>
      </trkpt>
      <trkpt lat="47.10172" lon="-1.40786">
        <ele>55</ele>
        <time>2016-10-22T14:21:21Z</time>
      </trkpt>
      <trkpt lat="47.10181" lon="-1.40805">
        <ele>54.799999237061</ele>
        <time>2016-10-22T14:21:24Z</time>
      </trkpt>
      <trkpt lat="47.10186" lon="-1.4084">
        <ele>54.400001525879</ele>
        <time>2016-10-22T14:21:29Z</time>
      </trkpt>
      <trkpt lat="47.1019" lon="-1.40873">
        <ele>54</ele>
        <time>2016-10-22T14:21:34Z</time>
      </trkpt>
      <trkpt lat="47.10199" lon="-1.40905">
        <ele>53.599998474121</ele>
        <time>2016-10-22T14:21:39Z</time>
      </trkpt>
      <trkpt lat="47.10197" lon="-1.40929">
        <ele>53.200000762939</ele>
        <time>2016-10-22T14:21:43Z</time>
      </trkpt>
      <trkpt lat="47.10193" lon="-1.40933">
        <ele>53</ele>
        <time>2016-10-22T14:21:44Z</time>
      </trkpt>
      <trkpt lat="47.1015" lon="-1.40974">
        <ele>51</ele>
        <time>2016-10-22T14:21:53Z</time>
      </trkpt>
      <trkpt lat="47.10119" lon="-1.41001">
        <ele>49.400001525879</ele>
        <time>2016-10-22T14:21:59Z</time>
      </trkpt>
      <trkpt lat="47.10112" lon="-1.41009">
        <ele>48.200000762939</ele>
        <time>2016-10-22T14:22:02Z</time>
      </trkpt>
      <trkpt lat="47.1011" lon="-1.4101">
        <ele>47.200000762939</ele>
        <time>2016-10-22T14:22:05Z</time>
      </trkpt>
      <trkpt lat="47.10107" lon="-1.4101">
        <ele>46.799999237061</ele>
        <time>2016-10-22T14:22:19Z</time>
      </trkpt>
      <trkpt lat="47.10107" lon="-1.4101">
        <ele>46.599998474121</ele>
        <time>2016-10-22T14:22:20Z</time>
      </trkpt>
      <trkpt lat="47.10106" lon="-1.4101">
        <ele>46.400001525879</ele>
        <time>2016-10-22T14:22:22Z</time>
      </trkpt>
      <trkpt lat="47.10101" lon="-1.41013">
        <ele>45.799999237061</ele>
        <time>2016-10-22T14:22:27Z</time>
      </trkpt>
      <trkpt lat="47.10087" lon="-1.41026">
        <ele>45</ele>
        <time>2016-10-22T14:22:31Z</time>
      </trkpt>
      <trkpt lat="47.10067" lon="-1.41049">
        <ele>42.400001525879</ele>
        <time>2016-10-22T14:22:37Z</time>
      </trkpt>
      <trkpt lat="47.10057" lon="-1.41057">
        <ele>40.400001525879</ele>
        <time>2016-10-22T14:22:41Z</time>
      </trkpt>
      <trkpt lat="47.10044" lon="-1.41068">
        <ele>37.400001525879</ele>
        <time>2016-10-22T14:22:46Z</time>
      </trkpt>
      <trkpt lat="47.10035" lon="-1.4107">
        <ele>35.200000762939</ele>
        <time>2016-10-22T14:22:51Z</time>
      </trkpt>
      <trkpt lat="47.10029" lon="-1.41076">
        <ele>33.400001525879</ele>
        <time>2016-10-22T14:22:57Z</time>
      </trkpt>
      <trkpt lat="47.10027" lon="-1.41078">
        <ele>32.599998474121</ele>
        <time>2016-10-22T14:22:59Z</time>
      </trkpt>
      <trkpt lat="47.10019" lon="-1.41085">
        <ele>29.799999237061</ele>
        <time>2016-10-22T14:23:06Z</time>
      </trkpt>
      <trkpt lat="47.10013" lon="-1.411">
        <ele>26</ele>
        <time>2016-10-22T14:23:12Z</time>
      </trkpt>
      <trkpt lat="47.10002" lon="-1.411">
        <ele>21.799999237061</ele>
        <time>2016-10-22T14:23:18Z</time>
      </trkpt>
      <trkpt lat="47.09995" lon="-1.41101">
        <ele>20</ele>
        <time>2016-10-22T14:23:23Z</time>
      </trkpt>
      <trkpt lat="47.0999" lon="-1.41111">
        <ele>17.60000038147</ele>
        <time>2016-10-22T14:23:27Z</time>
      </trkpt>
      <trkpt lat="47.09985" lon="-1.41116">
        <ele>16.200000762939</ele>
        <time>2016-10-22T14:23:29Z</time>
      </trkpt>
      <trkpt lat="47.09972" lon="-1.41129">
        <ele>13.199999809265</ele>
        <time>2016-10-22T14:23:35Z</time>
      </trkpt>
      <trkpt lat="47.0997" lon="-1.41132">
        <ele>12.39999961853</ele>
        <time>2016-10-22T14:23:38Z</time>
      </trkpt>
      <trkpt lat="47.09967" lon="-1.41137">
        <ele>12.199999809265</ele>
        <time>2016-10-22T14:23:50Z</time>
      </trkpt>
      <trkpt lat="47.09967" lon="-1.41137">
        <ele>12</ele>
        <time>2016-10-22T14:23:51Z</time>
      </trkpt>
      <trkpt lat="47.09965" lon="-1.41141">
        <ele>11.60000038147</ele>
        <time>2016-10-22T14:23:57Z</time>
      </trkpt>
      <trkpt lat="47.09971" lon="-1.41156">
        <ele>11.60000038147</ele>
        <time>2016-10-22T14:24:10Z</time>
      </trkpt>
      <trkpt lat="47.09974" lon="-1.4116">
        <ele>11.39999961853</ele>
        <time>2016-10-22T14:24:12Z</time>
      </trkpt>
      <trkpt lat="47.09981" lon="-1.4117">
        <ele>11.60000038147</ele>
        <time>2016-10-22T14:24:19Z</time>
      </trkpt>
      <trkpt lat="47.09981" lon="-1.4117">
        <ele>11.60000038147</ele>
        <time>2016-10-22T14:24:20Z</time>
      </trkpt>
      <trkpt lat="47.09992" lon="-1.41183">
        <ele>11.39999961853</ele>
        <time>2016-10-22T14:24:30Z</time>
      </trkpt>
      <trkpt lat="47.10003" lon="-1.41199">
        <ele>11.39999961853</ele>
        <time>2016-10-22T14:24:34Z</time>
      </trkpt>
      <trkpt lat="47.10021" lon="-1.41221">
        <ele>11.800000190735</ele>
        <time>2016-10-22T14:24:41Z</time>
      </trkpt>
      <trkpt lat="47.10032" lon="-1.41237">
        <ele>12.199999809265</ele>
        <time>2016-10-22T14:24:46Z</time>
      </trkpt>
      <trkpt lat="47.10046" lon="-1.41254">
        <ele>12.60000038147</ele>
        <time>2016-10-22T14:24:51Z</time>
      </trkpt>
      <trkpt lat="47.10054" lon="-1.4127">
        <ele>12.60000038147</ele>
        <time>2016-10-22T14:24:55Z</time>
      </trkpt>
      <trkpt lat="47.10064" lon="-1.41291">
        <ele>12.60000038147</ele>
        <time>2016-10-22T14:24:59Z</time>
      </trkpt>
      <trkpt lat="47.10077" lon="-1.41309">
        <ele>11.800000190735</ele>
        <time>2016-10-22T14:25:03Z</time>
      </trkpt>
      <trkpt lat="47.10091" lon="-1.41332">
        <ele>11.199999809265</ele>
        <time>2016-10-22T14:25:08Z</time>
      </trkpt>
      <trkpt lat="47.10104" lon="-1.4136">
        <ele>11.199999809265</ele>
        <time>2016-10-22T14:25:13Z</time>
      </trkpt>
      <trkpt lat="47.10114" lon="-1.4138">
        <ele>11.199999809265</ele>
        <time>2016-10-22T14:25:17Z</time>
      </trkpt>
      <trkpt lat="47.10122" lon="-1.41402">
        <ele>11</ele>
        <time>2016-10-22T14:25:21Z</time>
      </trkpt>
      <trkpt lat="47.10135" lon="-1.4143">
        <ele>10.39999961853</ele>
        <time>2016-10-22T14:25:26Z</time>
      </trkpt>
      <trkpt lat="47.10143" lon="-1.41447">
        <ele>8.1015625</ele>
      </trkpt>
      <trkpt lat="47.10148" lon="-1.41458">
        <ele>7.734375</ele>
      </trkpt>
      <trkpt lat="47.10159" lon="-1.41471">
        <ele>7.0234375</ele>
      </trkpt>
      <trkpt lat="47.10164" lon="-1.41483">
        <ele>7.13671875</ele>
      </trkpt>
      <trkpt lat="47.10172" lon="-1.41495">
        <ele>7.06640625</ele>
      </trkpt>
      <trkpt lat="47.10179" lon="-1.41504">
        <ele>6.9375</ele>
      </trkpt>
      <trkpt lat="47.10187" lon="-1.41514">
        <ele>6.828125</ele>
      </trkpt>
      <trkpt lat="47.10195" lon="-1.41521">
        <ele>6.98828125</ele>
      </trkpt>
      <trkpt lat="47.10205" lon="-1.41529">
        <ele>6.99609375</ele>
      </trkpt>
      <trkpt lat="47.10213" lon="-1.41537">
        <ele>6.89453125</ele>
      </trkpt>
      <trkpt lat="47.10221" lon="-1.41547">
        <ele>6.62890625</ele>
      </trkpt>
      <trkpt lat="47.10232" lon="-1.41556">
        <ele>6.1484375</ele>
      </trkpt>
      <trkpt lat="47.10235" lon="-1.41544">
        <ele>6.421875</ele>
      </trkpt>
      <trkpt lat="47.1024" lon="-1.41528">
        <ele>6.87890625</ele>
      </trkpt>
      <trkpt lat="47.10246" lon="-1.41514">
        <ele>8.30859375</ele>
      </trkpt>
      <trkpt lat="47.10256" lon="-1.41497">
        <ele>10.8203125</ele>
      </trkpt>
      <trkpt lat="47.10267" lon="-1.41489">
        <ele>12.98828125</ele>
      </trkpt>
      <trkpt lat="47.10272" lon="-1.41481">
        <ele>14.3515625</ele>
      </trkpt>
      <trkpt lat="47.10281" lon="-1.41478">
        <ele>15.89453125</ele>
      </trkpt>
      <trkpt lat="47.10289" lon="-1.41478">
        <ele>17.078125</ele>
      </trkpt>
      <trkpt lat="47.10292" lon="-1.41482">
        <ele>26</ele>
        <time>2016-10-22T14:29:45Z</time>
      </trkpt>
      <trkpt lat="47.10293" lon="-1.41482">
        <ele>26</ele>
        <time>2016-10-22T14:29:47Z</time>
      </trkpt>
      <trkpt lat="47.10295" lon="-1.41482">
        <ele>26.60000038147</ele>
        <time>2016-10-22T14:30:07Z</time>
      </trkpt>
      <trkpt lat="47.10301" lon="-1.41485">
        <ele>27.60000038147</ele>
        <time>2016-10-22T14:30:15Z</time>
      </trkpt>
      <trkpt lat="47.10307" lon="-1.41488">
        <ele>29</ele>
        <time>2016-10-22T14:30:23Z</time>
      </trkpt>
      <trkpt lat="47.10312" lon="-1.41489">
        <ele>30.799999237061</ele>
        <time>2016-10-22T14:30:31Z</time>
      </trkpt>
      <trkpt lat="47.1032" lon="-1.41491">
        <ele>32.200000762939</ele>
        <time>2016-10-22T14:30:40Z</time>
      </trkpt>
      <trkpt lat="47.10324" lon="-1.41492">
        <ele>33.200000762939</ele>
        <time>2016-10-22T14:30:46Z</time>
      </trkpt>
      <trkpt lat="47.10335" lon="-1.41483">
        <ele>34</ele>
        <time>2016-10-22T14:31:07Z</time>
      </trkpt>
      <trkpt lat="47.10343" lon="-1.41474">
        <ele>34.799999237061</ele>
        <time>2016-10-22T14:31:15Z</time>
      </trkpt>
      <trkpt lat="47.10349" lon="-1.41468">
        <ele>35.200000762939</ele>
        <time>2016-10-22T14:31:21Z</time>
      </trkpt>
      <trkpt lat="47.10351" lon="-1.41466">
        <ele>35.599998474121</ele>
        <time>2016-10-22T14:31:25Z</time>
      </trkpt>
      <trkpt lat="47.10352" lon="-1.41462">
        <ele>36</ele>
        <time>2016-10-22T14:31:29Z</time>
      </trkpt>
      <trkpt lat="47.10349" lon="-1.41442">
        <ele>36.200000762939</ele>
        <time>2016-10-22T14:32:37Z</time>
      </trkpt>
      <trkpt lat="47.10344" lon="-1.41422">
        <ele>36.400001525879</ele>
        <time>2016-10-22T14:32:44Z</time>
      </trkpt>
      <trkpt lat="47.1034" lon="-1.41406">
        <ele>36.599998474121</ele>
        <time>2016-10-22T14:32:49Z</time>
      </trkpt>
      <trkpt lat="47.10342" lon="-1.41393">
        <ele>36.799999237061</ele>
        <time>2016-10-22T14:32:54Z</time>
      </trkpt>
      <trkpt lat="47.10348" lon="-1.4138">
        <ele>37.200000762939</ele>
        <time>2016-10-22T14:33:01Z</time>
      </trkpt>
      <trkpt lat="47.10355" lon="-1.4137">
        <ele>38.400001525879</ele>
        <time>2016-10-22T14:33:07Z</time>
      </trkpt>
      <trkpt lat="47.10362" lon="-1.41353">
        <ele>39.200000762939</ele>
        <time>2016-10-22T14:33:14Z</time>
      </trkpt>
      <trkpt lat="47.10373" lon="-1.41327">
        <ele>41</ele>
        <time>2016-10-22T14:33:23Z</time>
      </trkpt>
      <trkpt lat="47.10383" lon="-1.41306">
        <ele>42.200000762939</ele>
        <time>2016-10-22T14:33:30Z</time>
      </trkpt>
      <trkpt lat="47.10395" lon="-1.41292">
        <ele>43</ele>
        <time>2016-10-22T14:33:36Z</time>
      </trkpt>
      <trkpt lat="47.10407" lon="-1.41272">
        <ele>43.799999237061</ele>
        <time>2016-10-22T14:33:43Z</time>
      </trkpt>
      <trkpt lat="47.10425" lon="-1.41241">
        <ele>44.599998474121</ele>
        <time>2016-10-22T14:33:52Z</time>
      </trkpt>
      <trkpt lat="47.10446" lon="-1.41206">
        <ele>45.599998474121</ele>
        <time>2016-10-22T14:34:01Z</time>
      </trkpt>
      <trkpt lat="47.10469" lon="-1.41177">
        <ele>46.400001525879</ele>
        <time>2016-10-22T14:34:09Z</time>
      </trkpt>
      <trkpt lat="47.10487" lon="-1.41164">
        <ele>46</ele>
        <time>2016-10-22T14:34:14Z</time>
      </trkpt>
      <trkpt lat="47.105" lon="-1.41161">
        <ele>45.799999237061</ele>
        <time>2016-10-22T14:34:18Z</time>
      </trkpt>
      <trkpt lat="47.10509" lon="-1.41178">
        <ele>45</ele>
        <time>2016-10-22T14:34:22Z</time>
      </trkpt>
      <trkpt lat="47.1051" lon="-1.41184">
        <ele>44.799999237061</ele>
        <time>2016-10-22T14:34:23Z</time>
      </trkpt>
      <trkpt lat="47.1053" lon="-1.41228">
        <ele>43.599998474121</ele>
        <time>2016-10-22T14:34:30Z</time>
      </trkpt>
      <trkpt lat="47.10537" lon="-1.41241">
        <ele>42.799999237061</ele>
        <time>2016-10-22T14:34:32Z</time>
      </trkpt>
      <trkpt lat="47.10558" lon="-1.41253">
        <ele>40.799999237061</ele>
        <time>2016-10-22T14:34:36Z</time>
      </trkpt>
      <trkpt lat="47.10573" lon="-1.41246">
        <ele>39</ele>
        <time>2016-10-22T14:34:39Z</time>
      </trkpt>
      <trkpt lat="47.10582" lon="-1.41222">
        <ele>37.400001525879</ele>
        <time>2016-10-22T14:34:42Z</time>
      </trkpt>
      <trkpt lat="47.10581" lon="-1.41183">
        <ele>35</ele>
        <time>2016-10-22T14:34:46Z</time>
      </trkpt>
      <trkpt lat="47.10575" lon="-1.41138">
        <ele>33</ele>
        <time>2016-10-22T14:34:50Z</time>
      </trkpt>
      <trkpt lat="47.10581" lon="-1.41105">
        <ele>31.60000038147</ele>
        <time>2016-10-22T14:34:54Z</time>
      </trkpt>
      <trkpt lat="47.10584" lon="-1.41101">
        <ele>30.200000762939</ele>
        <time>2016-10-22T14:34:57Z</time>
      </trkpt>
      <trkpt lat="47.10589" lon="-1.41102">
        <ele>29.39999961853</ele>
        <time>2016-10-22T14:35:00Z</time>
      </trkpt>
      <trkpt lat="47.10598" lon="-1.41121">
        <ele>29.200000762939</ele>
        <time>2016-10-22T14:35:05Z</time>
      </trkpt>
      <trkpt lat="47.10605" lon="-1.41147">
        <ele>28.39999961853</ele>
        <time>2016-10-22T14:35:10Z</time>
      </trkpt>
      <trkpt lat="47.10611" lon="-1.41168">
        <ele>27.799999237061</ele>
        <time>2016-10-22T14:35:13Z</time>
      </trkpt>
      <trkpt lat="47.10629" lon="-1.41201">
        <ele>26.39999961853</ele>
        <time>2016-10-22T14:35:18Z</time>
      </trkpt>
      <trkpt lat="47.1065" lon="-1.4122">
        <ele>25.39999961853</ele>
        <time>2016-10-22T14:35:22Z</time>
      </trkpt>
      <trkpt lat="47.10692" lon="-1.41237">
        <ele>23.799999237061</ele>
        <time>2016-10-22T14:35:28Z</time>
      </trkpt>
      <trkpt lat="47.10717" lon="-1.41257">
        <ele>22.60000038147</ele>
        <time>2016-10-22T14:35:32Z</time>
      </trkpt>
      <trkpt lat="47.10739" lon="-1.41294">
        <ele>21.200000762939</ele>
        <time>2016-10-22T14:35:37Z</time>
      </trkpt>
      <trkpt lat="47.10769" lon="-1.41359">
        <ele>19.200000762939</ele>
        <time>2016-10-22T14:35:44Z</time>
      </trkpt>
      <trkpt lat="47.10796" lon="-1.41413">
        <ele>17.39999961853</ele>
        <time>2016-10-22T14:35:50Z</time>
      </trkpt>
      <trkpt lat="47.10822" lon="-1.41453">
        <ele>16.60000038147</ele>
        <time>2016-10-22T14:35:56Z</time>
      </trkpt>
      <trkpt lat="47.10856" lon="-1.41504">
        <ele>16.39999961853</ele>
        <time>2016-10-22T14:36:05Z</time>
      </trkpt>
      <trkpt lat="47.10872" lon="-1.4152">
        <ele>16.200000762939</ele>
        <time>2016-10-22T14:36:09Z</time>
      </trkpt>
      <trkpt lat="47.10881" lon="-1.41525">
        <ele>16.39999961853</ele>
        <time>2016-10-22T14:36:11Z</time>
      </trkpt>
      <trkpt lat="47.10889" lon="-1.41527">
        <ele>16.39999961853</ele>
        <time>2016-10-22T14:36:13Z</time>
      </trkpt>
      <trkpt lat="47.10907" lon="-1.41526">
        <ele>16.799999237061</ele>
        <time>2016-10-22T14:36:17Z</time>
      </trkpt>
      <trkpt lat="47.10938" lon="-1.41521">
        <ele>18.200000762939</ele>
        <time>2016-10-22T14:36:24Z</time>
      </trkpt>
      <trkpt lat="47.10962" lon="-1.41525">
        <ele>19.799999237061</ele>
        <time>2016-10-22T14:36:30Z</time>
      </trkpt>
      <trkpt lat="47.1099" lon="-1.41538">
        <ele>21.200000762939</ele>
        <time>2016-10-22T14:36:36Z</time>
      </trkpt>
      <trkpt lat="47.11019" lon="-1.41563">
        <ele>22.799999237061</ele>
        <time>2016-10-22T14:36:43Z</time>
      </trkpt>
      <trkpt lat="47.11041" lon="-1.4159">
        <ele>23.799999237061</ele>
        <time>2016-10-22T14:36:48Z</time>
      </trkpt>
      <trkpt lat="47.11045" lon="-1.41596">
        <ele>24</ele>
        <time>2016-10-22T14:36:49Z</time>
      </trkpt>
      <trkpt lat="47.11052" lon="-1.41615">
        <ele>24.799999237061</ele>
        <time>2016-10-22T14:36:52Z</time>
      </trkpt>
      <trkpt lat="47.11059" lon="-1.41634">
        <ele>25.60000038147</ele>
        <time>2016-10-22T14:36:56Z</time>
      </trkpt>
      <trkpt lat="47.11051" lon="-1.41648">
        <ele>26.39999961853</ele>
        <time>2016-10-22T14:37:01Z</time>
      </trkpt>
      <trkpt lat="47.11026" lon="-1.41671">
        <ele>28.39999961853</ele>
        <time>2016-10-22T14:37:11Z</time>
      </trkpt>
      <trkpt lat="47.11004" lon="-1.41681">
        <ele>30</ele>
        <time>2016-10-22T14:37:19Z</time>
      </trkpt>
      <trkpt lat="47.1097" lon="-1.41692">
        <ele>31.200000762939</ele>
        <time>2016-10-22T14:37:31Z</time>
      </trkpt>
      <trkpt lat="47.10946" lon="-1.41698">
        <ele>32.599998474121</ele>
        <time>2016-10-22T14:37:40Z</time>
      </trkpt>
      <trkpt lat="47.10928" lon="-1.4171">
        <ele>35</ele>
        <time>2016-10-22T14:37:48Z</time>
      </trkpt>
      <trkpt lat="47.10923" lon="-1.41725">
        <ele>36.200000762939</ele>
        <time>2016-10-22T14:37:53Z</time>
      </trkpt>
      <trkpt lat="47.10922" lon="-1.41746">
        <ele>37.799999237061</ele>
        <time>2016-10-22T14:37:59Z</time>
      </trkpt>
      <trkpt lat="47.10924" lon="-1.41766">
        <ele>39.799999237061</ele>
        <time>2016-10-22T14:38:06Z</time>
      </trkpt>
      <trkpt lat="47.10926" lon="-1.41784">
        <ele>41.799999237061</ele>
        <time>2016-10-22T14:38:14Z</time>
      </trkpt>
      <trkpt lat="47.10929" lon="-1.41802">
        <ele>43</ele>
        <time>2016-10-22T14:38:21Z</time>
      </trkpt>
      <trkpt lat="47.10929" lon="-1.4182">
        <ele>44.400001525879</ele>
        <time>2016-10-22T14:38:28Z</time>
      </trkpt>
      <trkpt lat="47.10925" lon="-1.41845">
        <ele>46.200000762939</ele>
        <time>2016-10-22T14:38:37Z</time>
      </trkpt>
      <trkpt lat="47.10922" lon="-1.4187">
        <ele>47.200000762939</ele>
        <time>2016-10-22T14:38:44Z</time>
      </trkpt>
      <trkpt lat="47.10914" lon="-1.419">
        <ele>47.599998474121</ele>
        <time>2016-10-22T14:38:52Z</time>
      </trkpt>
      <trkpt lat="47.10899" lon="-1.41923">
        <ele>48</ele>
        <time>2016-10-22T14:38:59Z</time>
      </trkpt>
      <trkpt lat="47.10875" lon="-1.41944">
        <ele>48</ele>
        <time>2016-10-22T14:39:08Z</time>
      </trkpt>
      <trkpt lat="47.10851" lon="-1.41954">
        <ele>48.400001525879</ele>
        <time>2016-10-22T14:39:15Z</time>
      </trkpt>
      <trkpt lat="47.10818" lon="-1.41966">
        <ele>49.200000762939</ele>
        <time>2016-10-22T14:39:24Z</time>
      </trkpt>
      <trkpt lat="47.10787" lon="-1.41978">
        <ele>49.400001525879</ele>
        <time>2016-10-22T14:39:32Z</time>
      </trkpt>
      <trkpt lat="47.10758" lon="-1.41991">
        <ele>50</ele>
        <time>2016-10-22T14:39:39Z</time>
      </trkpt>
      <trkpt lat="47.10724" lon="-1.42007">
        <ele>49.599998474121</ele>
        <time>2016-10-22T14:39:47Z</time>
      </trkpt>
      <trkpt lat="47.10685" lon="-1.42015">
        <ele>49.599998474121</ele>
        <time>2016-10-22T14:39:56Z</time>
      </trkpt>
      <trkpt lat="47.10646" lon="-1.42018">
        <ele>48.799999237061</ele>
        <time>2016-10-22T14:40:04Z</time>
      </trkpt>
      <trkpt lat="47.10602" lon="-1.42022">
        <ele>48.400001525879</ele>
        <time>2016-10-22T14:40:13Z</time>
      </trkpt>
      <trkpt lat="47.10543" lon="-1.42031">
        <ele>46.799999237061</ele>
        <time>2016-10-22T14:40:23Z</time>
      </trkpt>
      <trkpt lat="47.10537" lon="-1.42032">
        <ele>46.599998474121</ele>
        <time>2016-10-22T14:40:24Z</time>
      </trkpt>
      <trkpt lat="47.10496" lon="-1.42041">
        <ele>45.400001525879</ele>
        <time>2016-10-22T14:40:31Z</time>
      </trkpt>
      <trkpt lat="47.10485" lon="-1.42056">
        <ele>45</ele>
        <time>2016-10-22T14:40:34Z</time>
      </trkpt>
      <trkpt lat="47.10484" lon="-1.42071">
        <ele>45</ele>
        <time>2016-10-22T14:40:36Z</time>
      </trkpt>
      <trkpt lat="47.1049" lon="-1.42142">
        <ele>46.599998474121</ele>
        <time>2016-10-22T14:40:46Z</time>
      </trkpt>
      <trkpt lat="47.10492" lon="-1.42205">
        <ele>49.599998474121</ele>
        <time>2016-10-22T14:40:56Z</time>
      </trkpt>
      <trkpt lat="47.10494" lon="-1.42255">
        <ele>50.799999237061</ele>
        <time>2016-10-22T14:41:04Z</time>
      </trkpt>
      <trkpt lat="47.10494" lon="-1.42293">
        <ele>50.799999237061</ele>
        <time>2016-10-22T14:41:10Z</time>
      </trkpt>
      <trkpt lat="47.10495" lon="-1.42375">
        <ele>50.599998474121</ele>
        <time>2016-10-22T14:41:23Z</time>
      </trkpt>
      <trkpt lat="47.10502" lon="-1.4243">
        <ele>50.400001525879</ele>
        <time>2016-10-22T14:41:31Z</time>
      </trkpt>
      <trkpt lat="47.10512" lon="-1.42489">
        <ele>49.400001525879</ele>
        <time>2016-10-22T14:41:39Z</time>
      </trkpt>
      <trkpt lat="47.10516" lon="-1.42543">
        <ele>47.799999237061</ele>
        <time>2016-10-22T14:41:45Z</time>
      </trkpt>
      <trkpt lat="47.10518" lon="-1.42618">
        <ele>45.400001525879</ele>
        <time>2016-10-22T14:41:52Z</time>
      </trkpt>
      <trkpt lat="47.10525" lon="-1.42681">
        <ele>43.599998474121</ele>
        <time>2016-10-22T14:41:58Z</time>
      </trkpt>
      <trkpt lat="47.10536" lon="-1.42731">
        <ele>43.400001525879</ele>
        <time>2016-10-22T14:42:04Z</time>
      </trkpt>
      <trkpt lat="47.10544" lon="-1.42765">
        <ele>43.599998474121</ele>
        <time>2016-10-22T14:42:09Z</time>
      </trkpt>
      <trkpt lat="47.10546" lon="-1.428">
        <ele>43.200000762939</ele>
        <time>2016-10-22T14:42:14Z</time>
      </trkpt>
      <trkpt lat="47.10541" lon="-1.42827">
        <ele>42.599998474121</ele>
        <time>2016-10-22T14:42:19Z</time>
      </trkpt>
      <trkpt lat="47.1054" lon="-1.4283">
        <ele>42.599998474121</ele>
        <time>2016-10-22T14:42:20Z</time>
      </trkpt>
      <trkpt lat="47.1053" lon="-1.42846">
        <ele>42.200000762939</ele>
        <time>2016-10-22T14:42:25Z</time>
      </trkpt>
      <trkpt lat="47.10531" lon="-1.42869">
        <ele>42</ele>
        <time>2016-10-22T14:42:29Z</time>
      </trkpt>
      <trkpt lat="47.10534" lon="-1.429">
        <ele>41.200000762939</ele>
        <time>2016-10-22T14:42:35Z</time>
      </trkpt>
      <trkpt lat="47.10539" lon="-1.42918">
        <ele>40.799999237061</ele>
        <time>2016-10-22T14:42:39Z</time>
      </trkpt>
      <trkpt lat="47.1053" lon="-1.42928">
        <ele>40.599998474121</ele>
        <time>2016-10-22T14:42:44Z</time>
      </trkpt>
      <trkpt lat="47.10527" lon="-1.42929">
        <ele>40.599998474121</ele>
        <time>2016-10-22T14:42:45Z</time>
      </trkpt>
      <trkpt lat="47.10505" lon="-1.42934">
        <ele>41</ele>
        <time>2016-10-22T14:42:51Z</time>
      </trkpt>
      <trkpt lat="47.1049" lon="-1.4294">
        <ele>41.200000762939</ele>
        <time>2016-10-22T14:42:55Z</time>
      </trkpt>
      <trkpt lat="47.10466" lon="-1.42944">
        <ele>41.400001525879</ele>
        <time>2016-10-22T14:43:01Z</time>
      </trkpt>
      <trkpt lat="47.10441" lon="-1.4295">
        <ele>42.400001525879</ele>
        <time>2016-10-22T14:43:08Z</time>
      </trkpt>
      <trkpt lat="47.10412" lon="-1.42957">
        <ele>43.400001525879</ele>
        <time>2016-10-22T14:43:15Z</time>
      </trkpt>
      <trkpt lat="47.10392" lon="-1.42965">
        <ele>43.599998474121</ele>
        <time>2016-10-22T14:43:20Z</time>
      </trkpt>
      <trkpt lat="47.10378" lon="-1.42977">
        <ele>43.799999237061</ele>
        <time>2016-10-22T14:43:24Z</time>
      </trkpt>
      <trkpt lat="47.1036" lon="-1.42993">
        <ele>43.799999237061</ele>
        <time>2016-10-22T14:43:29Z</time>
      </trkpt>
      <trkpt lat="47.10352" lon="-1.43">
        <ele>43.799999237061</ele>
        <time>2016-10-22T14:43:31Z</time>
      </trkpt>
      <trkpt lat="47.10327" lon="-1.43022">
        <ele>42.799999237061</ele>
        <time>2016-10-22T14:43:37Z</time>
      </trkpt>
      <trkpt lat="47.10323" lon="-1.43026">
        <ele>42.400001525879</ele>
        <time>2016-10-22T14:43:38Z</time>
      </trkpt>
      <trkpt lat="47.10303" lon="-1.43041">
        <ele>39.400001525879</ele>
        <time>2016-10-22T14:43:43Z</time>
      </trkpt>
      <trkpt lat="47.10295" lon="-1.43051">
        <ele>38.599998474121</ele>
        <time>2016-10-22T14:43:45Z</time>
      </trkpt>
      <trkpt lat="47.10283" lon="-1.43082">
        <ele>35.400001525879</ele>
        <time>2016-10-22T14:43:49Z</time>
      </trkpt>
      <trkpt lat="47.10282" lon="-1.4309">
        <ele>34.799999237061</ele>
        <time>2016-10-22T14:43:50Z</time>
      </trkpt>
      <trkpt lat="47.1028" lon="-1.43106">
        <ele>33.599998474121</ele>
        <time>2016-10-22T14:43:52Z</time>
      </trkpt>
      <trkpt lat="47.10285" lon="-1.4314">
        <ele>31.799999237061</ele>
        <time>2016-10-22T14:43:57Z</time>
      </trkpt>
      <trkpt lat="47.10294" lon="-1.43167">
        <ele>31</ele>
        <time>2016-10-22T14:44:04Z</time>
      </trkpt>
      <trkpt lat="47.10294" lon="-1.43169">
        <ele>31</ele>
        <time>2016-10-22T14:44:06Z</time>
      </trkpt>
      <trkpt lat="47.1029" lon="-1.43177">
        <ele>31</ele>
        <time>2016-10-22T14:44:20Z</time>
      </trkpt>
      <trkpt lat="47.10289" lon="-1.43177">
        <ele>31</ele>
        <time>2016-10-22T14:44:22Z</time>
      </trkpt>
      <trkpt lat="47.10268" lon="-1.43187">
        <ele>30.799999237061</ele>
        <time>2016-10-22T14:44:35Z</time>
      </trkpt>
      <trkpt lat="47.10247" lon="-1.43197">
        <ele>30.799999237061</ele>
        <time>2016-10-22T14:44:42Z</time>
      </trkpt>
      <trkpt lat="47.10223" lon="-1.43208">
        <ele>31.39999961853</ele>
        <time>2016-10-22T14:44:49Z</time>
      </trkpt>
      <trkpt lat="47.10204" lon="-1.43225">
        <ele>32.200000762939</ele>
        <time>2016-10-22T14:44:55Z</time>
      </trkpt>
      <trkpt lat="47.10193" lon="-1.43242">
        <ele>32.599998474121</ele>
        <time>2016-10-22T14:45:00Z</time>
      </trkpt>
      <trkpt lat="47.10182" lon="-1.43262">
        <ele>33.200000762939</ele>
        <time>2016-10-22T14:45:05Z</time>
      </trkpt>
      <trkpt lat="47.10165" lon="-1.43283">
        <ele>34.400001525879</ele>
        <time>2016-10-22T14:45:11Z</time>
      </trkpt>
      <trkpt lat="47.10151" lon="-1.43298">
        <ele>35</ele>
        <time>2016-10-22T14:45:16Z</time>
      </trkpt>
      <trkpt lat="47.10139" lon="-1.43317">
        <ele>35.599998474121</ele>
        <time>2016-10-22T14:45:21Z</time>
      </trkpt>
      <trkpt lat="47.10122" lon="-1.43346">
        <ele>36.400001525879</ele>
        <time>2016-10-22T14:45:28Z</time>
      </trkpt>
      <trkpt lat="47.10106" lon="-1.43359">
        <ele>37</ele>
        <time>2016-10-22T14:45:33Z</time>
      </trkpt>
      <trkpt lat="47.10074" lon="-1.43375">
        <ele>37.799999237061</ele>
        <time>2016-10-22T14:45:42Z</time>
      </trkpt>
      <trkpt lat="47.10034" lon="-1.43394">
        <ele>38.799999237061</ele>
        <time>2016-10-22T14:45:53Z</time>
      </trkpt>
      <trkpt lat="47.10007" lon="-1.43399">
        <ele>39.200000762939</ele>
        <time>2016-10-22T14:46:00Z</time>
      </trkpt>
      <trkpt lat="47.0998" lon="-1.43412">
        <ele>40</ele>
        <time>2016-10-22T14:46:07Z</time>
      </trkpt>
      <trkpt lat="47.09945" lon="-1.43431">
        <ele>40.200000762939</ele>
        <time>2016-10-22T14:46:16Z</time>
      </trkpt>
      <trkpt lat="47.09907" lon="-1.43452">
        <ele>40.599998474121</ele>
        <time>2016-10-22T14:46:26Z</time>
      </trkpt>
      <trkpt lat="47.09896" lon="-1.43458">
        <ele>40.799999237061</ele>
        <time>2016-10-22T14:46:29Z</time>
      </trkpt>
      <trkpt lat="47.09884" lon="-1.43444">
        <ele>41.200000762939</ele>
        <time>2016-10-22T14:46:33Z</time>
      </trkpt>
      <trkpt lat="47.09874" lon="-1.43409">
        <ele>41.200000762939</ele>
        <time>2016-10-22T14:46:39Z</time>
      </trkpt>
      <trkpt lat="47.09865" lon="-1.43387">
        <ele>41.200000762939</ele>
        <time>2016-10-22T14:46:43Z</time>
      </trkpt>
      <trkpt lat="47.09841" lon="-1.43346">
        <ele>40.799999237061</ele>
        <time>2016-10-22T14:46:52Z</time>
      </trkpt>
      <trkpt lat="47.09831" lon="-1.43334">
        <ele>41</ele>
        <time>2016-10-22T14:46:55Z</time>
      </trkpt>
      <trkpt lat="47.09824" lon="-1.43327">
        <ele>41.200000762939</ele>
        <time>2016-10-22T14:46:57Z</time>
      </trkpt>
      <trkpt lat="47.09796" lon="-1.43319">
        <ele>41.799999237061</ele>
        <time>2016-10-22T14:47:04Z</time>
      </trkpt>
      <trkpt lat="47.09762" lon="-1.43318">
        <ele>42.200000762939</ele>
        <time>2016-10-22T14:47:12Z</time>
      </trkpt>
      <trkpt lat="47.09724" lon="-1.43327">
        <ele>43</ele>
        <time>2016-10-22T14:47:21Z</time>
      </trkpt>
      <trkpt lat="47.09691" lon="-1.43341">
        <ele>43.799999237061</ele>
        <time>2016-10-22T14:47:29Z</time>
      </trkpt>
      <trkpt lat="47.09655" lon="-1.43351">
        <ele>44.400001525879</ele>
        <time>2016-10-22T14:47:38Z</time>
      </trkpt>
      <trkpt lat="47.09627" lon="-1.43352">
        <ele>45.200000762939</ele>
        <time>2016-10-22T14:47:45Z</time>
      </trkpt>
      <trkpt lat="47.09587" lon="-1.43351">
        <ele>45.400001525879</ele>
        <time>2016-10-22T14:47:55Z</time>
      </trkpt>
      <trkpt lat="47.09552" lon="-1.43351">
        <ele>45.400001525879</ele>
        <time>2016-10-22T14:48:03Z</time>
      </trkpt>
      <trkpt lat="47.09512" lon="-1.43352">
        <ele>45</ele>
        <time>2016-10-22T14:48:11Z</time>
      </trkpt>
      <trkpt lat="47.09492" lon="-1.43353">
        <ele>44.799999237061</ele>
        <time>2016-10-22T14:48:15Z</time>
      </trkpt>
      <trkpt lat="47.09478" lon="-1.43367">
        <ele>44.799999237061</ele>
        <time>2016-10-22T14:48:19Z</time>
      </trkpt>
      <trkpt lat="47.0946" lon="-1.43413">
        <ele>45.200000762939</ele>
        <time>2016-10-22T14:48:27Z</time>
      </trkpt>
      <trkpt lat="47.09445" lon="-1.43461">
        <ele>45.799999237061</ele>
        <time>2016-10-22T14:48:35Z</time>
      </trkpt>
      <trkpt lat="47.09426" lon="-1.43519">
        <ele>46.400001525879</ele>
        <time>2016-10-22T14:48:45Z</time>
      </trkpt>
      <trkpt lat="47.09424" lon="-1.43524">
        <ele>46.400001525879</ele>
        <time>2016-10-22T14:48:46Z</time>
      </trkpt>
      <trkpt lat="47.09399" lon="-1.43562">
        <ele>46.799999237061</ele>
        <time>2016-10-22T14:48:54Z</time>
      </trkpt>
      <trkpt lat="47.09371" lon="-1.436">
        <ele>47.799999237061</ele>
        <time>2016-10-22T14:49:03Z</time>
      </trkpt>
      <trkpt lat="47.09367" lon="-1.43605">
        <ele>47.799999237061</ele>
        <time>2016-10-22T14:49:04Z</time>
      </trkpt>
      <trkpt lat="47.09356" lon="-1.43623">
        <ele>48</ele>
        <time>2016-10-22T14:49:08Z</time>
      </trkpt>
      <trkpt lat="47.09352" lon="-1.43651">
        <ele>48.599998474121</ele>
        <time>2016-10-22T14:49:13Z</time>
      </trkpt>
      <trkpt lat="47.09353" lon="-1.43657">
        <ele>48.599998474121</ele>
        <time>2016-10-22T14:49:14Z</time>
      </trkpt>
      <trkpt lat="47.09364" lon="-1.43714">
        <ele>49.599998474121</ele>
        <time>2016-10-22T14:49:24Z</time>
      </trkpt>
      <trkpt lat="47.09373" lon="-1.43774">
        <ele>50.599998474121</ele>
        <time>2016-10-22T14:49:34Z</time>
      </trkpt>
      <trkpt lat="47.09379" lon="-1.43835">
        <ele>51.599998474121</ele>
        <time>2016-10-22T14:49:44Z</time>
      </trkpt>
      <trkpt lat="47.09383" lon="-1.43891">
        <ele>52</ele>
        <time>2016-10-22T14:49:54Z</time>
      </trkpt>
      <trkpt lat="47.09387" lon="-1.43924">
        <ele>52</ele>
        <time>2016-10-22T14:50:01Z</time>
      </trkpt>
    </trkseg>
  </trk>
</gpx>